
Distance (Route):
Temperature : 0°C
Humidity : 0%
Pressure : 0hPa| Receiver | Frames | First received | Last received |
|---|---|---|---|
| SQ6EMJ | 583 | 2026-09-04 11:28:29 | 2026-09-04 13:01:14 |
| POL1PZ | 184 | 2026-09-04 11:27:59 | 2026-09-04 13:30:35 |
| OE5MMP-10 | 130 | 2026-09-04 12:14:37 | 2026-09-04 13:00:53 |
| PETON7-10 | 105 | 2026-09-04 12:18:00 | 2026-09-04 13:01:11 |
| SP3BTT-10 | 75 | 2026-09-04 11:47:52 | 2026-09-04 13:12:47 |
| OE5DRO-10 | 59 | 2026-09-04 12:21:23 | 2026-09-04 12:56:13 |
| OM5KV | 42 | 2026-09-04 12:19:59 | 2026-09-04 12:22:51 |
| OK1ALN | 37 | 2026-09-04 11:57:38 | 2026-09-04 12:20:07 |
| PG1ADW-2 | 26 | 2026-09-04 12:30:28 | 2026-09-04 12:47:46 |
| SP6BVK | 26 | 2026-09-04 13:07:32 | 2026-09-04 13:19:02 |
| KRY50SP | 21 | 2026-09-04 12:56:12 | 2026-09-04 13:01:03 |
| SQ9PSP-11 | 9 | 2026-09-04 12:40:04 | 2026-09-04 12:47:44 |
| OK1SLM-15 | 4 | 2026-09-04 12:40:06 | 2026-09-04 12:50:53 |
| POL2MAQ | 4 | 2026-09-04 13:30:14 | 2026-09-04 13:31:41 |
| SP4MAZ | 3 | 2026-09-04 12:19:17 | 2026-09-04 12:38:38 |
| S52SK | 2 | 2026-09-04 12:32:52 | 2026-09-04 12:33:16 |
| OK1HGA | 2 | 2026-09-04 12:56:00 | 2026-09-04 13:00:12 |
| DB0UT-7 | 1 | 2026-09-04 13:00:28 | 2026-09-04 13:00:28 |
| OE3JTB-15 | 1 | 2026-09-04 13:27:07 | 2026-09-04 13:27:07 |
| Receiver | Date | Latitude | Longitude | Direction | Speed | Altitude | Climb | Temperature | Humidity | Pressure | Voltage | Killtimer | Uptime | BKT | XDATA |
|---|---|---|---|---|---|---|---|---|---|---|---|---|---|---|---|
| POL2MAQ | 2026-09-04 13:31:41 | 50.66553 | 18.64906 | 65° | 42km/h | 1225m | -13.5m/s | 0°C | 0% | 0hPa | 0V | 00:00:00 | 00:00:00 | 00:00:00 | |
| POL2MAQ | 2026-09-04 13:31:18 | 50.66480 | 18.64411 | 81° | 64km/h | 1535m | -12.6m/s | 0°C | 0% | 0hPa | 0V | 00:00:00 | 00:00:00 | 00:00:00 | |
| POL2MAQ | 2026-09-04 13:30:57 | 50.66415 | 18.63901 | 84° | 73km/h | 1808m | -13.2m/s | 0°C | 0% | 0hPa | 0V | 00:00:00 | 00:00:00 | 00:00:00 | |
| POL1PZ | 2026-09-04 13:30:35 | 50.66354 | 18.63275 | 82° | 62km/h | 2104m | -14.0m/s | 0°C | 0% | 0hPa | 0V | 00:00:00 | 00:00:00 | 00:00:00 | |
| POL2MAQ | 2026-09-04 13:30:14 | 50.66341 | 18.62701 | 92° | 69km/h | 2348m | -11.9m/s | 0°C | 0% | 0hPa | 0V | 00:00:00 | 00:00:00 | 00:00:00 | |
| POL1PZ | 2026-09-04 13:30:06 | 50.66348 | 18.62478 | 95° | 75km/h | 2454m | -12.1m/s | 0°C | 0% | 0hPa | 0V | 00:00:00 | 00:00:00 | 00:00:00 | |
| POL1PZ | 2026-09-04 13:29:45 | 50.66412 | 18.61852 | 104° | 75km/h | 2731m | -12.4m/s | 0°C | 0% | 0hPa | 0V | 00:00:00 | 00:00:00 | 00:00:00 | |
| POL1PZ | 2026-09-04 13:29:03 | 50.66685 | 18.60584 | 110° | 89km/h | 3264m | -12.0m/s | 0°C | 0% | 0hPa | 0V | 00:00:00 | 00:00:00 | 00:00:00 | |
| POL1PZ | 2026-09-04 13:28:21 | 50.67049 | 18.59182 | 118° | 93km/h | 3818m | -12.3m/s | 0°C | 0% | 0hPa | 0V | 00:00:00 | 00:00:00 | 00:00:00 | |
| POL1PZ | 2026-09-04 13:28:00 | 50.67259 | 18.58479 | 115° | 100km/h | 4090m | -13.8m/s | 0°C | 0% | 0hPa | 0V | 00:00:00 | 00:00:00 | 00:00:00 | |
| POL1PZ | 2026-09-04 13:27:39 | 50.67474 | 18.57662 | 112° | 102km/h | 4379m | -12.9m/s | 0°C | 0% | 0hPa | 0V | 00:00:00 | 00:00:00 | 00:00:00 | |
| POL1PZ | 2026-09-04 13:27:18 | 50.67689 | 18.56860 | 114° | 102km/h | 4659m | -12.6m/s | 0°C | 0% | 0hPa | 0V | 00:00:00 | 00:00:00 | 00:00:00 | |
| OE3JTB-15 | 2026-09-04 13:27:07 | 50.67816 | 18.56446 | 119° | 110km/h | 4801m | -12.7m/s | 0°C | 0% | 0hPa | 0V | 00:00:00 | 00:00:00 | 00:00:00 | |
| POL1PZ | 2026-09-04 13:26:57 | 50.67949 | 18.56064 | 123° | 110km/h | 4939m | -13.3m/s | 0°C | 0% | 0hPa | 0V | 00:00:00 | 00:00:00 | 00:00:00 | |
| POL1PZ | 2026-09-04 13:26:36 | 50.68235 | 18.55273 | 121° | 111km/h | 5223m | -13.9m/s | 0°C | 0% | 0hPa | 0V | 00:00:00 | 00:00:00 | 00:00:00 | |
| POL1PZ | 2026-09-04 13:26:16 | 50.68504 | 18.54498 | 119° | 111km/h | 5495m | -14.4m/s | 0°C | 0% | 0hPa | 0V | 00:00:00 | 00:00:00 | 00:00:00 | |
| POL1PZ | 2026-09-04 13:25:55 | 50.68780 | 18.53675 | 120° | 111km/h | 5787m | -14.7m/s | 0°C | 0% | 0hPa | 0V | 00:00:00 | 00:00:00 | 00:00:00 | |
| POL1PZ | 2026-09-04 13:25:35 | 50.69054 | 18.52902 | 120° | 110km/h | 6065m | -13.9m/s | 0°C | 0% | 0hPa | 0V | 00:00:00 | 00:00:00 | 00:00:00 | |
| POL1PZ | 2026-09-04 13:25:14 | 50.69333 | 18.52108 | 123° | 113km/h | 6353m | -13.2m/s | 0°C | 0% | 0hPa | 0V | 00:00:00 | 00:00:00 | 00:00:00 | |
| POL1PZ | 2026-09-04 13:24:53 | 50.69658 | 18.51285 | 120° | 124km/h | 6639m | -13.5m/s | 0°C | 0% | 0hPa | 0V | 00:00:00 | 00:00:00 | 00:00:00 | |
| POL1PZ | 2026-09-04 13:24:32 | 50.69944 | 18.50389 | 117° | 120km/h | 6928m | -13.1m/s | 0°C | 0% | 0hPa | 0V | 00:00:00 | 00:00:00 | 00:00:00 | |
| POL1PZ | 2026-09-04 13:24:11 | 50.70225 | 18.49511 | 120° | 115km/h | 7217m | -12.4m/s | 0°C | 0% | 0hPa | 0V | 00:00:00 | 00:00:00 | 00:00:00 | |
| POL1PZ | 2026-09-04 13:23:51 | 50.70490 | 18.48779 | 121° | 100km/h | 7456m | -11.1m/s | 0°C | 0% | 0hPa | 0V | 00:00:00 | 00:00:00 | 00:00:00 | |
| POL1PZ | 2026-09-04 13:23:31 | 50.70743 | 18.48104 | 122° | 99km/h | 7690m | -11.6m/s | 0°C | 0% | 0hPa | 0V | 00:00:00 | 00:00:00 | 00:00:00 | |
| POL1PZ | 2026-09-04 13:23:10 | 50.70986 | 18.47379 | 114° | 95km/h | 7976m | -12.9m/s | 0°C | 0% | 0hPa | 0V | 00:00:00 | 00:00:00 | 00:00:00 | |
| POL1PZ | 2026-09-04 13:22:50 | 50.71179 | 18.46679 | 116° | 93km/h | 8247m | -13.9m/s | 0°C | 0% | 0hPa | 0V | 00:00:00 | 00:00:00 | 00:00:00 | |
| POL1PZ | 2026-09-04 13:22:30 | 50.71369 | 18.45995 | 117° | 97km/h | 8521m | -13.5m/s | 0°C | 0% | 0hPa | 0V | 00:00:00 | 00:00:00 | 00:00:00 | |
| POL1PZ | 2026-09-04 13:22:09 | 50.71592 | 18.45243 | 115° | 104km/h | 8794m | -13.9m/s | 0°C | 0% | 0hPa | 0V | 00:00:00 | 00:00:00 | 00:00:00 | |
| POL1PZ | 2026-09-04 13:21:49 | 50.71808 | 18.44469 | 115° | 110km/h | 9054m | -12.3m/s | 0°C | 0% | 0hPa | 0V | 00:00:00 | 00:00:00 | 00:00:00 | |
| POL1PZ | 2026-09-04 13:21:07 | 50.72325 | 18.42868 | 120° | 106km/h | 9549m | -12.0m/s | 0°C | 0% | 0hPa | 0V | 00:00:00 | 00:00:00 | 00:00:00 | |
| POL1PZ | 2026-09-04 13:20:37 | 50.72733 | 18.41708 | 121° | 117km/h | 9909m | -11.8m/s | 0°C | 0% | 0hPa | 0V | 00:00:00 | 00:00:00 | 00:00:00 | |
| POL1PZ | 2026-09-04 13:20:14 | 50.73068 | 18.40783 | 121° | 115km/h | 10179m | -9.5m/s | 0°C | 0% | 0hPa | 0V | 00:00:00 | 00:00:00 | 00:00:00 | |
| POL1PZ | 2026-09-04 13:19:53 | 50.73382 | 18.39939 | 121° | 119km/h | 10393m | -9.7m/s | 0°C | 0% | 0hPa | 0V | 00:00:00 | 00:00:00 | 00:00:00 | |
| POL1PZ | 2026-09-04 13:19:32 | 50.73716 | 18.39090 | 125° | 120km/h | 10604m | -9.9m/s | 0°C | 0% | 0hPa | 0V | 00:00:00 | 00:00:00 | 00:00:00 | |
| POL1PZ | 2026-09-04 13:19:12 | 50.74054 | 18.38275 | 124° | 122km/h | 10819m | -9.7m/s | 0°C | 0% | 0hPa | 0V | 00:00:00 | 00:00:00 | 00:00:00 | |
| SP6BVK | 2026-09-04 13:19:02 | 50.74229 | 18.37867 | 123° | 122km/h | 10925m | -10.1m/s | 0°C | 0% | 0hPa | 0V | 00:00:00 | 00:00:00 | 00:00:00 | |
| POL1PZ | 2026-09-04 13:18:50 | 50.74439 | 18.37365 | 124° | 128km/h | 11063m | -11.1m/s | 0°C | 0% | 0hPa | 0V | 00:00:00 | 00:00:00 | 00:00:00 | |
| POL1PZ | 2026-09-04 13:18:29 | 50.74807 | 18.36442 | 122° | 133km/h | 11308m | -10.5m/s | 0°C | 0% | 0hPa | 0V | 00:00:00 | 00:00:00 | 00:00:00 | |
| POL1PZ | 2026-09-04 13:18:07 | 50.75208 | 18.35431 | 123° | 137km/h | 11565m | -11.2m/s | 0°C | 0% | 0hPa | 0V | 00:00:00 | 00:00:00 | 00:00:00 | |
| POL1PZ | 2026-09-04 13:17:31 | 50.75883 | 18.33727 | 122° | 141km/h | 11998m | -10.9m/s | 0°C | 0% | 0hPa | 0V | 00:00:00 | 00:00:00 | 00:00:00 | |
| POL1PZ | 2026-09-04 13:16:53 | 50.76634 | 18.31844 | 122° | 150km/h | 12458m | -11.1m/s | 0°C | 0% | 0hPa | 0V | 00:00:00 | 00:00:00 | 00:00:00 | |
| SP6BVK | 2026-09-04 13:16:51 | 50.76675 | 18.31743 | 122° | 150km/h | 12482m | -10.8m/s | 0°C | 0% | 0hPa | 0V | 00:00:00 | 00:00:00 | 00:00:00 | |
| POL1PZ | 2026-09-04 13:16:30 | 50.77108 | 18.30683 | 125° | 151km/h | 12730m | -10.4m/s | 0°C | 0% | 0hPa | 0V | 00:00:00 | 00:00:00 | 00:00:00 | |
| SP6BVK | 2026-09-04 13:16:29 | 50.77129 | 18.30633 | 126° | 150km/h | 12741m | -10.7m/s | 0°C | 0% | 0hPa | 0V | 00:00:00 | 00:00:00 | 00:00:00 | |
| POL1PZ | 2026-09-04 13:16:10 | 50.77532 | 18.29731 | 127° | 135km/h | 12966m | -11.3m/s | 0°C | 0% | 0hPa | 0V | 00:00:00 | 00:00:00 | 00:00:00 | |
| SP6BVK | 2026-09-04 13:16:06 | 50.77611 | 18.29562 | 129° | 131km/h | 13015m | -12.5m/s | 0°C | 0% | 0hPa | 0V | 00:00:00 | 00:00:00 | 00:00:00 | |
| POL1PZ | 2026-09-04 13:15:50 | 50.77911 | 18.28976 | 128° | 106km/h | 13212m | -11.4m/s | 0°C | 0% | 0hPa | 0V | 00:00:00 | 00:00:00 | 00:00:00 | |
| SP6BVK | 2026-09-04 13:15:43 | 50.78020 | 18.28734 | 125° | 104km/h | 13299m | -11.3m/s | 0°C | 0% | 0hPa | 0V | 00:00:00 | 00:00:00 | 00:00:00 | |
| POL1PZ | 2026-09-04 13:15:29 | 50.78221 | 18.28250 | 124° | 108km/h | 13476m | -11.7m/s | 0°C | 0% | 0hPa | 0V | 00:00:00 | 00:00:00 | 00:00:00 | |
| SP6BVK | 2026-09-04 13:15:22 | 50.78330 | 18.27992 | 125° | 113km/h | 13565m | -12.1m/s | 0°C | 0% | 0hPa | 0V | 00:00:00 | 00:00:00 | 00:00:00 | |
| POL1PZ | 2026-09-04 13:15:07 | 50.78566 | 18.27467 | 127° | 95km/h | 13757m | -11.4m/s | 0°C | 0% | 0hPa | 0V | 00:00:00 | 00:00:00 | 00:00:00 | |
| SP6BVK | 2026-09-04 13:15:01 | 50.78644 | 18.27290 | 125° | 84km/h | 13835m | -12.4m/s | 0°C | 0% | 0hPa | 0V | 00:00:00 | 00:00:00 | 00:00:00 | |
| POL1PZ | 2026-09-04 13:14:47 | 50.78777 | 18.26888 | 110° | 84km/h | 14022m | -12.2m/s | 0°C | 0% | 0hPa | 0V | 00:00:00 | 00:00:00 | 00:00:00 | |
| SP6BVK | 2026-09-04 13:14:40 | 50.78830 | 18.26663 | 113° | 86km/h | 14120m | -11.7m/s | 0°C | 0% | 0hPa | 0V | 00:00:00 | 00:00:00 | 00:00:00 | |
| POL1PZ | 2026-09-04 13:14:24 | 50.78984 | 18.26126 | 118° | 95km/h | 14339m | -12.2m/s | 0°C | 0% | 0hPa | 0V | 00:00:00 | 00:00:00 | 00:00:00 | |
| SP6BVK | 2026-09-04 13:14:19 | 50.79043 | 18.25966 | 122° | 89km/h | 14408m | -12.4m/s | 0°C | 0% | 0hPa | 0V | 00:00:00 | 00:00:00 | 00:00:00 | |
| POL1PZ | 2026-09-04 13:14:02 | 50.79186 | 18.25486 | 111° | 80km/h | 14648m | -12.8m/s | 0°C | 0% | 0hPa | 0V | 00:00:00 | 00:00:00 | 00:00:00 | |
| SP6BVK | 2026-09-04 13:13:58 | 50.79218 | 18.25364 | 116° | 84km/h | 14704m | -12.8m/s | 0°C | 0% | 0hPa | 0V | 00:00:00 | 00:00:00 | 00:00:00 | |
| SP6BVK | 2026-09-04 13:13:30 | 50.79443 | 18.24641 | 113° | 62km/h | 15104m | -13.4m/s | 0°C | 0% | 0hPa | 0V | 00:00:00 | 00:00:00 | 00:00:00 | |
| POL1PZ | 2026-09-04 13:13:19 | 50.79496 | 18.24383 | 106° | 68km/h | 15257m | -13.4m/s | 0°C | 0% | 0hPa | 0V | 00:00:00 | 00:00:00 | 00:00:00 | |
| SP6BVK | 2026-09-04 13:13:10 | 50.79551 | 18.24153 | 115° | 66km/h | 15384m | -14.0m/s | 0°C | 0% | 0hPa | 0V | 00:00:00 | 00:00:00 | 00:00:00 | |
| POL1PZ | 2026-09-04 13:12:57 | 50.79641 | 18.23814 | 111° | 69km/h | 15568m | -12.8m/s | 0°C | 0% | 0hPa | 0V | 00:00:00 | 00:00:00 | 00:00:00 | |
| SP3BTT-10 | 2026-09-04 13:12:47 | 50.79701 | 18.23586 | 113° | 47km/h | 15711m | -13.5m/s | 0°C | 0% | 0hPa | 0V | 00:00:00 | 00:00:00 | 00:00:00 | |
| POL1PZ | 2026-09-04 13:12:36 | 50.79727 | 18.23403 | 97° | 40km/h | 15873m | -13.4m/s | 0°C | 0% | 0hPa | 0V | 00:00:00 | 00:00:00 | 00:00:00 | |
| SP6BVK | 2026-09-04 13:12:23 | 50.79753 | 18.23150 | 105° | 58km/h | 16065m | -13.2m/s | 0°C | 0% | 0hPa | 0V | 00:00:00 | 00:00:00 | 00:00:00 | |
| POL1PZ | 2026-09-04 13:12:12 | 50.79812 | 18.22939 | 123° | 49km/h | 16231m | -14.1m/s | 0°C | 0% | 0hPa | 0V | 00:00:00 | 00:00:00 | 00:00:00 | |
| SP6BVK | 2026-09-04 13:12:01 | 50.79884 | 18.22756 | 118° | 51km/h | 16400m | -14.8m/s | 0°C | 0% | 0hPa | 0V | 00:00:00 | 00:00:00 | 00:00:00 | |
| SP3BTT-10 | 2026-09-04 13:11:59 | 50.79896 | 18.22720 | 115° | 46km/h | 16433m | -16.3m/s | 0°C | 0% | 0hPa | 0V | 00:00:00 | 00:00:00 | 00:00:00 | |
| SP6BVK | 2026-09-04 13:11:39 | 50.79957 | 18.22332 | 97° | 53km/h | 16749m | -15.2m/s | 0°C | 0% | 0hPa | 0V | 00:00:00 | 00:00:00 | 00:00:00 | |
| SP6BVK | 2026-09-04 13:11:18 | 50.80011 | 18.21820 | 98° | 64km/h | 17096m | -16.0m/s | 0°C | 0% | 0hPa | 0V | 00:00:00 | 00:00:00 | 00:00:00 | |
| SP6BVK | 2026-09-04 13:10:56 | 50.80101 | 18.21308 | 114° | 31km/h | 17473m | -16.2m/s | 0°C | 0% | 0hPa | 0V | 00:00:00 | 00:00:00 | 00:00:00 | |
| POL1PZ | 2026-09-04 13:10:52 | 50.80109 | 18.21267 | 100° | 24km/h | 17538m | -16.9m/s | 0°C | 0% | 0hPa | 0V | 00:00:00 | 00:00:00 | 00:00:00 | |
| SP3BTT-10 | 2026-09-04 13:10:45 | 50.80112 | 18.21199 | 87° | 40km/h | 17657m | -16.2m/s | 0°C | 0% | 0hPa | 0V | 00:00:00 | 00:00:00 | 00:00:00 | |
| SP6BVK | 2026-09-04 13:10:31 | 50.80108 | 18.21018 | 93° | 38km/h | 17891m | -15.4m/s | 0°C | 0% | 0hPa | 0V | 00:00:00 | 00:00:00 | 00:00:00 | |
| POL1PZ | 2026-09-04 13:10:30 | 50.80109 | 18.21003 | 97° | 38km/h | 17908m | -17.1m/s | 0°C | 0% | 0hPa | 0V | 00:00:00 | 00:00:00 | 00:00:00 | |
| SP3BTT-10 | 2026-09-04 13:10:14 | 50.80169 | 18.20719 | 127° | 37km/h | 18199m | -18.4m/s | 0°C | 0% | 0hPa | 0V | 00:00:00 | 00:00:00 | 00:00:00 | |
| SP6BVK | 2026-09-04 13:10:10 | 50.80201 | 18.20655 | 131° | 47km/h | 18273m | -18.4m/s | 0°C | 0% | 0hPa | 0V | 00:00:00 | 00:00:00 | 00:00:00 | |
| SP6BVK | 2026-09-04 13:09:48 | 50.80347 | 18.20378 | 140° | 27km/h | 18680m | -18.4m/s | 0°C | 0% | 0hPa | 0V | 00:00:00 | 00:00:00 | 00:00:00 | |
| SP6BVK | 2026-09-04 13:09:26 | 50.80457 | 18.20220 | 115° | 20km/h | 19082m | -17.0m/s | 0°C | 0% | 0hPa | 0V | 00:00:00 | 00:00:00 | 00:00:00 | |
| SP6BVK | 2026-09-04 13:09:03 | 50.80419 | 18.20034 | 60° | 24km/h | 19512m | -20.3m/s | 0°C | 0% | 0hPa | 0V | 00:00:00 | 00:00:00 | 00:00:00 | |
| SP6BVK | 2026-09-04 13:08:43 | 50.80421 | 18.19819 | 123° | 15km/h | 19910m | -19.5m/s | 0°C | 0% | 0hPa | 0V | 00:00:00 | 00:00:00 | 00:00:00 | |
| SP3BTT-10 | 2026-09-04 13:08:26 | 50.80410 | 18.19699 | 88° | 33km/h | 20259m | -19.9m/s | 0°C | 0% | 0hPa | 0V | 00:00:00 | 00:00:00 | 00:00:00 | |
| SP6BVK | 2026-09-04 13:08:16 | 50.80421 | 18.19602 | 120° | 31km/h | 20469m | -19.7m/s | 0°C | 0% | 0hPa | 0V | 00:00:00 | 00:00:00 | 00:00:00 | |
| SP6BVK | 2026-09-04 13:07:56 | 50.80466 | 18.19426 | 109° | 24km/h | 20920m | -23.0m/s | 0°C | 0% | 0hPa | 0V | 00:00:00 | 00:00:00 | 00:00:00 | |
| SP6BVK | 2026-09-04 13:07:32 | 50.80475 | 18.19356 | 35° | 4km/h | 21452m | -19.8m/s | 0°C | 0% | 0hPa | 0V | 00:00:00 | 00:00:00 | 00:00:00 | |
| POL1PZ | 2026-09-04 13:04:49 | 50.80518 | 18.18780 | 159° | 20km/h | 26053m | -34.4m/s | 0°C | 0% | 0hPa | 0V | 00:00:00 | 00:00:00 | 00:00:00 | |
| POL1PZ | 2026-09-04 13:04:20 | 50.80597 | 18.18683 | 206° | 4km/h | 27130m | -38.5m/s | 0°C | 0% | 0hPa | 0V | 00:00:00 | 00:00:00 | 00:00:00 | |
| POL1PZ | 2026-09-04 13:03:54 | 50.80590 | 18.18587 | 96° | 31km/h | 28144m | -36.0m/s | 0°C | 0% | 0hPa | 0V | 00:00:00 | 00:00:00 | 00:00:00 | |
| POL1PZ | 2026-09-04 13:03:31 | 50.80573 | 18.18506 | 35° | 27km/h | 29003m | -37.8m/s | 0°C | 0% | 0hPa | 0V | 00:00:00 | 00:00:00 | 00:00:00 | |
| POL1PZ | 2026-09-04 13:03:08 | 50.80508 | 18.18306 | 81° | 18km/h | 29855m | -37.0m/s | 0°C | 0% | 0hPa | 0V | 00:00:00 | 00:00:00 | 00:00:00 | |
| POL1PZ | 2026-09-04 13:02:41 | 50.80487 | 18.18158 | 95° | 22km/h | 30970m | -40.4m/s | 0°C | 0% | 0hPa | 0V | 00:00:00 | 00:00:00 | 00:00:00 | |
| POL1PZ | 2026-09-04 13:02:20 | 50.80501 | 18.17936 | 124° | 27km/h | 31869m | -41.5m/s | 0°C | 0% | 0hPa | 0V | 00:00:00 | 00:00:00 | 00:00:00 | |
| POL1PZ | 2026-09-04 13:01:49 | 50.80490 | 18.17785 | 54° | 27km/h | 33314m | -50.0m/s | 0°C | 0% | 0hPa | 0V | 00:00:00 | 00:00:00 | 00:00:00 | |
| SQ6EMJ | 2026-09-04 13:01:14 | 50.80433 | 18.17305 | 102° | 29km/h | 35328m | -29.0m/s | 0°C | 0% | 0hPa | 0V | 00:00:00 | 00:00:00 | 00:00:00 | |
| PETON7-10 | 2026-09-04 13:01:11 | 50.80430 | 18.17292 | 28° | 38km/h | 35390m | -29.4m/s | 0°C | 0% | 0hPa | 0V | 00:00:00 | 00:00:00 | 00:00:00 | |
| POL1PZ | 2026-09-04 13:01:06 | 50.80391 | 18.17269 | 39° | 38km/h | 35590m | -34.7m/s | 0°C | 0% | 0hPa | 0V | 00:00:00 | 00:00:00 | 00:00:00 | |
| KRY50SP | 2026-09-04 13:01:03 | 50.80390 | 18.17225 | 121° | 33km/h | 35758m | -42.6m/s | 0°C | 0% | 0hPa | 0V | 00:00:00 | 00:00:00 | 00:00:00 | |
| SQ6EMJ | 2026-09-04 13:01:00 | 50.80373 | 18.17213 | 352° | 68km/h | 35885m | 5.1m/s | 0°C | 0% | 0hPa | 0V | 00:00:00 | 00:00:00 | 00:00:00 | |
| KRY50SP | 2026-09-04 13:00:54 | 50.80289 | 18.17187 | 127° | 35km/h | 35823m | 7.1m/s | 0°C | 0% | 0hPa | 0V | 00:00:00 | 00:00:00 | 00:00:00 | |
| OE5MMP-10 | 2026-09-04 13:00:53 | 50.80293 | 18.17176 | 117° | 53km/h | 35819m | 1.0m/s | 0°C | 0% | 0hPa | 0V | 00:00:00 | 00:00:00 | 00:00:00 | |
| SQ6EMJ | 2026-09-04 13:00:52 | 50.80293 | 18.17167 | 70° | 18km/h | 35819m | 1.2m/s | 0°C | 0% | 0hPa | 0V | 00:00:00 | 00:00:00 | 00:00:00 | |
| KRY50SP | 2026-09-04 13:00:49 | 50.80265 | 18.17153 | 5° | 68km/h | 35798m | 8.6m/s | 0°C | 0% | 0hPa | 0V | 00:00:00 | 00:00:00 | 00:00:00 | |
| SQ6EMJ | 2026-09-04 13:00:47 | 50.80234 | 18.17149 | 10° | 49km/h | 35788m | 3.4m/s | 0°C | 0% | 0hPa | 0V | 00:00:00 | 00:00:00 | 00:00:00 | |
| OE5MMP-10 | 2026-09-04 13:00:41 | 50.80218 | 18.17113 | 22° | 29km/h | 35751m | 7.8m/s | 0°C | 0% | 0hPa | 0V | 00:00:00 | 00:00:00 | 00:00:00 | |
| PETON7-10 | 2026-09-04 13:00:40 | 50.80214 | 18.17112 | 353° | 27km/h | 35742m | 7.8m/s | 0°C | 0% | 0hPa | 0V | 00:00:00 | 00:00:00 | 00:00:00 | |
| KRY50SP | 2026-09-04 13:00:38 | 50.80198 | 18.17116 | 358° | 33km/h | 35730m | 5.3m/s | 0°C | 0% | 0hPa | 0V | 00:00:00 | 00:00:00 | 00:00:00 | |
| SQ6EMJ | 2026-09-04 13:00:37 | 50.80190 | 18.17115 | 18° | 29km/h | 35724m | 6.1m/s | 0°C | 0% | 0hPa | 0V | 00:00:00 | 00:00:00 | 00:00:00 | |
| KRY50SP | 2026-09-04 13:00:32 | 50.80163 | 18.17056 | 44° | 33km/h | 35694m | 6.1m/s | 0°C | 0% | 0hPa | 0V | 00:00:00 | 00:00:00 | 00:00:00 | |
| OE5MMP-10 | 2026-09-04 13:00:31 | 50.80157 | 18.17050 | 25° | 27km/h | 35688m | 6.7m/s | 0°C | 0% | 0hPa | 0V | 00:00:00 | 00:00:00 | 00:00:00 | |
| SQ6EMJ | 2026-09-04 13:00:30 | 50.80153 | 18.17049 | 347° | 13km/h | 35681m | 6.9m/s | 0°C | 0% | 0hPa | 0V | 00:00:00 | 00:00:00 | 00:00:00 | |
| DB0UT-7 | 2026-09-04 13:00:28 | 50.80151 | 18.17051 | 155° | 37km/h | 35668m | 5.6m/s | 0°C | 0% | 0hPa | 0V | 00:00:00 | 00:00:00 | 00:00:00 | |
| PETON7-10 | 2026-09-04 13:00:25 | 50.80149 | 18.17023 | 64° | 55km/h | 35654m | 6.0m/s | 0°C | 0% | 0hPa | 0V | 00:00:00 | 00:00:00 | 00:00:00 | |
| SQ6EMJ | 2026-09-04 13:00:23 | 50.80129 | 18.16988 | 37° | 71km/h | 35638m | 8.2m/s | 0°C | 0% | 0hPa | 0V | 00:00:00 | 00:00:00 | 00:00:00 | |
| POL1PZ | 2026-09-04 13:00:22 | 50.80115 | 18.16974 | 27° | 66km/h | 35632m | 2.8m/s | 0°C | 0% | 0hPa | 0V | 00:00:00 | 00:00:00 | 00:00:00 | |
| OE5MMP-10 | 2026-09-04 13:00:18 | 50.80106 | 18.16945 | 156° | 68km/h | 35599m | 4.9m/s | 0°C | 0% | 0hPa | 0V | 00:00:00 | 00:00:00 | 00:00:00 | |
| OK1HGA | 2026-09-04 13:00:12 | 50.80103 | 18.16893 | 19° | 77km/h | 35569m | 11.2m/s | 0°C | 0% | 0hPa | 0V | 00:00:00 | 00:00:00 | 00:00:00 | |
| PETON7-10 | 2026-09-04 13:00:10 | 50.80068 | 18.16876 | 25° | 46km/h | 35565m | -1.7m/s | 0°C | 0% | 0hPa | 0V | 00:00:00 | 00:00:00 | 00:00:00 | |
| OE5MMP-10 | 2026-09-04 13:00:05 | 50.80073 | 18.16832 | 146° | 40km/h | 35527m | 1.3m/s | 0°C | 0% | 0hPa | 0V | 00:00:00 | 00:00:00 | 00:00:00 | |
| SQ6EMJ | 2026-09-04 13:00:00 | 50.80049 | 18.16770 | 22° | 64km/h | 35494m | 3.6m/s | 0°C | 0% | 0hPa | 0V | 00:00:00 | 00:00:00 | 00:00:00 | |
| POL1PZ | 2026-09-04 12:59:59 | 50.80036 | 18.16763 | 18° | 46km/h | 35491m | 1.5m/s | 0°C | 0% | 0hPa | 0V | 00:00:00 | 00:00:00 | 00:00:00 | |
| SQ6EMJ | 2026-09-04 12:59:52 | 50.80052 | 18.16697 | 78° | 46km/h | 35446m | 9.7m/s | 0°C | 0% | 0hPa | 0V | 00:00:00 | 00:00:00 | 00:00:00 | |
| KRY50SP | 2026-09-04 12:59:46 | 50.80014 | 18.16651 | 161° | 26km/h | 35403m | 10.6m/s | 0°C | 0% | 0hPa | 0V | 00:00:00 | 00:00:00 | 00:00:00 | |
| SQ6EMJ | 2026-09-04 12:59:43 | 50.80041 | 18.16619 | 125° | 47km/h | 35385m | 4.3m/s | 0°C | 0% | 0hPa | 0V | 00:00:00 | 00:00:00 | 00:00:00 | |
| KRY50SP | 2026-09-04 12:59:39 | 50.80030 | 18.16557 | 75° | 15km/h | 35354m | 7.9m/s | 0°C | 0% | 0hPa | 0V | 00:00:00 | 00:00:00 | 00:00:00 | |
| POL1PZ | 2026-09-04 12:59:38 | 50.80030 | 18.16557 | 75° | 15km/h | 35354m | 7.9m/s | 0°C | 0% | 0hPa | 0V | 00:00:00 | 00:00:00 | 00:00:00 | |
| SQ6EMJ | 2026-09-04 12:59:32 | 50.80062 | 18.16511 | 90° | 37km/h | 35314m | 9.4m/s | 0°C | 0% | 0hPa | 0V | 00:00:00 | 00:00:00 | 00:00:00 | |
| OE5MMP-10 | 2026-09-04 12:59:29 | 50.80048 | 18.16467 | 60° | 38km/h | 35294m | 5.0m/s | 0°C | 0% | 0hPa | 0V | 00:00:00 | 00:00:00 | 00:00:00 | |
| KRY50SP | 2026-09-04 12:59:26 | 50.80052 | 18.16443 | 162° | 29km/h | 35270m | 8.5m/s | 0°C | 0% | 0hPa | 0V | 00:00:00 | 00:00:00 | 00:00:00 | |
| PETON7-10 | 2026-09-04 12:59:24 | 50.80065 | 18.16435 | 145° | 38km/h | 35259m | 3.2m/s | 0°C | 0% | 0hPa | 0V | 00:00:00 | 00:00:00 | 00:00:00 | |
| KRY50SP | 2026-09-04 12:59:20 | 50.80061 | 18.16378 | 78° | 60km/h | 35232m | 5.1m/s | 0°C | 0% | 0hPa | 0V | 00:00:00 | 00:00:00 | 00:00:00 | |
| OE5MMP-10 | 2026-09-04 12:59:19 | 50.80059 | 18.16355 | 89° | 40km/h | 35227m | 6.5m/s | 0°C | 0% | 0hPa | 0V | 00:00:00 | 00:00:00 | 00:00:00 | |
| POL1PZ | 2026-09-04 12:59:14 | 50.80074 | 18.16302 | 58° | 11km/h | 35193m | 6.7m/s | 0°C | 0% | 0hPa | 0V | 00:00:00 | 00:00:00 | 00:00:00 | |
| OE5MMP-10 | 2026-09-04 12:59:09 | 50.80053 | 18.16215 | 102° | 60km/h | 35156m | 10.1m/s | 0°C | 0% | 0hPa | 0V | 00:00:00 | 00:00:00 | 00:00:00 | |
| SQ6EMJ | 2026-09-04 12:59:03 | 50.80066 | 18.16133 | 38° | 55km/h | 35110m | 8.6m/s | 0°C | 0% | 0hPa | 0V | 00:00:00 | 00:00:00 | 00:00:00 | |
| KRY50SP | 2026-09-04 12:58:58 | 50.80049 | 18.16024 | 123° | 60km/h | 35076m | 6.9m/s | 0°C | 0% | 0hPa | 0V | 00:00:00 | 00:00:00 | 00:00:00 | |
| SQ6EMJ | 2026-09-04 12:58:56 | 50.80062 | 18.15992 | 113° | 33km/h | 35067m | 4.2m/s | 0°C | 0% | 0hPa | 0V | 00:00:00 | 00:00:00 | 00:00:00 | |
| OE5MMP-10 | 2026-09-04 12:58:54 | 50.80058 | 18.15970 | 44° | 55km/h | 35052m | 11.3m/s | 0°C | 0% | 0hPa | 0V | 00:00:00 | 00:00:00 | 00:00:00 | |
| PETON7-10 | 2026-09-04 12:58:52 | 50.80035 | 18.15943 | 39° | 57km/h | 35037m | 2.6m/s | 0°C | 0% | 0hPa | 0V | 00:00:00 | 00:00:00 | 00:00:00 | |
| KRY50SP | 2026-09-04 12:58:49 | 50.80016 | 18.15882 | 94° | 58km/h | 35019m | 14.3m/s | 0°C | 0% | 0hPa | 0V | 00:00:00 | 00:00:00 | 00:00:00 | |
| OE5MMP-10 | 2026-09-04 12:58:44 | 50.80030 | 18.15800 | 47° | 55km/h | 34985m | 13.2m/s | 0°C | 0% | 0hPa | 0V | 00:00:00 | 00:00:00 | 00:00:00 | |
| PETON7-10 | 2026-09-04 12:58:37 | 50.79974 | 18.15702 | 122° | 51km/h | 34931m | 7.4m/s | 0°C | 0% | 0hPa | 0V | 00:00:00 | 00:00:00 | 00:00:00 | |
| OE5MMP-10 | 2026-09-04 12:58:34 | 50.79985 | 18.15642 | 75° | 44km/h | 34918m | 7.7m/s | 0°C | 0% | 0hPa | 0V | 00:00:00 | 00:00:00 | 00:00:00 | |
| SQ6EMJ | 2026-09-04 12:58:32 | 50.79969 | 18.15610 | 36° | 57km/h | 34899m | 10.2m/s | 0°C | 0% | 0hPa | 0V | 00:00:00 | 00:00:00 | 00:00:00 | |
| POL1PZ | 2026-09-04 12:58:31 | 50.79958 | 18.15597 | 33° | 57km/h | 34891m | 6.9m/s | 0°C | 0% | 0hPa | 0V | 00:00:00 | 00:00:00 | 00:00:00 | |
| OE5MMP-10 | 2026-09-04 12:58:24 | 50.79941 | 18.15490 | 78° | 42km/h | 34843m | 9.1m/s | 0°C | 0% | 0hPa | 0V | 00:00:00 | 00:00:00 | 00:00:00 | |
| PETON7-10 | 2026-09-04 12:58:22 | 50.79929 | 18.15452 | 53° | 46km/h | 34826m | 7.1m/s | 0°C | 0% | 0hPa | 0V | 00:00:00 | 00:00:00 | 00:00:00 | |
| OE5MMP-10 | 2026-09-04 12:58:13 | 50.79907 | 18.15305 | 82° | 46km/h | 34764m | 9.2m/s | 0°C | 0% | 0hPa | 0V | 00:00:00 | 00:00:00 | 00:00:00 | |
| POL1PZ | 2026-09-04 12:58:11 | 50.79906 | 18.15280 | 95° | 26km/h | 34746m | 5.3m/s | 0°C | 0% | 0hPa | 0V | 00:00:00 | 00:00:00 | 00:00:00 | |
| KRY50SP | 2026-09-04 12:58:10 | 50.79905 | 18.15270 | 77° | 31km/h | 34741m | 5.8m/s | 0°C | 0% | 0hPa | 0V | 00:00:00 | 00:00:00 | 00:00:00 | |
| SQ6EMJ | 2026-09-04 12:58:08 | 50.79899 | 18.15239 | 75° | 53km/h | 34725m | 8.3m/s | 0°C | 0% | 0hPa | 0V | 00:00:00 | 00:00:00 | 00:00:00 | |
| PETON7-10 | 2026-09-04 12:58:05 | 50.79897 | 18.15168 | 100° | 51km/h | 34705m | 10.4m/s | 0°C | 0% | 0hPa | 0V | 00:00:00 | 00:00:00 | 00:00:00 | |
| OE5MMP-10 | 2026-09-04 12:58:03 | 50.79902 | 18.15130 | 95° | 42km/h | 34690m | 5.5m/s | 0°C | 0% | 0hPa | 0V | 00:00:00 | 00:00:00 | 00:00:00 | |
| SQ6EMJ | 2026-09-04 12:58:02 | 50.79902 | 18.15116 | 80° | 35km/h | 34683m | 7.9m/s | 0°C | 0% | 0hPa | 0V | 00:00:00 | 00:00:00 | 00:00:00 | |
| KRY50SP | 2026-09-04 12:57:55 | 50.79889 | 18.14994 | 106° | 58km/h | 34634m | 6.3m/s | 0°C | 0% | 0hPa | 0V | 00:00:00 | 00:00:00 | 00:00:00 | |
| SQ6EMJ | 2026-09-04 12:57:52 | 50.79892 | 18.14926 | 77° | 51km/h | 34612m | 6.3m/s | 0°C | 0% | 0hPa | 0V | 00:00:00 | 00:00:00 | 00:00:00 | |
| PETON7-10 | 2026-09-04 12:57:50 | 50.79885 | 18.14892 | 72° | 42km/h | 34597m | 8.8m/s | 0°C | 0% | 0hPa | 0V | 00:00:00 | 00:00:00 | 00:00:00 | |
| POL1PZ | 2026-09-04 12:57:49 | 50.79883 | 18.14880 | 80° | 26km/h | 34588m | 8.0m/s | 0°C | 0% | 0hPa | 0V | 00:00:00 | 00:00:00 | 00:00:00 | |
| KRY50SP | 2026-09-04 12:57:47 | 50.79882 | 18.14853 | 91° | 44km/h | 34576m | 6.4m/s | 0°C | 0% | 0hPa | 0V | 00:00:00 | 00:00:00 | 00:00:00 | |
| SQ6EMJ | 2026-09-04 12:57:45 | 50.79880 | 18.14809 | 85° | 68km/h | 34559m | 8.2m/s | 0°C | 0% | 0hPa | 0V | 00:00:00 | 00:00:00 | 00:00:00 | |
| OE5MMP-10 | 2026-09-04 12:57:40 | 50.79884 | 18.14691 | 109° | 49km/h | 34526m | 7.3m/s | 0°C | 0% | 0hPa | 0V | 00:00:00 | 00:00:00 | 00:00:00 | |
| SQ6EMJ | 2026-09-04 12:57:39 | 50.79886 | 18.14680 | 97° | 26km/h | 34520m | 4.0m/s | 0°C | 0% | 0hPa | 0V | 00:00:00 | 00:00:00 | 00:00:00 | |
| KRY50SP | 2026-09-04 12:57:37 | 50.79881 | 18.14653 | 68° | 47km/h | 34507m | 9.7m/s | 0°C | 0% | 0hPa | 0V | 00:00:00 | 00:00:00 | 00:00:00 | |
| PETON7-10 | 2026-09-04 12:57:35 | 50.79870 | 18.14607 | 75° | 57km/h | 34492m | 4.0m/s | 0°C | 0% | 0hPa | 0V | 00:00:00 | 00:00:00 | 00:00:00 | |
| OE5MMP-10 | 2026-09-04 12:57:30 | 50.79886 | 18.14513 | 127° | 44km/h | 34460m | 3.9m/s | 0°C | 0% | 0hPa | 0V | 00:00:00 | 00:00:00 | 00:00:00 | |
| POL1PZ | 2026-09-04 12:57:28 | 50.79887 | 18.14491 | 73° | 38km/h | 34447m | 8.7m/s | 0°C | 0% | 0hPa | 0V | 00:00:00 | 00:00:00 | 00:00:00 | |
| KRY50SP | 2026-09-04 12:57:24 | 50.79871 | 18.14394 | 95° | 62km/h | 34425m | 7.1m/s | 0°C | 0% | 0hPa | 0V | 00:00:00 | 00:00:00 | 00:00:00 | |
| OE5MMP-10 | 2026-09-04 12:57:19 | 50.79891 | 18.14323 | 73° | 46km/h | 34393m | 8.2m/s | 0°C | 0% | 0hPa | 0V | 00:00:00 | 00:00:00 | 00:00:00 | |
| PETON7-10 | 2026-09-04 12:57:15 | 50.79862 | 18.14250 | 69° | 38km/h | 34366m | 6.4m/s | 0°C | 0% | 0hPa | 0V | 00:00:00 | 00:00:00 | 00:00:00 | |
| OE5MMP-10 | 2026-09-04 12:57:09 | 50.79870 | 18.14151 | 90° | 38km/h | 34323m | 7.0m/s | 0°C | 0% | 0hPa | 0V | 00:00:00 | 00:00:00 | 00:00:00 | |
| SQ6EMJ | 2026-09-04 12:57:08 | 50.79868 | 18.14130 | 80° | 53km/h | 34316m | 5.9m/s | 0°C | 0% | 0hPa | 0V | 00:00:00 | 00:00:00 | 00:00:00 | |
| POL1PZ | 2026-09-04 12:57:07 | 50.79865 | 18.14110 | 75° | 53km/h | 34310m | 5.8m/s | 0°C | 0% | 0hPa | 0V | 00:00:00 | 00:00:00 | 00:00:00 | |
| KRY50SP | 2026-09-04 12:57:03 | 50.79852 | 18.14057 | 63° | 18km/h | 34284m | 6.4m/s | 0°C | 0% | 0hPa | 0V | 00:00:00 | 00:00:00 | 00:00:00 | |
| SQ6EMJ | 2026-09-04 12:57:01 | 50.79847 | 18.14042 | 60° | 26km/h | 34272m | 5.7m/s | 0°C | 0% | 0hPa | 0V | 00:00:00 | 00:00:00 | 00:00:00 | |
| PETON7-10 | 2026-09-04 12:57:00 | 50.79843 | 18.14031 | 62° | 40km/h | 34266m | 7.4m/s | 0°C | 0% | 0hPa | 0V | 00:00:00 | 00:00:00 | 00:00:00 | |
| OE5MMP-10 | 2026-09-04 12:56:55 | 50.79832 | 18.13948 | 105° | 38km/h | 34234m | 6.8m/s | 0°C | 0% | 0hPa | 0V | 00:00:00 | 00:00:00 | 00:00:00 | |
| SQ6EMJ | 2026-09-04 12:56:52 | 50.79829 | 18.13924 | 53° | 33km/h | 34219m | 7.5m/s | 0°C | 0% | 0hPa | 0V | 00:00:00 | 00:00:00 | 00:00:00 | |
| KRY50SP | 2026-09-04 12:56:46 | 50.79780 | 18.13852 | 80° | 22km/h | 34181m | 6.6m/s | 0°C | 0% | 0hPa | 0V | 00:00:00 | 00:00:00 | 00:00:00 | |
| PETON7-10 | 2026-09-04 12:56:43 | 50.79773 | 18.13798 | 56° | 46km/h | 34156m | 5.5m/s | 0°C | 0% | 0hPa | 0V | 00:00:00 | 00:00:00 | 00:00:00 | |
| KRY50SP | 2026-09-04 12:56:39 | 50.79742 | 18.13757 | 38° | 35km/h | 34128m | 5.3m/s | 0°C | 0% | 0hPa | 0V | 00:00:00 | 00:00:00 | 00:00:00 | |
| SQ6EMJ | 2026-09-04 12:56:34 | 50.79723 | 18.13695 | 88° | 47km/h | 34103m | 5.8m/s | 0°C | 0% | 0hPa | 0V | 00:00:00 | 00:00:00 | 00:00:00 | |
| OE5MMP-10 | 2026-09-04 12:56:31 | 50.79720 | 18.13658 | 41° | 22km/h | 34082m | 5.9m/s | 0°C | 0% | 0hPa | 0V | 00:00:00 | 00:00:00 | 00:00:00 | |
| SQ6EMJ | 2026-09-04 12:56:28 | 50.79690 | 18.13635 | 33° | 64km/h | 34065m | 7.9m/s | 0°C | 0% | 0hPa | 0V | 00:00:00 | 00:00:00 | 00:00:00 | |
| KRY50SP | 2026-09-04 12:56:27 | 50.79678 | 18.13618 | 48° | 71km/h | 34059m | 6.0m/s | 0°C | 0% | 0hPa | 0V | 00:00:00 | 00:00:00 | 00:00:00 | |
| PETON7-10 | 2026-09-04 12:56:22 | 50.79666 | 18.13541 | 153° | 31km/h | 34025m | 3.4m/s | 0°C | 0% | 0hPa | 0V | 00:00:00 | 00:00:00 | 00:00:00 | |
| OE5MMP-10 | 2026-09-04 12:56:21 | 50.79666 | 18.13539 | 49° | 31km/h | 34022m | 1.4m/s | 0°C | 0% | 0hPa | 0V | 00:00:00 | 00:00:00 | 00:00:00 | |
| SQ6EMJ | 2026-09-04 12:56:20 | 50.79656 | 18.13525 | 47° | 42km/h | 34011m | 9.1m/s | 0°C | 0% | 0hPa | 0V | 00:00:00 | 00:00:00 | 00:00:00 | |
| OE5DRO-10 | 2026-09-04 12:56:13 | 50.79610 | 18.13423 | 93° | 26km/h | 33974m | 10.7m/s | 0°C | 0% | 0hPa | 0V | 00:00:00 | 00:00:00 | 00:00:00 | |
| KRY50SP | 2026-09-04 12:56:12 | 50.79611 | 18.13424 | 231° | 13km/h | 33966m | 5.5m/s | 0°C | 0% | 0hPa | 0V | 00:00:00 | 00:00:00 | 00:00:00 | |
| POL1PZ | 2026-09-04 12:56:10 | 50.79611 | 18.13429 | 17° | 16km/h | 33959m | 4.0m/s | 0°C | 0% | 0hPa | 0V | 00:00:00 | 00:00:00 | 00:00:00 | |
| PETON7-10 | 2026-09-04 12:56:05 | 50.79566 | 18.13360 | 62° | 29km/h | 33930m | 4.6m/s | 0°C | 0% | 0hPa | 0V | 00:00:00 | 00:00:00 | 00:00:00 | |
| OK1HGA | 2026-09-04 12:56:00 | 50.79566 | 18.13329 | 351° | 18km/h | 33900m | 6.9m/s | 0°C | 0% | 0hPa | 0V | 00:00:00 | 00:00:00 | 00:00:00 | |
| SQ6EMJ | 2026-09-04 12:55:58 | 50.79547 | 18.13328 | 11° | 58km/h | 33883m | 7.5m/s | 0°C | 0% | 0hPa | 0V | 00:00:00 | 00:00:00 | 00:00:00 | |
| OE5MMP-10 | 2026-09-04 12:55:52 | 50.79518 | 18.13273 | 193° | 26km/h | 33844m | 4.3m/s | 0°C | 0% | 0hPa | 0V | 00:00:00 | 00:00:00 | 00:00:00 | |
| SQ6EMJ | 2026-09-04 12:55:50 | 50.79519 | 18.13279 | 342° | 15km/h | 33835m | 6.8m/s | 0°C | 0% | 0hPa | 0V | 00:00:00 | 00:00:00 | 00:00:00 | |
| PETON7-10 | 2026-09-04 12:55:48 | 50.79502 | 18.13273 | 27° | 35km/h | 33821m | 6.1m/s | 0°C | 0% | 0hPa | 0V | 00:00:00 | 00:00:00 | 00:00:00 | |
| SQ6EMJ | 2026-09-04 12:55:39 | 50.79478 | 18.13225 | 359° | 40km/h | 33766m | 4.0m/s | 0°C | 0% | 0hPa | 0V | 00:00:00 | 00:00:00 | 00:00:00 | |
| OE5MMP-10 | 2026-09-04 12:55:38 | 50.79469 | 18.13221 | 33° | 40km/h | 33763m | 2.3m/s | 0°C | 0% | 0hPa | 0V | 00:00:00 | 00:00:00 | 00:00:00 | |
| SP3BTT-10 | 2026-09-04 12:55:35 | 50.79461 | 18.13175 | 120° | 31km/h | 33743m | 8.1m/s | 0°C | 0% | 0hPa | 0V | 00:00:00 | 00:00:00 | 00:00:00 | |
| POL1PZ | 2026-09-04 12:55:33 | 50.79479 | 18.13148 | 148° | 37km/h | 33733m | 2.1m/s | 0°C | 0% | 0hPa | 0V | 00:00:00 | 00:00:00 | 00:00:00 | |
| PETON7-10 | 2026-09-04 12:55:29 | 50.79476 | 18.13123 | 28° | 26km/h | 33708m | 5.6m/s | 0°C | 0% | 0hPa | 0V | 00:00:00 | 00:00:00 | 00:00:00 | |
| OE5MMP-10 | 2026-09-04 12:55:26 | 50.79457 | 18.13092 | 82° | 29km/h | 33690m | 6.1m/s | 0°C | 0% | 0hPa | 0V | 00:00:00 | 00:00:00 | 00:00:00 | |
| OE5MMP-10 | 2026-09-04 12:55:16 | 50.79445 | 18.13020 | 56° | 11km/h | 33635m | 6.4m/s | 0°C | 0% | 0hPa | 0V | 00:00:00 | 00:00:00 | 00:00:00 | |
| PETON7-10 | 2026-09-04 12:55:13 | 50.79438 | 18.13002 | 50° | 31km/h | 33619m | 7.9m/s | 0°C | 0% | 0hPa | 0V | 00:00:00 | 00:00:00 | 00:00:00 | |
| POL1PZ | 2026-09-04 12:55:06 | 50.79415 | 18.12962 | 33° | 13km/h | 33576m | 5.4m/s | 0°C | 0% | 0hPa | 0V | 00:00:00 | 00:00:00 | 00:00:00 | |
| OE5MMP-10 | 2026-09-04 12:55:03 | 50.79396 | 18.12942 | 34° | 29km/h | 33552m | 5.5m/s | 0°C | 0% | 0hPa | 0V | 00:00:00 | 00:00:00 | 00:00:00 | |
| SQ6EMJ | 2026-09-04 12:55:00 | 50.79373 | 18.12923 | 9° | 20km/h | 33533m | 7.8m/s | 0°C | 0% | 0hPa | 0V | 00:00:00 | 00:00:00 | 00:00:00 | |
| PETON7-10 | 2026-09-04 12:54:58 | 50.79363 | 18.12923 | 360° | 26km/h | 33521m | 6.1m/s | 0°C | 0% | 0hPa | 0V | 00:00:00 | 00:00:00 | 00:00:00 | |
| OE5MMP-10 | 2026-09-04 12:54:52 | 50.79335 | 18.12883 | 74° | 26km/h | 33481m | 5.6m/s | 0°C | 0% | 0hPa | 0V | 00:00:00 | 00:00:00 | 00:00:00 | |
| SP3BTT-10 | 2026-09-04 12:54:48 | 50.79314 | 18.12858 | 8° | 24km/h | 33455m | 5.3m/s | 0°C | 0% | 0hPa | 0V | 00:00:00 | 00:00:00 | 00:00:00 | |
| PETON7-10 | 2026-09-04 12:54:43 | 50.79295 | 18.12851 | 83° | 24km/h | 33427m | 2.7m/s | 0°C | 0% | 0hPa | 0V | 00:00:00 | 00:00:00 | 00:00:00 | |
| OE5MMP-10 | 2026-09-04 12:54:42 | 50.79294 | 18.12843 | 66° | 22km/h | 33421m | 8.0m/s | 0°C | 0% | 0hPa | 0V | 00:00:00 | 00:00:00 | 00:00:00 | |
| SQ6EMJ | 2026-09-04 12:54:36 | 50.79262 | 18.12807 | 0° | 0km/h | 33382m | 5.8m/s | 0°C | 0% | 0hPa | 0V | 00:00:00 | 00:00:00 | 00:00:00 | |
| OE5MMP-10 | 2026-09-04 12:54:32 | 50.79253 | 18.12785 | 47° | 31km/h | 33357m | 6.2m/s | 0°C | 0% | 0hPa | 0V | 00:00:00 | 00:00:00 | 00:00:00 | |
| POL1PZ | 2026-09-04 12:54:31 | 50.79246 | 18.12773 | 47° | 38km/h | 33351m | 5.5m/s | 0°C | 0% | 0hPa | 0V | 00:00:00 | 00:00:00 | 00:00:00 | |
| PETON7-10 | 2026-09-04 12:54:28 | 50.79229 | 18.12753 | 5° | 26km/h | 33330m | 7.7m/s | 0°C | 0% | 0hPa | 0V | 00:00:00 | 00:00:00 | 00:00:00 | |
| SQ6EMJ | 2026-09-04 12:54:20 | 50.79194 | 18.12738 | 80° | 29km/h | 33273m | 5.2m/s | 0°C | 0% | 0hPa | 0V | 00:00:00 | 00:00:00 | 00:00:00 | |
| PETON7-10 | 2026-09-04 12:54:13 | 50.79156 | 18.12728 | 217° | 29km/h | 33227m | 3.7m/s | 0°C | 0% | 0hPa | 0V | 00:00:00 | 00:00:00 | 00:00:00 | |
| OE5MMP-10 | 2026-09-04 12:54:11 | 50.79163 | 18.12722 | 103° | 26km/h | 33221m | 8.3m/s | 0°C | 0% | 0hPa | 0V | 00:00:00 | 00:00:00 | 00:00:00 | |
| POL1PZ | 2026-09-04 12:54:09 | 50.79157 | 18.12695 | 48° | 55km/h | 33203m | 6.0m/s | 0°C | 0% | 0hPa | 0V | 00:00:00 | 00:00:00 | 00:00:00 | |
| SQ6EMJ | 2026-09-04 12:54:08 | 50.79147 | 18.12682 | 34° | 47km/h | 33199m | 4.2m/s | 0°C | 0% | 0hPa | 0V | 00:00:00 | 00:00:00 | 00:00:00 | |
| OE5MMP-10 | 2026-09-04 12:54:01 | 50.79142 | 18.12685 | 108° | 27km/h | 33150m | 6.6m/s | 0°C | 0% | 0hPa | 0V | 00:00:00 | 00:00:00 | 00:00:00 | |
| PETON7-10 | 2026-09-04 12:53:58 | 50.79132 | 18.12654 | 30° | 22km/h | 33128m | 9.6m/s | 0°C | 0% | 0hPa | 0V | 00:00:00 | 00:00:00 | 00:00:00 | |
| SQ6EMJ | 2026-09-04 12:53:56 | 50.79116 | 18.12652 | 338° | 29km/h | 33112m | 7.1m/s | 0°C | 0% | 0hPa | 0V | 00:00:00 | 00:00:00 | 00:00:00 | |
| SP3BTT-10 | 2026-09-04 12:53:52 | 50.79109 | 18.12645 | 101° | 24km/h | 33079m | 4.7m/s | 0°C | 0% | 0hPa | 0V | 00:00:00 | 00:00:00 | 00:00:00 | |
| OE5MMP-10 | 2026-09-04 12:53:50 | 50.79110 | 18.12634 | 95° | 13km/h | 33075m | 2.8m/s | 0°C | 0% | 0hPa | 0V | 00:00:00 | 00:00:00 | 00:00:00 | |
| SQ6EMJ | 2026-09-04 12:53:47 | 50.79105 | 18.12627 | 326° | 24km/h | 33055m | 6.7m/s | 0°C | 0% | 0hPa | 0V | 00:00:00 | 00:00:00 | 00:00:00 | |
| OE5DRO-10 | 2026-09-04 12:53:46 | 50.79099 | 18.12633 | 331° | 20km/h | 33049m | 5.5m/s | 0°C | 0% | 0hPa | 0V | 00:00:00 | 00:00:00 | 00:00:00 | |
| PETON7-10 | 2026-09-04 12:53:43 | 50.79082 | 18.12633 | 58° | 15km/h | 33025m | 6.1m/s | 0°C | 0% | 0hPa | 0V | 00:00:00 | 00:00:00 | 00:00:00 | |
| OE5MMP-10 | 2026-09-04 12:53:38 | 50.79077 | 18.12616 | 57° | 13km/h | 32993m | 8.3m/s | 0°C | 0% | 0hPa | 0V | 00:00:00 | 00:00:00 | 00:00:00 | |
| SQ6EMJ | 2026-09-04 12:53:37 | 50.79075 | 18.12611 | 48° | 20km/h | 32984m | 7.6m/s | 0°C | 0% | 0hPa | 0V | 00:00:00 | 00:00:00 | 00:00:00 | |
| OE5MMP-10 | 2026-09-04 12:53:28 | 50.79055 | 18.12591 | 62° | 24km/h | 32922m | 5.2m/s | 0°C | 0% | 0hPa | 0V | 00:00:00 | 00:00:00 | 00:00:00 | |
| PETON7-10 | 2026-09-04 12:53:26 | 50.79047 | 18.12579 | 17° | 16km/h | 32911m | 8.4m/s | 0°C | 0% | 0hPa | 0V | 00:00:00 | 00:00:00 | 00:00:00 | |
| OE5DRO-10 | 2026-09-04 12:53:22 | 50.79040 | 18.12598 | 277° | 13km/h | 32886m | 5.8m/s | 0°C | 0% | 0hPa | 0V | 00:00:00 | 00:00:00 | 00:00:00 | |
| OE5MMP-10 | 2026-09-04 12:53:18 | 50.79038 | 18.12569 | 80° | 13km/h | 32857m | 5.9m/s | 0°C | 0% | 0hPa | 0V | 00:00:00 | 00:00:00 | 00:00:00 | |
| PETON7-10 | 2026-09-04 12:53:11 | 50.79028 | 18.12583 | 64° | 9km/h | 32811m | 6.6m/s | 0°C | 0% | 0hPa | 0V | 00:00:00 | 00:00:00 | 00:00:00 | |
| OE5MMP-10 | 2026-09-04 12:53:08 | 50.79030 | 18.12580 | 205° | 18km/h | 32790m | 5.9m/s | 0°C | 0% | 0hPa | 0V | 00:00:00 | 00:00:00 | 00:00:00 | |
| POL1PZ | 2026-09-04 12:53:05 | 50.79029 | 18.12576 | 54° | 15km/h | 32770m | 8.4m/s | 0°C | 0% | 0hPa | 0V | 00:00:00 | 00:00:00 | 00:00:00 | |
| SQ6EMJ | 2026-09-04 12:53:04 | 50.79027 | 18.12570 | 51° | 20km/h | 32762m | 6.5m/s | 0°C | 0% | 0hPa | 0V | 00:00:00 | 00:00:00 | 00:00:00 | |
| OE5DRO-10 | 2026-09-04 12:53:02 | 50.79023 | 18.12562 | 61° | 24km/h | 32752m | 5.4m/s | 0°C | 0% | 0hPa | 0V | 00:00:00 | 00:00:00 | 00:00:00 | |
| PETON7-10 | 2026-09-04 12:52:56 | 50.79047 | 18.12566 | 116° | 22km/h | 32711m | 7.5m/s | 0°C | 0% | 0hPa | 0V | 00:00:00 | 00:00:00 | 00:00:00 | |
| SP3BTT-10 | 2026-09-04 12:52:49 | 50.79048 | 18.12550 | 211° | 29km/h | 32668m | 7.2m/s | 0°C | 0% | 0hPa | 0V | 00:00:00 | 00:00:00 | 00:00:00 | |
| OE5DRO-10 | 2026-09-04 12:52:43 | 50.79068 | 18.12510 | 106° | 24km/h | 32618m | 6.4m/s | 0°C | 0% | 0hPa | 0V | 00:00:00 | 00:00:00 | 00:00:00 | |
| OE5MMP-10 | 2026-09-04 12:52:42 | 50.79068 | 18.12510 | 106° | 15km/h | 32618m | 6.4m/s | 0°C | 0% | 0hPa | 0V | 00:00:00 | 00:00:00 | 00:00:00 | |
| PETON7-10 | 2026-09-04 12:52:41 | 50.79068 | 18.12504 | 90° | 22km/h | 32611m | 8.8m/s | 0°C | 0% | 0hPa | 0V | 00:00:00 | 00:00:00 | 00:00:00 | |
| OE5MMP-10 | 2026-09-04 12:52:32 | 50.79081 | 18.12467 | 74° | 27km/h | 32552m | 5.3m/s | 0°C | 0% | 0hPa | 0V | 00:00:00 | 00:00:00 | 00:00:00 | |
| PETON7-10 | 2026-09-04 12:52:24 | 50.79096 | 18.12407 | 101° | 26km/h | 32501m | 7.7m/s | 0°C | 0% | 0hPa | 0V | 00:00:00 | 00:00:00 | 00:00:00 | |
| OE5MMP-10 | 2026-09-04 12:52:16 | 50.79094 | 18.12330 | 109° | 22km/h | 32451m | 6.3m/s | 0°C | 0% | 0hPa | 0V | 00:00:00 | 00:00:00 | 00:00:00 | |
| PETON7-10 | 2026-09-04 12:52:08 | 50.79099 | 18.12260 | 60° | 31km/h | 32397m | 4.3m/s | 0°C | 0% | 0hPa | 0V | 00:00:00 | 00:00:00 | 00:00:00 | |
| OE5MMP-10 | 2026-09-04 12:52:03 | 50.79116 | 18.12238 | 152° | 29km/h | 32370m | 2.6m/s | 0°C | 0% | 0hPa | 0V | 00:00:00 | 00:00:00 | 00:00:00 | |
| OE5MMP-10 | 2026-09-04 12:51:53 | 50.79129 | 18.12195 | 144° | 29km/h | 32311m | 10.1m/s | 0°C | 0% | 0hPa | 0V | 00:00:00 | 00:00:00 | 00:00:00 | |
| PETON7-10 | 2026-09-04 12:51:52 | 50.79136 | 18.12181 | 122° | 46km/h | 32304m | 2.8m/s | 0°C | 0% | 0hPa | 0V | 00:00:00 | 00:00:00 | 00:00:00 | |
| POL1PZ | 2026-09-04 12:51:48 | 50.79145 | 18.12145 | 319° | 11km/h | 32277m | 7.2m/s | 0°C | 0% | 0hPa | 0V | 00:00:00 | 00:00:00 | 00:00:00 | |
| SP3BTT-10 | 2026-09-04 12:51:47 | 50.79143 | 18.12149 | 294° | 33km/h | 32271m | 6.1m/s | 0°C | 0% | 0hPa | 0V | 00:00:00 | 00:00:00 | 00:00:00 | |
| OE5MMP-10 | 2026-09-04 12:51:43 | 50.79162 | 18.12136 | 153° | 37km/h | 32243m | 9.5m/s | 0°C | 0% | 0hPa | 0V | 00:00:00 | 00:00:00 | 00:00:00 | |
| PETON7-10 | 2026-09-04 12:51:35 | 50.79189 | 18.12070 | 263° | 42km/h | 32191m | 5.8m/s | 0°C | 0% | 0hPa | 0V | 00:00:00 | 00:00:00 | 00:00:00 | |
| OE5MMP-10 | 2026-09-04 12:51:23 | 50.79245 | 18.11990 | 161° | 33km/h | 32124m | 6.2m/s | 0°C | 0% | 0hPa | 0V | 00:00:00 | 00:00:00 | 00:00:00 | |
| PETON7-10 | 2026-09-04 12:51:18 | 50.79259 | 18.11918 | 62° | 22km/h | 32088m | 5.6m/s | 0°C | 0% | 0hPa | 0V | 00:00:00 | 00:00:00 | 00:00:00 | |
| OE5MMP-10 | 2026-09-04 12:51:11 | 50.79286 | 18.11869 | 114° | 20km/h | 32037m | 6.7m/s | 0°C | 0% | 0hPa | 0V | 00:00:00 | 00:00:00 | 00:00:00 | |
| PETON7-10 | 2026-09-04 12:51:02 | 50.79311 | 18.11795 | 121° | 35km/h | 31984m | 6.0m/s | 0°C | 0% | 0hPa | 0V | 00:00:00 | 00:00:00 | 00:00:00 | |
| OE5MMP-10 | 2026-09-04 12:51:01 | 50.79312 | 18.11788 | 97° | 37km/h | 31978m | 5.7m/s | 0°C | 0% | 0hPa | 0V | 00:00:00 | 00:00:00 | 00:00:00 | |
| OK1SLM-15 | 2026-09-04 12:50:53 | 50.79328 | 18.11691 | 146° | 18km/h | 31927m | 4.9m/s | 0°C | 0% | 0hPa | 0V | 00:00:00 | 00:00:00 | 00:00:00 | |
| OE5MMP-10 | 2026-09-04 12:50:48 | 50.79343 | 18.11620 | 89° | 38km/h | 31893m | 8.3m/s | 0°C | 0% | 0hPa | 0V | 00:00:00 | 00:00:00 | 00:00:00 | |
| PETON7-10 | 2026-09-04 12:50:47 | 50.79342 | 18.11603 | 81° | 38km/h | 31885m | 7.8m/s | 0°C | 0% | 0hPa | 0V | 00:00:00 | 00:00:00 | 00:00:00 | |
| OK1SLM-15 | 2026-09-04 12:50:42 | 50.79353 | 18.11543 | 118° | 44km/h | 31849m | 6.5m/s | 0°C | 0% | 0hPa | 0V | 00:00:00 | 00:00:00 | 00:00:00 | |
| OE5MMP-10 | 2026-09-04 12:50:37 | 50.79355 | 18.11481 | 76° | 37km/h | 31817m | 3.9m/s | 0°C | 0% | 0hPa | 0V | 00:00:00 | 00:00:00 | 00:00:00 | |
| PETON7-10 | 2026-09-04 12:50:32 | 50.79360 | 18.11386 | 112° | 35km/h | 31787m | 10.0m/s | 0°C | 0% | 0hPa | 0V | 00:00:00 | 00:00:00 | 00:00:00 | |
| OE5MMP-10 | 2026-09-04 12:50:22 | 50.79350 | 18.11258 | 108° | 37km/h | 31715m | 8.3m/s | 0°C | 0% | 0hPa | 0V | 00:00:00 | 00:00:00 | 00:00:00 | |
| PETON7-10 | 2026-09-04 12:50:17 | 50.79358 | 18.11202 | 20° | 31km/h | 31682m | 7.4m/s | 0°C | 0% | 0hPa | 0V | 00:00:00 | 00:00:00 | 00:00:00 | |
| OE5MMP-10 | 2026-09-04 12:50:09 | 50.79345 | 18.11110 | 51° | 27km/h | 31635m | 9.7m/s | 0°C | 0% | 0hPa | 0V | 00:00:00 | 00:00:00 | 00:00:00 | |
| OE5MMP-10 | 2026-09-04 12:49:59 | 50.79319 | 18.11017 | 96° | 33km/h | 31564m | 8.4m/s | 0°C | 0% | 0hPa | 0V | 00:00:00 | 00:00:00 | 00:00:00 | |
| OE5MMP-10 | 2026-09-04 12:49:48 | 50.79289 | 18.10915 | 98° | 33km/h | 31494m | 9.6m/s | 0°C | 0% | 0hPa | 0V | 00:00:00 | 00:00:00 | 00:00:00 | |
| PETON7-10 | 2026-09-04 12:49:47 | 50.79286 | 18.10916 | 344° | 35km/h | 31484m | 10.0m/s | 0°C | 0% | 0hPa | 0V | 00:00:00 | 00:00:00 | 00:00:00 | |
| OE5MMP-10 | 2026-09-04 12:49:38 | 50.79260 | 18.10845 | 214° | 27km/h | 31422m | 4.8m/s | 0°C | 0% | 0hPa | 0V | 00:00:00 | 00:00:00 | 00:00:00 | |
| SP3BTT-10 | 2026-09-04 12:49:33 | 50.79237 | 18.10806 | 46° | 24km/h | 31390m | 6.1m/s | 0°C | 0% | 0hPa | 0V | 00:00:00 | 00:00:00 | 00:00:00 | |
| PETON7-10 | 2026-09-04 12:49:32 | 50.79230 | 18.10794 | 41° | 33km/h | 31383m | 5.9m/s | 0°C | 0% | 0hPa | 0V | 00:00:00 | 00:00:00 | 00:00:00 | |
| OE5MMP-10 | 2026-09-04 12:49:28 | 50.79228 | 18.10760 | 128° | 33km/h | 31354m | 8.5m/s | 0°C | 0% | 0hPa | 0V | 00:00:00 | 00:00:00 | 00:00:00 | |
| OE5MMP-10 | 2026-09-04 12:49:18 | 50.79214 | 18.10675 | 166° | 20km/h | 31280m | 8.0m/s | 0°C | 0% | 0hPa | 0V | 00:00:00 | 00:00:00 | 00:00:00 | |
| PETON7-10 | 2026-09-04 12:49:16 | 50.79219 | 18.10675 | 196° | 18km/h | 31273m | 4.4m/s | 0°C | 0% | 0hPa | 0V | 00:00:00 | 00:00:00 | 00:00:00 | |
| OE5MMP-10 | 2026-09-04 12:49:06 | 50.79219 | 18.10611 | 119° | 15km/h | 31205m | 6.7m/s | 0°C | 0% | 0hPa | 0V | 00:00:00 | 00:00:00 | 00:00:00 | |
| PETON7-10 | 2026-09-04 12:49:00 | 50.79224 | 18.10581 | 79° | 22km/h | 31169m | 8.7m/s | 0°C | 0% | 0hPa | 0V | 00:00:00 | 00:00:00 | 00:00:00 | |
| OE5DRO-10 | 2026-09-04 12:48:57 | 50.79227 | 18.10532 | 119° | 26km/h | 31142m | 8.8m/s | 0°C | 0% | 0hPa | 0V | 00:00:00 | 00:00:00 | 00:00:00 | |
| OE5MMP-10 | 2026-09-04 12:48:56 | 50.79227 | 18.10532 | 119° | 18km/h | 31142m | 8.8m/s | 0°C | 0% | 0hPa | 0V | 00:00:00 | 00:00:00 | 00:00:00 | |
| SP3BTT-10 | 2026-09-04 12:48:47 | 50.79231 | 18.10468 | 107° | 20km/h | 31083m | 8.2m/s | 0°C | 0% | 0hPa | 0V | 00:00:00 | 00:00:00 | 00:00:00 | |
| PETON7-10 | 2026-09-04 12:48:45 | 50.79235 | 18.10455 | 105° | 20km/h | 31071m | 6.5m/s | 0°C | 0% | 0hPa | 0V | 00:00:00 | 00:00:00 | 00:00:00 | |
| OE5MMP-10 | 2026-09-04 12:48:44 | 50.79236 | 18.10447 | 91° | 26km/h | 31063m | 7.6m/s | 0°C | 0% | 0hPa | 0V | 00:00:00 | 00:00:00 | 00:00:00 | |
| OE5MMP-10 | 2026-09-04 12:48:34 | 50.79231 | 18.10370 | 99° | 16km/h | 31002m | 5.0m/s | 0°C | 0% | 0hPa | 0V | 00:00:00 | 00:00:00 | 00:00:00 | |
| OE5DRO-10 | 2026-09-04 12:48:33 | 50.79232 | 18.10349 | 323° | 16km/h | 30982m | 8.5m/s | 0°C | 0% | 0hPa | 0V | 00:00:00 | 00:00:00 | 00:00:00 | |
| PETON7-10 | 2026-09-04 12:48:30 | 50.79231 | 18.10351 | 316° | 20km/h | 30975m | 4.7m/s | 0°C | 0% | 0hPa | 0V | 00:00:00 | 00:00:00 | 00:00:00 | |
| SQ6EMJ | 2026-09-04 12:48:25 | 50.79233 | 18.10316 | 102° | 22km/h | 30945m | 9.4m/s | 0°C | 0% | 0hPa | 0V | 00:00:00 | 00:00:00 | 00:00:00 | |
| OE5MMP-10 | 2026-09-04 12:48:22 | 50.79230 | 18.10304 | 14° | 16km/h | 30922m | 6.3m/s | 0°C | 0% | 0hPa | 0V | 00:00:00 | 00:00:00 | 00:00:00 | |
| PETON7-10 | 2026-09-04 12:48:13 | 50.79224 | 18.10266 | 110° | 18km/h | 30859m | 6.1m/s | 0°C | 0% | 0hPa | 0V | 00:00:00 | 00:00:00 | 00:00:00 | |
| OE5MMP-10 | 2026-09-04 12:48:12 | 50.79225 | 18.10257 | 91° | 18km/h | 30853m | 4.5m/s | 0°C | 0% | 0hPa | 0V | 00:00:00 | 00:00:00 | 00:00:00 | |
| OE5DRO-10 | 2026-09-04 12:48:11 | 50.79216 | 18.10258 | 305° | 15km/h | 30825m | 4.8m/s | 0°C | 0% | 0hPa | 0V | 00:00:00 | 00:00:00 | 00:00:00 | |
| OE5MMP-10 | 2026-09-04 12:48:02 | 50.79221 | 18.10231 | 161° | 11km/h | 30786m | 7.7m/s | 0°C | 0% | 0hPa | 0V | 00:00:00 | 00:00:00 | 00:00:00 | |
| SP3BTT-10 | 2026-09-04 12:48:01 | 50.79225 | 18.10231 | 198° | 18km/h | 30779m | 5.4m/s | 0°C | 0% | 0hPa | 0V | 00:00:00 | 00:00:00 | 00:00:00 | |
| PETON7-10 | 2026-09-04 12:47:58 | 50.79227 | 18.10234 | 41° | 13km/h | 30761m | 7.8m/s | 0°C | 0% | 0hPa | 0V | 00:00:00 | 00:00:00 | 00:00:00 | |
| OE5MMP-10 | 2026-09-04 12:47:52 | 50.79229 | 18.10215 | 135° | 20km/h | 30723m | 7.0m/s | 0°C | 0% | 0hPa | 0V | 00:00:00 | 00:00:00 | 00:00:00 | |
| PG1ADW-2 | 2026-09-04 12:47:46 | 50.79236 | 18.10177 | 182° | 11km/h | 30682m | 5.9m/s | 0°C | 0% | 0hPa | 0V | 00:00:00 | 00:00:00 | 00:00:00 | |
| SQ9PSP-11 | 2026-09-04 12:47:44 | 50.79235 | 18.10170 | 85° | 20km/h | 30671m | 7.1m/s | 0°C | 0% | 0hPa | 0V | 00:00:00 | 00:00:00 | 00:00:00 | |
| OE5MMP-10 | 2026-09-04 12:47:42 | 50.79235 | 18.10146 | 99° | 24km/h | 30658m | 4.4m/s | 0°C | 0% | 0hPa | 0V | 00:00:00 | 00:00:00 | 00:00:00 | |
| SQ6EMJ | 2026-09-04 12:47:37 | 50.79249 | 18.10107 | 109° | 24km/h | 30624m | 8.7m/s | 0°C | 0% | 0hPa | 0V | 00:00:00 | 00:00:00 | 00:00:00 | |
| SQ6EMJ | 2026-09-04 12:47:29 | 50.79249 | 18.10037 | 81° | 27km/h | 30570m | 6.8m/s | 0°C | 0% | 0hPa | 0V | 00:00:00 | 00:00:00 | 00:00:00 | |
| PETON7-10 | 2026-09-04 12:47:24 | 50.79250 | 18.10004 | 129° | 11km/h | 30541m | 5.9m/s | 0°C | 0% | 0hPa | 0V | 00:00:00 | 00:00:00 | 00:00:00 | |
| OE5MMP-10 | 2026-09-04 12:47:21 | 50.79255 | 18.09978 | 86° | 13km/h | 30520m | 4.4m/s | 0°C | 0% | 0hPa | 0V | 00:00:00 | 00:00:00 | 00:00:00 | |
| PG1ADW-2 | 2026-09-04 12:47:13 | 50.79255 | 18.09941 | 159° | 18km/h | 30470m | 6.7m/s | 0°C | 0% | 0hPa | 0V | 00:00:00 | 00:00:00 | 00:00:00 | |
| SQ6EMJ | 2026-09-04 12:47:10 | 50.79266 | 18.09945 | 187° | 15km/h | 30450m | 3.2m/s | 0°C | 0% | 0hPa | 0V | 00:00:00 | 00:00:00 | 00:00:00 | |
| OE5MMP-10 | 2026-09-04 12:47:09 | 50.79269 | 18.09943 | 136° | 15km/h | 30446m | 8.7m/s | 0°C | 0% | 0hPa | 0V | 00:00:00 | 00:00:00 | 00:00:00 | |
| PETON7-10 | 2026-09-04 12:47:07 | 50.79270 | 18.09929 | 78° | 18km/h | 30428m | 4.3m/s | 0°C | 0% | 0hPa | 0V | 00:00:00 | 00:00:00 | 00:00:00 | |
| OE5DRO-10 | 2026-09-04 12:47:02 | 50.79273 | 18.09907 | 126° | 22km/h | 30391m | 7.9m/s | 0°C | 0% | 0hPa | 0V | 00:00:00 | 00:00:00 | 00:00:00 | |
| OE5MMP-10 | 2026-09-04 12:46:59 | 50.79275 | 18.09894 | 99° | 18km/h | 30380m | 5.6m/s | 0°C | 0% | 0hPa | 0V | 00:00:00 | 00:00:00 | 00:00:00 | |
| PETON7-10 | 2026-09-04 12:46:51 | 50.79267 | 18.09838 | 113° | 20km/h | 30325m | 9.3m/s | 0°C | 0% | 0hPa | 0V | 00:00:00 | 00:00:00 | 00:00:00 | |
| PG1ADW-2 | 2026-09-04 12:46:50 | 50.79269 | 18.09834 | 154° | 22km/h | 30317m | 6.4m/s | 0°C | 0% | 0hPa | 0V | 00:00:00 | 00:00:00 | 00:00:00 | |
| OE5MMP-10 | 2026-09-04 12:46:48 | 50.79273 | 18.09829 | 110° | 22km/h | 30305m | 7.0m/s | 0°C | 0% | 0hPa | 0V | 00:00:00 | 00:00:00 | 00:00:00 | |
| OE5DRO-10 | 2026-09-04 12:46:43 | 50.79266 | 18.09779 | 77° | 20km/h | 30272m | 7.4m/s | 0°C | 0% | 0hPa | 0V | 00:00:00 | 00:00:00 | 00:00:00 | |
| OE5MMP-10 | 2026-09-04 12:46:36 | 50.79274 | 18.09719 | 70° | 27km/h | 30228m | 7.1m/s | 0°C | 0% | 0hPa | 0V | 00:00:00 | 00:00:00 | 00:00:00 | |
| OE5MMP-10 | 2026-09-04 12:46:26 | 50.79284 | 18.09634 | 53° | 18km/h | 30169m | 7.0m/s | 0°C | 0% | 0hPa | 0V | 00:00:00 | 00:00:00 | 00:00:00 | |
| OE5DRO-10 | 2026-09-04 12:46:24 | 50.79278 | 18.09613 | 73° | 24km/h | 30154m | 6.2m/s | 0°C | 0% | 0hPa | 0V | 00:00:00 | 00:00:00 | 00:00:00 | |
| PETON7-10 | 2026-09-04 12:46:19 | 50.79279 | 18.09567 | 137° | 22km/h | 30123m | 4.5m/s | 0°C | 0% | 0hPa | 0V | 00:00:00 | 00:00:00 | 00:00:00 | |
| OE5MMP-10 | 2026-09-04 12:46:15 | 50.79270 | 18.09535 | 53° | 24km/h | 30098m | 5.9m/s | 0°C | 0% | 0hPa | 0V | 00:00:00 | 00:00:00 | 00:00:00 | |
| SQ9PSP-11 | 2026-09-04 12:46:08 | 50.79255 | 18.09488 | 107° | 24km/h | 30057m | 5.0m/s | 0°C | 0% | 0hPa | 0V | 00:00:00 | 00:00:00 | 00:00:00 | |
| OE5MMP-10 | 2026-09-04 12:46:05 | 50.79250 | 18.09473 | 357° | 18km/h | 30035m | 8.8m/s | 0°C | 0% | 0hPa | 0V | 00:00:00 | 00:00:00 | 00:00:00 | |
| PETON7-10 | 2026-09-04 12:46:04 | 50.79246 | 18.09474 | 346° | 18km/h | 30027m | 5.9m/s | 0°C | 0% | 0hPa | 0V | 00:00:00 | 00:00:00 | 00:00:00 | |
| SQ6EMJ | 2026-09-04 12:46:02 | 50.79235 | 18.09473 | 27° | 22km/h | 30015m | 7.8m/s | 0°C | 0% | 0hPa | 0V | 00:00:00 | 00:00:00 | 00:00:00 | |
| OE5MMP-10 | 2026-09-04 12:45:55 | 50.79227 | 18.09436 | 38° | 18km/h | 29971m | 7.8m/s | 0°C | 0% | 0hPa | 0V | 00:00:00 | 00:00:00 | 00:00:00 | |
| PETON7-10 | 2026-09-04 12:45:49 | 50.79208 | 18.09410 | 37° | 13km/h | 29935m | 3.8m/s | 0°C | 0% | 0hPa | 0V | 00:00:00 | 00:00:00 | 00:00:00 | |
| SQ6EMJ | 2026-09-04 12:45:48 | 50.79206 | 18.09406 | 53° | 16km/h | 29931m | 5.2m/s | 0°C | 0% | 0hPa | 0V | 00:00:00 | 00:00:00 | 00:00:00 | |
| SP3BTT-10 | 2026-09-04 12:45:46 | 50.79198 | 18.09379 | 67° | 20km/h | 29913m | 4.4m/s | 0°C | 0% | 0hPa | 0V | 00:00:00 | 00:00:00 | 00:00:00 | |
| OE5MMP-10 | 2026-09-04 12:45:45 | 50.79198 | 18.09379 | 67° | 15km/h | 29913m | 4.4m/s | 0°C | 0% | 0hPa | 0V | 00:00:00 | 00:00:00 | 00:00:00 | |
| SQ6EMJ | 2026-09-04 12:45:41 | 50.79194 | 18.09368 | 7° | 5km/h | 29887m | 5.3m/s | 0°C | 0% | 0hPa | 0V | 00:00:00 | 00:00:00 | 00:00:00 | |
| OE5MMP-10 | 2026-09-04 12:45:35 | 50.79184 | 18.09330 | 42° | 18km/h | 29847m | 6.8m/s | 0°C | 0% | 0hPa | 0V | 00:00:00 | 00:00:00 | 00:00:00 | |
| PETON7-10 | 2026-09-04 12:45:33 | 50.79178 | 18.09327 | 24° | 18km/h | 29834m | 7.7m/s | 0°C | 0% | 0hPa | 0V | 00:00:00 | 00:00:00 | 00:00:00 | |
| PG1ADW-2 | 2026-09-04 12:45:27 | 50.79169 | 18.09292 | 90° | 33km/h | 29800m | 5.7m/s | 0°C | 0% | 0hPa | 0V | 00:00:00 | 00:00:00 | 00:00:00 | |
| OE5MMP-10 | 2026-09-04 12:45:24 | 50.79163 | 18.09262 | 55° | 16km/h | 29780m | 4.7m/s | 0°C | 0% | 0hPa | 0V | 00:00:00 | 00:00:00 | 00:00:00 | |
| OE5DRO-10 | 2026-09-04 12:45:23 | 50.79159 | 18.09253 | 55° | 18km/h | 29774m | 7.5m/s | 0°C | 0% | 0hPa | 0V | 00:00:00 | 00:00:00 | 00:00:00 | |
| OE5MMP-10 | 2026-09-04 12:45:13 | 50.79144 | 18.09201 | 61° | 20km/h | 29707m | 4.5m/s | 0°C | 0% | 0hPa | 0V | 00:00:00 | 00:00:00 | 00:00:00 | |
| SQ6EMJ | 2026-09-04 12:45:10 | 50.79137 | 18.09184 | 53° | 29km/h | 29687m | 6.0m/s | 0°C | 0% | 0hPa | 0V | 00:00:00 | 00:00:00 | 00:00:00 | |
| OE5DRO-10 | 2026-09-04 12:45:04 | 50.79127 | 18.09138 | 66° | 24km/h | 29646m | 6.6m/s | 0°C | 0% | 0hPa | 0V | 00:00:00 | 00:00:00 | 00:00:00 | |
| PETON7-10 | 2026-09-04 12:45:02 | 50.79122 | 18.09122 | 57° | 27km/h | 29634m | 7.5m/s | 0°C | 0% | 0hPa | 0V | 00:00:00 | 00:00:00 | 00:00:00 | |
| SQ6EMJ | 2026-09-04 12:44:58 | 50.79102 | 18.09086 | 47° | 40km/h | 29602m | 7.9m/s | 0°C | 0% | 0hPa | 0V | 00:00:00 | 00:00:00 | 00:00:00 | |
| OE5MMP-10 | 2026-09-04 12:44:51 | 50.79083 | 18.09046 | 61° | 31km/h | 29567m | 8.9m/s | 0°C | 0% | 0hPa | 0V | 00:00:00 | 00:00:00 | 00:00:00 | |
| SQ6EMJ | 2026-09-04 12:44:49 | 50.79074 | 18.09024 | 57° | 40km/h | 29549m | 4.8m/s | 0°C | 0% | 0hPa | 0V | 00:00:00 | 00:00:00 | 00:00:00 | |
| PETON7-10 | 2026-09-04 12:44:47 | 50.79064 | 18.08999 | 56° | 31km/h | 29536m | 9.5m/s | 0°C | 0% | 0hPa | 0V | 00:00:00 | 00:00:00 | 00:00:00 | |
| SP3BTT-10 | 2026-09-04 12:44:44 | 50.79050 | 18.08980 | 32° | 31km/h | 29516m | 8.2m/s | 0°C | 0% | 0hPa | 0V | 00:00:00 | 00:00:00 | 00:00:00 | |
| SQ6EMJ | 2026-09-04 12:44:43 | 50.79044 | 18.08974 | 34° | 33km/h | 29508m | 6.7m/s | 0°C | 0% | 0hPa | 0V | 00:00:00 | 00:00:00 | 00:00:00 | |
| OE5MMP-10 | 2026-09-04 12:44:41 | 50.79033 | 18.08958 | 48° | 31km/h | 29498m | 7.3m/s | 0°C | 0% | 0hPa | 0V | 00:00:00 | 00:00:00 | 00:00:00 | |
| SQ6EMJ | 2026-09-04 12:44:37 | 50.79021 | 18.08918 | 61° | 38km/h | 29471m | 8.4m/s | 0°C | 0% | 0hPa | 0V | 00:00:00 | 00:00:00 | 00:00:00 | |
| OE5MMP-10 | 2026-09-04 12:44:30 | 50.78984 | 18.08856 | 69° | 35km/h | 29426m | 9.3m/s | 0°C | 0% | 0hPa | 0V | 00:00:00 | 00:00:00 | 00:00:00 | |
| PETON7-10 | 2026-09-04 12:44:29 | 50.78980 | 18.08842 | 69° | 37km/h | 29417m | 8.1m/s | 0°C | 0% | 0hPa | 0V | 00:00:00 | 00:00:00 | 00:00:00 | |
| OE5DRO-10 | 2026-09-04 12:44:25 | 50.78966 | 18.08785 | 40° | 35km/h | 29392m | 5.0m/s | 0°C | 0% | 0hPa | 0V | 00:00:00 | 00:00:00 | 00:00:00 | |
| OE5MMP-10 | 2026-09-04 12:44:19 | 50.78926 | 18.08741 | 72° | 22km/h | 29352m | 8.2m/s | 0°C | 0% | 0hPa | 0V | 00:00:00 | 00:00:00 | 00:00:00 | |
| SQ9PSP-11 | 2026-09-04 12:44:18 | 50.78925 | 18.08729 | 94° | 33km/h | 29345m | 5.9m/s | 0°C | 0% | 0hPa | 0V | 00:00:00 | 00:00:00 | 00:00:00 | |
| PETON7-10 | 2026-09-04 12:44:14 | 50.78912 | 18.08674 | 36° | 37km/h | 29318m | 4.6m/s | 0°C | 0% | 0hPa | 0V | 00:00:00 | 00:00:00 | 00:00:00 | |
| OE5MMP-10 | 2026-09-04 12:44:06 | 50.78873 | 18.08603 | 70° | 40km/h | 29266m | 5.0m/s | 0°C | 0% | 0hPa | 0V | 00:00:00 | 00:00:00 | 00:00:00 | |
| SQ6EMJ | 2026-09-04 12:44:04 | 50.78862 | 18.08577 | 28° | 26km/h | 29247m | 4.9m/s | 0°C | 0% | 0hPa | 0V | 00:00:00 | 00:00:00 | 00:00:00 | |
| PETON7-10 | 2026-09-04 12:43:59 | 50.78830 | 18.08545 | 41° | 33km/h | 29223m | 6.9m/s | 0°C | 0% | 0hPa | 0V | 00:00:00 | 00:00:00 | 00:00:00 | |
| SQ9PSP-11 | 2026-09-04 12:43:57 | 50.78822 | 18.08528 | 80° | 22km/h | 29207m | 6.5m/s | 0°C | 0% | 0hPa | 0V | 00:00:00 | 00:00:00 | 00:00:00 | |
| OE5MMP-10 | 2026-09-04 12:43:56 | 50.78821 | 18.08519 | 79° | 33km/h | 29201m | 5.5m/s | 0°C | 0% | 0hPa | 0V | 00:00:00 | 00:00:00 | 00:00:00 | |
| OE5DRO-10 | 2026-09-04 12:43:47 | 50.78764 | 18.08459 | 63° | 33km/h | 29145m | 8.3m/s | 0°C | 0% | 0hPa | 0V | 00:00:00 | 00:00:00 | 00:00:00 | |
| PETON7-10 | 2026-09-04 12:43:44 | 50.78755 | 18.08425 | 50° | 31km/h | 29129m | 8.3m/s | 0°C | 0% | 0hPa | 0V | 00:00:00 | 00:00:00 | 00:00:00 | |
| SQ9PSP-11 | 2026-09-04 12:43:38 | 50.78708 | 18.08415 | 24° | 49km/h | 29085m | 6.6m/s | 0°C | 0% | 0hPa | 0V | 00:00:00 | 00:00:00 | 00:00:00 | |
| SQ6EMJ | 2026-09-04 12:43:36 | 50.78688 | 18.08403 | 20° | 35km/h | 29071m | 7.3m/s | 0°C | 0% | 0hPa | 0V | 00:00:00 | 00:00:00 | 00:00:00 | |
| OE5MMP-10 | 2026-09-04 12:43:34 | 50.78677 | 18.08394 | 47° | 35km/h | 29057m | 8.8m/s | 0°C | 0% | 0hPa | 0V | 00:00:00 | 00:00:00 | 00:00:00 | |
| SP3BTT-10 | 2026-09-04 12:43:29 | 50.78648 | 18.08391 | 338° | 26km/h | 29028m | 6.0m/s | 0°C | 0% | 0hPa | 0V | 00:00:00 | 00:00:00 | 00:00:00 | |
| PETON7-10 | 2026-09-04 12:43:28 | 50.78635 | 18.08396 | 353° | 37km/h | 29024m | 3.3m/s | 0°C | 0% | 0hPa | 0V | 00:00:00 | 00:00:00 | 00:00:00 | |
| OE5MMP-10 | 2026-09-04 12:43:24 | 50.78598 | 18.08367 | 77° | 42km/h | 28999m | 4.1m/s | 0°C | 0% | 0hPa | 0V | 00:00:00 | 00:00:00 | 00:00:00 | |
| PG1ADW-2 | 2026-09-04 12:43:15 | 50.78531 | 18.08374 | 3° | 22km/h | 28930m | 4.2m/s | 0°C | 0% | 0hPa | 0V | 00:00:00 | 00:00:00 | 00:00:00 | |
| PETON7-10 | 2026-09-04 12:43:14 | 50.78531 | 18.08374 | 3° | 18km/h | 28930m | 4.2m/s | 0°C | 0% | 0hPa | 0V | 00:00:00 | 00:00:00 | 00:00:00 | |
| SQ6EMJ | 2026-09-04 12:43:12 | 50.78525 | 18.08374 | 2° | 26km/h | 28925m | 6.5m/s | 0°C | 0% | 0hPa | 0V | 00:00:00 | 00:00:00 | 00:00:00 | |
| OE5DRO-10 | 2026-09-04 12:43:09 | 50.78499 | 18.08376 | 350° | 20km/h | 28906m | 5.1m/s | 0°C | 0% | 0hPa | 0V | 00:00:00 | 00:00:00 | 00:00:00 | |
| SQ6EMJ | 2026-09-04 12:43:06 | 50.78482 | 18.08387 | 318° | 20km/h | 28886m | 5.3m/s | 0°C | 0% | 0hPa | 0V | 00:00:00 | 00:00:00 | 00:00:00 | |
| OE5MMP-10 | 2026-09-04 12:43:01 | 50.78457 | 18.08403 | 6° | 16km/h | 28854m | 7.7m/s | 0°C | 0% | 0hPa | 0V | 00:00:00 | 00:00:00 | 00:00:00 | |
| PETON7-10 | 2026-09-04 12:42:58 | 50.78452 | 18.08402 | 331° | 22km/h | 28836m | 5.4m/s | 0°C | 0% | 0hPa | 0V | 00:00:00 | 00:00:00 | 00:00:00 | |
| PG1ADW-2 | 2026-09-04 12:42:55 | 50.78435 | 18.08415 | 325° | 18km/h | 28817m | 4.2m/s | 0°C | 0% | 0hPa | 0V | 00:00:00 | 00:00:00 | 00:00:00 | |
| OE5DRO-10 | 2026-09-04 12:42:51 | 50.78423 | 18.08443 | 10° | 16km/h | 28781m | 6.7m/s | 0°C | 0% | 0hPa | 0V | 00:00:00 | 00:00:00 | 00:00:00 | |
| OE5MMP-10 | 2026-09-04 12:42:48 | 50.78419 | 18.08443 | 2° | 18km/h | 28776m | 4.2m/s | 0°C | 0% | 0hPa | 0V | 00:00:00 | 00:00:00 | 00:00:00 | |
| SQ6EMJ | 2026-09-04 12:42:47 | 50.78416 | 18.08444 | 318° | 13km/h | 28770m | 7.9m/s | 0°C | 0% | 0hPa | 0V | 00:00:00 | 00:00:00 | 00:00:00 | |
| PETON7-10 | 2026-09-04 12:42:43 | 50.78413 | 18.08476 | 294° | 15km/h | 28741m | 7.7m/s | 0°C | 0% | 0hPa | 0V | 00:00:00 | 00:00:00 | 00:00:00 | |
| OE5MMP-10 | 2026-09-04 12:42:36 | 50.78414 | 18.08503 | 240° | 11km/h | 28697m | 7.7m/s | 0°C | 0% | 0hPa | 0V | 00:00:00 | 00:00:00 | 00:00:00 | |
| PG1ADW-2 | 2026-09-04 12:42:35 | 50.78414 | 18.08507 | 288° | 15km/h | 28690m | 6.5m/s | 0°C | 0% | 0hPa | 0V | 00:00:00 | 00:00:00 | 00:00:00 | |
| SQ6EMJ | 2026-09-04 12:42:30 | 50.78417 | 18.08534 | 252° | 11km/h | 28656m | 7.1m/s | 0°C | 0% | 0hPa | 0V | 00:00:00 | 00:00:00 | 00:00:00 | |
| SQ9PSP-11 | 2026-09-04 12:42:28 | 50.78416 | 18.08541 | 272° | 7km/h | 28641m | 4.0m/s | 0°C | 0% | 0hPa | 0V | 00:00:00 | 00:00:00 | 00:00:00 | |
| OE5MMP-10 | 2026-09-04 12:42:25 | 50.78422 | 18.08553 | 221° | 16km/h | 28623m | 6.3m/s | 0°C | 0% | 0hPa | 0V | 00:00:00 | 00:00:00 | 00:00:00 | |
| PETON7-10 | 2026-09-04 12:42:24 | 50.78427 | 18.08559 | 216° | 13km/h | 28618m | 3.2m/s | 0°C | 0% | 0hPa | 0V | 00:00:00 | 00:00:00 | 00:00:00 | |
| SQ6EMJ | 2026-09-04 12:42:23 | 50.78430 | 18.08565 | 238° | 18km/h | 28614m | 4.7m/s | 0°C | 0% | 0hPa | 0V | 00:00:00 | 00:00:00 | 00:00:00 | |
| OE5MMP-10 | 2026-09-04 12:42:14 | 50.78441 | 18.08579 | 258° | 18km/h | 28554m | 4.3m/s | 0°C | 0% | 0hPa | 0V | 00:00:00 | 00:00:00 | 00:00:00 | |
| OE5DRO-10 | 2026-09-04 12:42:09 | 50.78448 | 18.08576 | 95° | 11km/h | 28525m | 6.7m/s | 0°C | 0% | 0hPa | 0V | 00:00:00 | 00:00:00 | 00:00:00 | |
| PETON7-10 | 2026-09-04 12:42:08 | 50.78447 | 18.08573 | 33° | 15km/h | 28519m | 6.5m/s | 0°C | 0% | 0hPa | 0V | 00:00:00 | 00:00:00 | 00:00:00 | |
| OE5MMP-10 | 2026-09-04 12:41:59 | 50.78461 | 18.08578 | 18° | 11km/h | 28465m | 5.6m/s | 0°C | 0% | 0hPa | 0V | 00:00:00 | 00:00:00 | 00:00:00 | |
| PETON7-10 | 2026-09-04 12:41:53 | 50.78462 | 18.08562 | 119° | 18km/h | 28428m | 4.9m/s | 0°C | 0% | 0hPa | 0V | 00:00:00 | 00:00:00 | 00:00:00 | |
| OE5DRO-10 | 2026-09-04 12:41:50 | 50.78469 | 18.08551 | 134° | 15km/h | 28410m | 6.0m/s | 0°C | 0% | 0hPa | 0V | 00:00:00 | 00:00:00 | 00:00:00 | |
| OE5MMP-10 | 2026-09-04 12:41:49 | 50.78470 | 18.08548 | 90° | 15km/h | 28403m | 7.9m/s | 0°C | 0% | 0hPa | 0V | 00:00:00 | 00:00:00 | 00:00:00 | |
| SQ6EMJ | 2026-09-04 12:41:47 | 50.78466 | 18.08540 | 35° | 16km/h | 28388m | 3.1m/s | 0°C | 0% | 0hPa | 0V | 00:00:00 | 00:00:00 | 00:00:00 | |
| SQ6EMJ | 2026-09-04 12:41:41 | 50.78477 | 18.08515 | 115° | 18km/h | 28356m | 7.1m/s | 0°C | 0% | 0hPa | 0V | 00:00:00 | 00:00:00 | 00:00:00 | |
| OE5MMP-10 | 2026-09-04 12:41:36 | 50.78477 | 18.08480 | 149° | 18km/h | 28326m | 6.0m/s | 0°C | 0% | 0hPa | 0V | 00:00:00 | 00:00:00 | 00:00:00 | |
| SQ6EMJ | 2026-09-04 12:41:33 | 50.78480 | 18.08481 | 360° | 5km/h | 28308m | 4.1m/s | 0°C | 0% | 0hPa | 0V | 00:00:00 | 00:00:00 | 00:00:00 | |
| OE5DRO-10 | 2026-09-04 12:41:31 | 50.78479 | 18.08471 | 97° | 27km/h | 28295m | 8.3m/s | 0°C | 0% | 0hPa | 0V | 00:00:00 | 00:00:00 | 00:00:00 | |
| SP3BTT-10 | 2026-09-04 12:41:28 | 50.78486 | 18.08431 | 101° | 18km/h | 28278m | 3.0m/s | 0°C | 0% | 0hPa | 0V | 00:00:00 | 00:00:00 | 00:00:00 | |
| PG1ADW-2 | 2026-09-04 12:41:27 | 50.78487 | 18.08419 | 98° | 27km/h | 28273m | 5.5m/s | 0°C | 0% | 0hPa | 0V | 00:00:00 | 00:00:00 | 00:00:00 | |
| OE5MMP-10 | 2026-09-04 12:41:24 | 50.78480 | 18.08408 | 345° | 18km/h | 28256m | 2.7m/s | 0°C | 0% | 0hPa | 0V | 00:00:00 | 00:00:00 | 00:00:00 | |
| SQ6EMJ | 2026-09-04 12:41:14 | 50.78471 | 18.08296 | 51° | 13km/h | 28191m | 6.7m/s | 0°C | 0% | 0hPa | 0V | 00:00:00 | 00:00:00 | 00:00:00 | |
| OE5MMP-10 | 2026-09-04 12:41:13 | 50.78471 | 18.08296 | 50° | 22km/h | 28191m | 6.7m/s | 0°C | 0% | 0hPa | 0V | 00:00:00 | 00:00:00 | 00:00:00 | |
| OE5DRO-10 | 2026-09-04 12:41:12 | 50.78468 | 18.08291 | 49° | 24km/h | 28184m | 5.6m/s | 0°C | 0% | 0hPa | 0V | 00:00:00 | 00:00:00 | 00:00:00 | |
| PG1ADW-2 | 2026-09-04 12:41:06 | 50.78452 | 18.08219 | 88° | 20km/h | 28146m | 3.2m/s | 0°C | 0% | 0hPa | 0V | 00:00:00 | 00:00:00 | 00:00:00 | |
| OE5MMP-10 | 2026-09-04 12:41:03 | 50.78442 | 18.08191 | 46° | 22km/h | 28127m | 4.3m/s | 0°C | 0% | 0hPa | 0V | 00:00:00 | 00:00:00 | 00:00:00 | |
| PETON7-10 | 2026-09-04 12:41:00 | 50.78430 | 18.08161 | 76° | 16km/h | 28110m | 5.4m/s | 0°C | 0% | 0hPa | 0V | 00:00:00 | 00:00:00 | 00:00:00 | |
| SQ6EMJ | 2026-09-04 12:40:52 | 50.78403 | 18.08126 | 52° | 20km/h | 28057m | 4.9m/s | 0°C | 0% | 0hPa | 0V | 00:00:00 | 00:00:00 | 00:00:00 | |
| OE5MMP-10 | 2026-09-04 12:40:51 | 50.78399 | 18.08120 | 44° | 20km/h | 28050m | 6.6m/s | 0°C | 0% | 0hPa | 0V | 00:00:00 | 00:00:00 | 00:00:00 | |
| SQ9PSP-11 | 2026-09-04 12:40:50 | 50.78395 | 18.08112 | 49° | 27km/h | 28045m | 4.4m/s | 0°C | 0% | 0hPa | 0V | 00:00:00 | 00:00:00 | 00:00:00 | |
| OE5DRO-10 | 2026-09-04 12:40:49 | 50.78392 | 18.08105 | 66° | 15km/h | 28040m | 4.7m/s | 0°C | 0% | 0hPa | 0V | 00:00:00 | 00:00:00 | 00:00:00 | |
| PG1ADW-2 | 2026-09-04 12:40:45 | 50.78391 | 18.08093 | 359° | 11km/h | 28017m | 5.4m/s | 0°C | 0% | 0hPa | 0V | 00:00:00 | 00:00:00 | 00:00:00 | |
| SP3BTT-10 | 2026-09-04 12:40:43 | 50.78382 | 18.08093 | 5° | 18km/h | 28001m | 6.4m/s | 0°C | 0% | 0hPa | 0V | 00:00:00 | 00:00:00 | 00:00:00 | |
| OE5MMP-10 | 2026-09-04 12:40:41 | 50.78369 | 18.08088 | 18° | 9km/h | 27990m | 4.9m/s | 0°C | 0% | 0hPa | 0V | 00:00:00 | 00:00:00 | 00:00:00 | |
| SQ6EMJ | 2026-09-04 12:40:38 | 50.78366 | 18.08080 | 114° | 4km/h | 27972m | 5.4m/s | 0°C | 0% | 0hPa | 0V | 00:00:00 | 00:00:00 | 00:00:00 | |
| PETON7-10 | 2026-09-04 12:40:36 | 50.78364 | 18.08078 | 20° | 13km/h | 27958m | 6.0m/s | 0°C | 0% | 0hPa | 0V | 00:00:00 | 00:00:00 | 00:00:00 | |
| SQ6EMJ | 2026-09-04 12:40:32 | 50.78354 | 18.08068 | 11° | 15km/h | 27932m | 6.7m/s | 0°C | 0% | 0hPa | 0V | 00:00:00 | 00:00:00 | 00:00:00 | |
| OE5MMP-10 | 2026-09-04 12:40:30 | 50.78349 | 18.08068 | 1° | 11km/h | 27924m | 8.3m/s | 0°C | 0% | 0hPa | 0V | 00:00:00 | 00:00:00 | 00:00:00 | |
| SQ9PSP-11 | 2026-09-04 12:40:29 | 50.78344 | 18.08068 | 7° | 18km/h | 27917m | 3.9m/s | 0°C | 0% | 0hPa | 0V | 00:00:00 | 00:00:00 | 00:00:00 | |
| OE5DRO-10 | 2026-09-04 12:40:26 | 50.78341 | 18.08063 | 147° | 11km/h | 27899m | 3.3m/s | 0°C | 0% | 0hPa | 0V | 00:00:00 | 00:00:00 | 00:00:00 | |
| PG1ADW-2 | 2026-09-04 12:40:25 | 50.78344 | 18.08060 | 138° | 9km/h | 27896m | 4.1m/s | 0°C | 0% | 0hPa | 0V | 00:00:00 | 00:00:00 | 00:00:00 | |
| PETON7-10 | 2026-09-04 12:40:21 | 50.78337 | 18.08056 | 348° | 9km/h | 27869m | 6.9m/s | 0°C | 0% | 0hPa | 0V | 00:00:00 | 00:00:00 | 00:00:00 | |
| OE5MMP-10 | 2026-09-04 12:40:20 | 50.78335 | 18.08058 | 333° | 7km/h | 27860m | 8.7m/s | 0°C | 0% | 0hPa | 0V | 00:00:00 | 00:00:00 | 00:00:00 | |
| SQ6EMJ | 2026-09-04 12:40:18 | 50.78337 | 18.08059 | 195° | 9km/h | 27848m | 4.3m/s | 0°C | 0% | 0hPa | 0V | 00:00:00 | 00:00:00 | 00:00:00 | |
| OK1SLM-15 | 2026-09-04 12:40:11 | 50.78337 | 18.08060 | 0° | 0km/h | 27808m | 6.4m/s | 0°C | 0% | 0hPa | 0V | 00:00:00 | 00:00:00 | 00:00:00 | |
| OE5MMP-10 | 2026-09-04 12:40:10 | 50.78336 | 18.08062 | 316° | 13km/h | 27800m | 8.1m/s | 0°C | 0% | 0hPa | 0V | 00:00:00 | 00:00:00 | 00:00:00 | |
| OE5DRO-10 | 2026-09-04 12:40:07 | 50.78332 | 18.08075 | 238° | 11km/h | 27778m | 8.1m/s | 0°C | 0% | 0hPa | 0V | 00:00:00 | 00:00:00 | 00:00:00 | |
| OK1SLM-15 | 2026-09-04 12:40:06 | 50.78334 | 18.08078 | 209° | 15km/h | 27771m | 4.9m/s | 0°C | 0% | 0hPa | 0V | 00:00:00 | 00:00:00 | 00:00:00 | |
| PG1ADW-2 | 2026-09-04 12:40:05 | 50.78337 | 18.08080 | 218° | 7km/h | 27765m | 5.4m/s | 0°C | 0% | 0hPa | 0V | 00:00:00 | 00:00:00 | 00:00:00 | |
| SQ9PSP-11 | 2026-09-04 12:40:04 | 50.78338 | 18.08082 | 201° | 5km/h | 27759m | 7.3m/s | 0°C | 0% | 0hPa | 0V | 00:00:00 | 00:00:00 | 00:00:00 | |
| PETON7-10 | 2026-09-04 12:40:02 | 50.78340 | 18.08081 | 154° | 15km/h | 27747m | 4.6m/s | 0°C | 0% | 0hPa | 0V | 00:00:00 | 00:00:00 | 00:00:00 | |
| OE5MMP-10 | 2026-09-04 12:40:00 | 50.78344 | 18.08079 | 168° | 26km/h | 27736m | 6.9m/s | 0°C | 0% | 0hPa | 0V | 00:00:00 | 00:00:00 | 00:00:00 | |
| SQ6EMJ | 2026-09-04 12:39:51 | 50.78375 | 18.08081 | 153° | 26km/h | 27680m | 7.2m/s | 0°C | 0% | 0hPa | 0V | 00:00:00 | 00:00:00 | 00:00:00 | |
| OE5MMP-10 | 2026-09-04 12:39:48 | 50.78379 | 18.08072 | 333° | 16km/h | 27659m | 8.2m/s | 0°C | 0% | 0hPa | 0V | 00:00:00 | 00:00:00 | 00:00:00 | |
| PETON7-10 | 2026-09-04 12:39:47 | 50.78378 | 18.08075 | 275° | 11km/h | 27650m | 9.5m/s | 0°C | 0% | 0hPa | 0V | 00:00:00 | 00:00:00 | 00:00:00 | |
| PG1ADW-2 | 2026-09-04 12:39:44 | 50.78379 | 18.08091 | 262° | 16km/h | 27632m | 7.6m/s | 0°C | 0% | 0hPa | 0V | 00:00:00 | 00:00:00 | 00:00:00 | |
| SQ6EMJ | 2026-09-04 12:39:30 | 50.78400 | 18.08082 | 92° | 24km/h | 27538m | 5.7m/s | 0°C | 0% | 0hPa | 0V | 00:00:00 | 00:00:00 | 00:00:00 | |
| OE5DRO-10 | 2026-09-04 12:39:28 | 50.78400 | 18.08074 | 89° | 22km/h | 27531m | 6.7m/s | 0°C | 0% | 0hPa | 0V | 00:00:00 | 00:00:00 | 00:00:00 | |
| SP3BTT-10 | 2026-09-04 12:39:27 | 50.78400 | 18.08068 | 114° | 13km/h | 27525m | 6.3m/s | 0°C | 0% | 0hPa | 0V | 00:00:00 | 00:00:00 | 00:00:00 | |
| PG1ADW-2 | 2026-09-04 12:39:24 | 50.78398 | 18.08080 | 297° | 22km/h | 27505m | 5.6m/s | 0°C | 0% | 0hPa | 0V | 00:00:00 | 00:00:00 | 00:00:00 | |
| SQ6EMJ | 2026-09-04 12:39:23 | 50.78395 | 18.08086 | 305° | 18km/h | 27500m | 4.6m/s | 0°C | 0% | 0hPa | 0V | 00:00:00 | 00:00:00 | 00:00:00 | |
| OE5MMP-10 | 2026-09-04 12:39:13 | 50.78391 | 18.08068 | 219° | 22km/h | 27432m | 7.5m/s | 0°C | 0% | 0hPa | 0V | 00:00:00 | 00:00:00 | 00:00:00 | |
| SQ6EMJ | 2026-09-04 12:39:11 | 50.78396 | 18.08069 | 174° | 22km/h | 27425m | 6.2m/s | 0°C | 0% | 0hPa | 0V | 00:00:00 | 00:00:00 | 00:00:00 | |
| OE5DRO-10 | 2026-09-04 12:39:09 | 50.78405 | 18.08046 | 81° | 15km/h | 27406m | 4.9m/s | 0°C | 0% | 0hPa | 0V | 00:00:00 | 00:00:00 | 00:00:00 | |
| PETON7-10 | 2026-09-04 12:39:03 | 50.78393 | 18.08031 | 256° | 15km/h | 27378m | 6.7m/s | 0°C | 0% | 0hPa | 0V | 00:00:00 | 00:00:00 | 00:00:00 | |
| PG1ADW-2 | 2026-09-04 12:39:02 | 50.78392 | 18.08035 | 285° | 11km/h | 27371m | 6.5m/s | 0°C | 0% | 0hPa | 0V | 00:00:00 | 00:00:00 | 00:00:00 | |
| OE5MMP-10 | 2026-09-04 12:39:01 | 50.78392 | 18.08036 | 32° | 9km/h | 27363m | 8.6m/s | 0°C | 0% | 0hPa | 0V | 00:00:00 | 00:00:00 | 00:00:00 | |
| SQ6EMJ | 2026-09-04 12:38:56 | 50.78395 | 18.08008 | 34° | 5km/h | 27334m | 5.8m/s | 0°C | 0% | 0hPa | 0V | 00:00:00 | 00:00:00 | 00:00:00 | |
| OE5DRO-10 | 2026-09-04 12:38:50 | 50.78388 | 18.08002 | 177° | 13km/h | 27297m | 4.8m/s | 0°C | 0% | 0hPa | 0V | 00:00:00 | 00:00:00 | 00:00:00 | |
| OE5MMP-10 | 2026-09-04 12:38:49 | 50.78392 | 18.08001 | 176° | 13km/h | 27291m | 6.3m/s | 0°C | 0% | 0hPa | 0V | 00:00:00 | 00:00:00 | 00:00:00 | |
| SQ6EMJ | 2026-09-04 12:38:48 | 50.78395 | 18.08000 | 132° | 5km/h | 27284m | 8.3m/s | 0°C | 0% | 0hPa | 0V | 00:00:00 | 00:00:00 | 00:00:00 | |
| PETON7-10 | 2026-09-04 12:38:46 | 50.78391 | 18.07992 | 41° | 11km/h | 27269m | 5.4m/s | 0°C | 0% | 0hPa | 0V | 00:00:00 | 00:00:00 | 00:00:00 | |
| SP3BTT-10 | 2026-09-04 12:38:42 | 50.78385 | 18.07989 | 260° | 16km/h | 27246m | 5.3m/s | 0°C | 0% | 0hPa | 0V | 00:00:00 | 00:00:00 | 00:00:00 | |
| SQ6EMJ | 2026-09-04 12:38:40 | 50.78385 | 18.07997 | 307° | 9km/h | 27235m | 6.6m/s | 0°C | 0% | 0hPa | 0V | 00:00:00 | 00:00:00 | 00:00:00 | |
| OE5MMP-10 | 2026-09-04 12:38:39 | 50.78383 | 18.07998 | 3° | 11km/h | 27228m | 5.9m/s | 0°C | 0% | 0hPa | 0V | 00:00:00 | 00:00:00 | 00:00:00 | |
| SP4MAZ | 2026-09-04 12:38:38 | 50.78380 | 18.07996 | 44° | 16km/h | 27223m | 4.2m/s | 0°C | 0% | 0hPa | 0V | 00:00:00 | 00:00:00 | 00:00:00 | |
| OE5DRO-10 | 2026-09-04 12:38:31 | 50.78389 | 18.07981 | 353° | 13km/h | 27179m | 4.5m/s | 0°C | 0% | 0hPa | 0V | 00:00:00 | 00:00:00 | 00:00:00 | |
| SQ6EMJ | 2026-09-04 12:38:25 | 50.78390 | 18.07958 | 103° | 13km/h | 27143m | 5.5m/s | 0°C | 0% | 0hPa | 0V | 00:00:00 | 00:00:00 | 00:00:00 | |
| OE5MMP-10 | 2026-09-04 12:38:22 | 50.78395 | 18.07952 | 203° | 16km/h | 27122m | 7.5m/s | 0°C | 0% | 0hPa | 0V | 00:00:00 | 00:00:00 | 00:00:00 | |
| SQ6EMJ | 2026-09-04 12:38:15 | 50.78392 | 18.07945 | 161° | 22km/h | 27078m | 6.9m/s | 0°C | 0% | 0hPa | 0V | 00:00:00 | 00:00:00 | 00:00:00 | |
| OE5MMP-10 | 2026-09-04 12:38:12 | 50.78405 | 18.07939 | 129° | 5km/h | 27060m | 7.4m/s | 0°C | 0% | 0hPa | 0V | 00:00:00 | 00:00:00 | 00:00:00 | |
| PETON7-10 | 2026-09-04 12:38:10 | 50.78405 | 18.07935 | 92° | 13km/h | 27050m | 6.1m/s | 0°C | 0% | 0hPa | 0V | 00:00:00 | 00:00:00 | 00:00:00 | |
| SQ6EMJ | 2026-09-04 12:38:02 | 50.78415 | 18.07933 | 173° | 24km/h | 27001m | 5.2m/s | 0°C | 0% | 0hPa | 0V | 00:00:00 | 00:00:00 | 00:00:00 | |
| OE5MMP-10 | 2026-09-04 12:38:01 | 50.78421 | 18.07932 | 168° | 18km/h | 26998m | 4.4m/s | 0°C | 0% | 0hPa | 0V | 00:00:00 | 00:00:00 | 00:00:00 | |
| PG1ADW-2 | 2026-09-04 12:38:00 | 50.78425 | 18.07930 | 166° | 15km/h | 26991m | 9.7m/s | 0°C | 0% | 0hPa | 0V | 00:00:00 | 00:00:00 | 00:00:00 | |
| SQ6EMJ | 2026-09-04 12:37:56 | 50.78427 | 18.07923 | 172° | 13km/h | 26966m | 7.7m/s | 0°C | 0% | 0hPa | 0V | 00:00:00 | 00:00:00 | 00:00:00 | |
| OE5MMP-10 | 2026-09-04 12:37:51 | 50.78450 | 18.07920 | 174° | 20km/h | 26935m | 7.0m/s | 0°C | 0% | 0hPa | 0V | 00:00:00 | 00:00:00 | 00:00:00 | |
| PETON7-10 | 2026-09-04 12:37:50 | 50.78456 | 18.07919 | 174° | 15km/h | 26928m | 8.5m/s | 0°C | 0% | 0hPa | 0V | 00:00:00 | 00:00:00 | 00:00:00 | |
| SQ6EMJ | 2026-09-04 12:37:45 | 50.78468 | 18.07911 | 133° | 7km/h | 26894m | 4.2m/s | 0°C | 0% | 0hPa | 0V | 00:00:00 | 00:00:00 | 00:00:00 | |
| OE5MMP-10 | 2026-09-04 12:37:40 | 50.78491 | 18.07895 | 143° | 16km/h | 26865m | 7.7m/s | 0°C | 0% | 0hPa | 0V | 00:00:00 | 00:00:00 | 00:00:00 | |
| SQ6EMJ | 2026-09-04 12:37:39 | 50.78493 | 18.07892 | 127° | 11km/h | 26860m | 4.3m/s | 0°C | 0% | 0hPa | 0V | 00:00:00 | 00:00:00 | 00:00:00 | |
| PETON7-10 | 2026-09-04 12:37:33 | 50.78512 | 18.07869 | 145° | 15km/h | 26824m | 5.8m/s | 0°C | 0% | 0hPa | 0V | 00:00:00 | 00:00:00 | 00:00:00 | |
| SQ6EMJ | 2026-09-04 12:37:31 | 50.78518 | 18.07864 | 158° | 18km/h | 26811m | 8.4m/s | 0°C | 0% | 0hPa | 0V | 00:00:00 | 00:00:00 | 00:00:00 | |
| SP3BTT-10 | 2026-09-04 12:37:27 | 50.78535 | 18.07857 | 113° | 15km/h | 26786m | 6.4m/s | 0°C | 0% | 0hPa | 0V | 00:00:00 | 00:00:00 | 00:00:00 | |
| PETON7-10 | 2026-09-04 12:37:18 | 50.78548 | 18.07819 | 119° | 13km/h | 26734m | 5.3m/s | 0°C | 0% | 0hPa | 0V | 00:00:00 | 00:00:00 | 00:00:00 | |
| OE5DRO-10 | 2026-09-04 12:37:14 | 50.78556 | 18.07809 | 98° | 15km/h | 26710m | 8.3m/s | 0°C | 0% | 0hPa | 0V | 00:00:00 | 00:00:00 | 00:00:00 | |
| SQ6EMJ | 2026-09-04 12:37:07 | 50.78558 | 18.07759 | 0° | 0km/h | 26668m | 6.8m/s | 0°C | 0% | 0hPa | 0V | 00:00:00 | 00:00:00 | 00:00:00 | |
| OE5MMP-10 | 2026-09-04 12:37:04 | 50.78558 | 18.07761 | 149° | 13km/h | 26653m | 7.7m/s | 0°C | 0% | 0hPa | 0V | 00:00:00 | 00:00:00 | 00:00:00 | |
| PETON7-10 | 2026-09-04 12:37:03 | 50.78561 | 18.07756 | 122° | 18km/h | 26645m | 6.0m/s | 0°C | 0% | 0hPa | 0V | 00:00:00 | 00:00:00 | 00:00:00 | |
| SQ6EMJ | 2026-09-04 12:37:02 | 50.78563 | 18.07746 | 107° | 31km/h | 26639m | 5.7m/s | 0°C | 0% | 0hPa | 0V | 00:00:00 | 00:00:00 | 00:00:00 | |
| PG1ADW-2 | 2026-09-04 12:36:57 | 50.78555 | 18.07708 | 99° | 15km/h | 26612m | 6.6m/s | 0°C | 0% | 0hPa | 0V | 00:00:00 | 00:00:00 | 00:00:00 | |
| OE5DRO-10 | 2026-09-04 12:36:54 | 50.78566 | 18.07692 | 96° | 16km/h | 26589m | 5.9m/s | 0°C | 0% | 0hPa | 0V | 00:00:00 | 00:00:00 | 00:00:00 | |
| SQ6EMJ | 2026-09-04 12:36:53 | 50.78566 | 18.07692 | 97° | 16km/h | 26589m | 6.0m/s | 0°C | 0% | 0hPa | 0V | 00:00:00 | 00:00:00 | 00:00:00 | |
| OE5MMP-10 | 2026-09-04 12:36:51 | 50.78561 | 18.07679 | 41° | 20km/h | 26579m | 4.3m/s | 0°C | 0% | 0hPa | 0V | 00:00:00 | 00:00:00 | 00:00:00 | |
| PETON7-10 | 2026-09-04 12:36:46 | 50.78553 | 18.07645 | 94° | 13km/h | 26550m | 7.0m/s | 0°C | 0% | 0hPa | 0V | 00:00:00 | 00:00:00 | 00:00:00 | |
| SP4MAZ | 2026-09-04 12:36:44 | 50.78552 | 18.07630 | 101° | 15km/h | 26540m | 5.4m/s | 0°C | 0% | 0hPa | 0V | 00:00:00 | 00:00:00 | 00:00:00 | |
| SP3BTT-10 | 2026-09-04 12:36:42 | 50.78554 | 18.07622 | 145° | 13km/h | 26526m | 6.8m/s | 0°C | 0% | 0hPa | 0V | 00:00:00 | 00:00:00 | 00:00:00 | |
| OE5MMP-10 | 2026-09-04 12:36:39 | 50.78553 | 18.07616 | 33° | 11km/h | 26507m | 8.3m/s | 0°C | 0% | 0hPa | 0V | 00:00:00 | 00:00:00 | 00:00:00 | |
| PG1ADW-2 | 2026-09-04 12:36:37 | 50.78548 | 18.07608 | 86° | 13km/h | 26496m | 6.5m/s | 0°C | 0% | 0hPa | 0V | 00:00:00 | 00:00:00 | 00:00:00 | |
| SQ6EMJ | 2026-09-04 12:36:36 | 50.78548 | 18.07604 | 122° | 7km/h | 26489m | 7.0m/s | 0°C | 0% | 0hPa | 0V | 00:00:00 | 00:00:00 | 00:00:00 | |
| OE5DRO-10 | 2026-09-04 12:36:35 | 50.78550 | 18.07602 | 148° | 13km/h | 26483m | 4.3m/s | 0°C | 0% | 0hPa | 0V | 00:00:00 | 00:00:00 | 00:00:00 | |
| PETON7-10 | 2026-09-04 12:36:30 | 50.78554 | 18.07581 | 133° | 16km/h | 26452m | 7.0m/s | 0°C | 0% | 0hPa | 0V | 00:00:00 | 00:00:00 | 00:00:00 | |
| OE5MMP-10 | 2026-09-04 12:36:29 | 50.78556 | 18.07579 | 173° | 13km/h | 26446m | 3.9m/s | 0°C | 0% | 0hPa | 0V | 00:00:00 | 00:00:00 | 00:00:00 | |
| SQ6EMJ | 2026-09-04 12:36:28 | 50.78558 | 18.07579 | 242° | 5km/h | 26442m | 4.8m/s | 0°C | 0% | 0hPa | 0V | 00:00:00 | 00:00:00 | 00:00:00 | |
| SQ6EMJ | 2026-09-04 12:36:20 | 50.78569 | 18.07582 | 66° | 9km/h | 26393m | 5.3m/s | 0°C | 0% | 0hPa | 0V | 00:00:00 | 00:00:00 | 00:00:00 | |
| OE5MMP-10 | 2026-09-04 12:36:19 | 50.78569 | 18.07582 | 66° | 11km/h | 26393m | 5.3m/s | 0°C | 0% | 0hPa | 0V | 00:00:00 | 00:00:00 | 00:00:00 | |
| OE5DRO-10 | 2026-09-04 12:36:16 | 50.78568 | 18.07585 | 254° | 13km/h | 26375m | 7.8m/s | 0°C | 0% | 0hPa | 0V | 00:00:00 | 00:00:00 | 00:00:00 | |
| PG1ADW-2 | 2026-09-04 12:36:14 | 50.78571 | 18.07595 | 250° | 9km/h | 26364m | 7.4m/s | 0°C | 0% | 0hPa | 0V | 00:00:00 | 00:00:00 | 00:00:00 | |
| SQ6EMJ | 2026-09-04 12:36:12 | 50.78577 | 18.07603 | 175° | 11km/h | 26344m | 6.9m/s | 0°C | 0% | 0hPa | 0V | 00:00:00 | 00:00:00 | 00:00:00 | |
| OE5MMP-10 | 2026-09-04 12:36:09 | 50.78585 | 18.07598 | 153° | 15km/h | 26331m | 4.5m/s | 0°C | 0% | 0hPa | 0V | 00:00:00 | 00:00:00 | 00:00:00 | |
| PETON7-10 | 2026-09-04 12:36:01 | 50.78599 | 18.07608 | 244° | 11km/h | 26284m | 7.9m/s | 0°C | 0% | 0hPa | 0V | 00:00:00 | 00:00:00 | 00:00:00 | |
| SQ6EMJ | 2026-09-04 12:36:00 | 50.78599 | 18.07608 | 91° | 5km/h | 26276m | 5.2m/s | 0°C | 0% | 0hPa | 0V | 00:00:00 | 00:00:00 | 00:00:00 | |
| OE5DRO-10 | 2026-09-04 12:35:58 | 50.78608 | 18.07594 | 147° | 15km/h | 26259m | 5.4m/s | 0°C | 0% | 0hPa | 0V | 00:00:00 | 00:00:00 | 00:00:00 | |
| PG1ADW-2 | 2026-09-04 12:35:49 | 50.78623 | 18.07617 | 142° | 18km/h | 26213m | 8.2m/s | 0°C | 0% | 0hPa | 0V | 00:00:00 | 00:00:00 | 00:00:00 | |
| PETON7-10 | 2026-09-04 12:35:43 | 50.78638 | 18.07584 | 224° | 11km/h | 26174m | 7.2m/s | 0°C | 0% | 0hPa | 0V | 00:00:00 | 00:00:00 | 00:00:00 | |
| OE5MMP-10 | 2026-09-04 12:35:41 | 50.78638 | 18.07588 | 28° | 11km/h | 26160m | 2.0m/s | 0°C | 0% | 0hPa | 0V | 00:00:00 | 00:00:00 | 00:00:00 | |
| SQ6EMJ | 2026-09-04 12:35:38 | 50.78645 | 18.07582 | 150° | 24km/h | 26144m | 3.1m/s | 0°C | 0% | 0hPa | 0V | 00:00:00 | 00:00:00 | 00:00:00 | |
| OE5MMP-10 | 2026-09-04 12:35:31 | 50.78647 | 18.07556 | 126° | 16km/h | 26102m | 4.3m/s | 0°C | 0% | 0hPa | 0V | 00:00:00 | 00:00:00 | 00:00:00 | |
| PETON7-10 | 2026-09-04 12:35:26 | 50.78651 | 18.07528 | 119° | 13km/h | 26072m | 6.3m/s | 0°C | 0% | 0hPa | 0V | 00:00:00 | 00:00:00 | 00:00:00 | |
| SQ6EMJ | 2026-09-04 12:35:25 | 50.78654 | 18.07520 | 116° | 22km/h | 26067m | 4.9m/s | 0°C | 0% | 0hPa | 0V | 00:00:00 | 00:00:00 | 00:00:00 | |
| PG1ADW-2 | 2026-09-04 12:35:24 | 50.78656 | 18.07512 | 102° | 16km/h | 26061m | 5.6m/s | 0°C | 0% | 0hPa | 0V | 00:00:00 | 00:00:00 | 00:00:00 | |
| OE5DRO-10 | 2026-09-04 12:35:20 | 50.78661 | 18.07475 | 50° | 18km/h | 26017m | 5.7m/s | 0°C | 0% | 0hPa | 0V | 00:00:00 | 00:00:00 | 00:00:00 | |
| SQ6EMJ | 2026-09-04 12:35:11 | 50.78660 | 18.07439 | 85° | 27km/h | 25987m | 7.7m/s | 0°C | 0% | 0hPa | 0V | 00:00:00 | 00:00:00 | 00:00:00 | |
| PETON7-10 | 2026-09-04 12:35:10 | 50.78658 | 18.07429 | 69° | 22km/h | 25980m | 7.2m/s | 0°C | 0% | 0hPa | 0V | 00:00:00 | 00:00:00 | 00:00:00 | |
| PG1ADW-2 | 2026-09-04 12:34:58 | 50.78645 | 18.07342 | 75° | 16km/h | 25908m | 7.4m/s | 0°C | 0% | 0hPa | 0V | 00:00:00 | 00:00:00 | 00:00:00 | |
| SQ6EMJ | 2026-09-04 12:34:57 | 50.78643 | 18.07335 | 58° | 15km/h | 25902m | 6.1m/s | 0°C | 0% | 0hPa | 0V | 00:00:00 | 00:00:00 | 00:00:00 | |
| OE5MMP-10 | 2026-09-04 12:34:54 | 50.78640 | 18.07325 | 110° | 18km/h | 25882m | 5.4m/s | 0°C | 0% | 0hPa | 0V | 00:00:00 | 00:00:00 | 00:00:00 | |
| PETON7-10 | 2026-09-04 12:34:53 | 50.78641 | 18.07322 | 99° | 15km/h | 25876m | 5.9m/s | 0°C | 0% | 0hPa | 0V | 00:00:00 | 00:00:00 | 00:00:00 | |
| SQ6EMJ | 2026-09-04 12:34:52 | 50.78640 | 18.07319 | 43° | 11km/h | 25870m | 7.3m/s | 0°C | 0% | 0hPa | 0V | 00:00:00 | 00:00:00 | 00:00:00 | |
| SQ6EMJ | 2026-09-04 12:34:45 | 50.78627 | 18.07263 | 29° | 16km/h | 25830m | 7.4m/s | 0°C | 0% | 0hPa | 0V | 00:00:00 | 00:00:00 | 00:00:00 | |
| OE5MMP-10 | 2026-09-04 12:34:44 | 50.78623 | 18.07262 | 360° | 20km/h | 25823m | 5.5m/s | 0°C | 0% | 0hPa | 0V | 00:00:00 | 00:00:00 | 00:00:00 | |
| SP3BTT-10 | 2026-09-04 12:34:41 | 50.78615 | 18.07258 | 78° | 18km/h | 25809m | 3.8m/s | 0°C | 0% | 0hPa | 0V | 00:00:00 | 00:00:00 | 00:00:00 | |
| SQ6EMJ | 2026-09-04 12:34:39 | 50.78612 | 18.07244 | 58° | 26km/h | 25798m | 7.0m/s | 0°C | 0% | 0hPa | 0V | 00:00:00 | 00:00:00 | 00:00:00 | |
| OE5MMP-10 | 2026-09-04 12:34:34 | 50.78592 | 18.07200 | 27° | 18km/h | 25765m | 5.0m/s | 0°C | 0% | 0hPa | 0V | 00:00:00 | 00:00:00 | 00:00:00 | |
| SQ6EMJ | 2026-09-04 12:34:33 | 50.78587 | 18.07198 | 8° | 18km/h | 25757m | 6.7m/s | 0°C | 0% | 0hPa | 0V | 00:00:00 | 00:00:00 | 00:00:00 | |
| OE5DRO-10 | 2026-09-04 12:34:23 | 50.78529 | 18.07178 | 348° | 15km/h | 25672m | 3.9m/s | 0°C | 0% | 0hPa | 0V | 00:00:00 | 00:00:00 | 00:00:00 | |
| SQ6EMJ | 2026-09-04 12:34:01 | 50.78486 | 18.07182 | 285° | 15km/h | 25564m | 7.7m/s | 0°C | 0% | 0hPa | 0V | 00:00:00 | 00:00:00 | 00:00:00 | |
| OE5DRO-10 | 2026-09-04 12:33:53 | 50.78475 | 18.07216 | 276° | 20km/h | 25496m | 4.6m/s | 0°C | 0% | 0hPa | 0V | 00:00:00 | 00:00:00 | 00:00:00 | |
| SQ6EMJ | 2026-09-04 12:33:49 | 50.78475 | 18.07219 | 265° | 11km/h | 25492m | 3.9m/s | 0°C | 0% | 0hPa | 0V | 00:00:00 | 00:00:00 | 00:00:00 | |
| PETON7-10 | 2026-09-04 12:33:43 | 50.78487 | 18.07256 | 194° | 18km/h | 25457m | 5.3m/s | 0°C | 0% | 0hPa | 0V | 00:00:00 | 00:00:00 | 00:00:00 | |
| SQ6EMJ | 2026-09-04 12:33:36 | 50.78501 | 18.07282 | 234° | 35km/h | 25413m | 7.3m/s | 0°C | 0% | 0hPa | 0V | 00:00:00 | 00:00:00 | 00:00:00 | |
| OE5DRO-10 | 2026-09-04 12:33:30 | 50.78533 | 18.07332 | 253° | 20km/h | 25365m | 5.6m/s | 0°C | 0% | 0hPa | 0V | 00:00:00 | 00:00:00 | 00:00:00 | |
| PETON7-10 | 2026-09-04 12:33:27 | 50.78533 | 18.07332 | 253° | 22km/h | 25365m | 5.6m/s | 0°C | 0% | 0hPa | 0V | 00:00:00 | 00:00:00 | 00:00:00 | |
| SP3BTT-10 | 2026-09-04 12:33:25 | 50.78542 | 18.07351 | 219° | 27km/h | 25351m | 9.3m/s | 0°C | 0% | 0hPa | 0V | 00:00:00 | 00:00:00 | 00:00:00 | |
| SQ6EMJ | 2026-09-04 12:33:17 | 50.78584 | 18.07361 | 185° | 11km/h | 25299m | 5.1m/s | 0°C | 0% | 0hPa | 0V | 00:00:00 | 00:00:00 | 00:00:00 | |
| S52SK | 2026-09-04 12:33:16 | 50.78586 | 18.07364 | 230° | 18km/h | 25292m | 8.6m/s | 0°C | 0% | 0hPa | 0V | 00:00:00 | 00:00:00 | 00:00:00 | |
| OE5DRO-10 | 2026-09-04 12:33:06 | 50.78648 | 18.07386 | 207° | 33km/h | 25220m | 8.0m/s | 0°C | 0% | 0hPa | 0V | 00:00:00 | 00:00:00 | 00:00:00 | |
| SQ6EMJ | 2026-09-04 12:33:03 | 50.78652 | 18.07389 | 217° | 16km/h | 25214m | 4.5m/s | 0°C | 0% | 0hPa | 0V | 00:00:00 | 00:00:00 | 00:00:00 | |
| SQ6EMJ | 2026-09-04 12:32:58 | 50.78680 | 18.07372 | 142° | 26km/h | 25182m | 7.2m/s | 0°C | 0% | 0hPa | 0V | 00:00:00 | 00:00:00 | 00:00:00 | |
| S52SK | 2026-09-04 12:32:52 | 50.78719 | 18.07365 | 185° | 24km/h | 25147m | 4.7m/s | 0°C | 0% | 0hPa | 0V | 00:00:00 | 00:00:00 | 00:00:00 | |
| OE5DRO-10 | 2026-09-04 12:32:45 | 50.78764 | 18.07312 | 179° | 16km/h | 25095m | 8.3m/s | 0°C | 0% | 0hPa | 0V | 00:00:00 | 00:00:00 | 00:00:00 | |
| SP3BTT-10 | 2026-09-04 12:32:40 | 50.78774 | 18.07318 | 153° | 18km/h | 25075m | 5.9m/s | 0°C | 0% | 0hPa | 0V | 00:00:00 | 00:00:00 | 00:00:00 | |
| PG1ADW-2 | 2026-09-04 12:32:39 | 50.78775 | 18.07315 | 119° | 18km/h | 25069m | 6.6m/s | 0°C | 0% | 0hPa | 0V | 00:00:00 | 00:00:00 | 00:00:00 | |
| PETON7-10 | 2026-09-04 12:32:38 | 50.78778 | 18.07308 | 114° | 22km/h | 25063m | 6.7m/s | 0°C | 0% | 0hPa | 0V | 00:00:00 | 00:00:00 | 00:00:00 | |
| SQ6EMJ | 2026-09-04 12:32:33 | 50.78794 | 18.07266 | 141° | 16km/h | 25033m | 4.9m/s | 0°C | 0% | 0hPa | 0V | 00:00:00 | 00:00:00 | 00:00:00 | |
| PETON7-10 | 2026-09-04 12:32:21 | 50.78806 | 18.07187 | 185° | 18km/h | 24956m | 5.8m/s | 0°C | 0% | 0hPa | 0V | 00:00:00 | 00:00:00 | 00:00:00 | |
| PG1ADW-2 | 2026-09-04 12:32:14 | 50.78806 | 18.07140 | 52° | 15km/h | 24914m | 5.0m/s | 0°C | 0% | 0hPa | 0V | 00:00:00 | 00:00:00 | 00:00:00 | |
| SQ6EMJ | 2026-09-04 12:32:06 | 50.78794 | 18.07098 | 72° | 16km/h | 24866m | 7.4m/s | 0°C | 0% | 0hPa | 0V | 00:00:00 | 00:00:00 | 00:00:00 | |
| PETON7-10 | 2026-09-04 12:32:03 | 50.78793 | 18.07081 | 66° | 13km/h | 24853m | 5.2m/s | 0°C | 0% | 0hPa | 0V | 00:00:00 | 00:00:00 | 00:00:00 | |
| OE5MMP-10 | 2026-09-04 12:32:02 | 50.78791 | 18.07078 | 25° | 13km/h | 24848m | 6.1m/s | 0°C | 0% | 0hPa | 0V | 00:00:00 | 00:00:00 | 00:00:00 | |
| SP3BTT-10 | 2026-09-04 12:31:57 | 50.78772 | 18.07058 | 14° | 9km/h | 24817m | 7.1m/s | 0°C | 0% | 0hPa | 0V | 00:00:00 | 00:00:00 | 00:00:00 | |
| PG1ADW-2 | 2026-09-04 12:31:52 | 50.78764 | 18.07056 | 71° | 7km/h | 24786m | 4.2m/s | 0°C | 0% | 0hPa | 0V | 00:00:00 | 00:00:00 | 00:00:00 | |
| SQ6EMJ | 2026-09-04 12:31:50 | 50.78761 | 18.07052 | 345° | 13km/h | 24774m | 8.7m/s | 0°C | 0% | 0hPa | 0V | 00:00:00 | 00:00:00 | 00:00:00 | |
| PETON7-10 | 2026-09-04 12:31:45 | 50.78751 | 18.07056 | 134° | 5km/h | 24744m | 7.0m/s | 0°C | 0% | 0hPa | 0V | 00:00:00 | 00:00:00 | 00:00:00 | |
| SQ6EMJ | 2026-09-04 12:31:44 | 50.78752 | 18.07056 | 220° | 5km/h | 24737m | 6.8m/s | 0°C | 0% | 0hPa | 0V | 00:00:00 | 00:00:00 | 00:00:00 | |
| OE5MMP-10 | 2026-09-04 12:31:42 | 50.78755 | 18.07057 | 153° | 9km/h | 24726m | 6.4m/s | 0°C | 0% | 0hPa | 0V | 00:00:00 | 00:00:00 | 00:00:00 | |
| SQ6EMJ | 2026-09-04 12:31:39 | 50.78755 | 18.07047 | 35° | 11km/h | 24708m | 6.6m/s | 0°C | 0% | 0hPa | 0V | 00:00:00 | 00:00:00 | 00:00:00 | |
| OE5MMP-10 | 2026-09-04 12:31:29 | 50.78761 | 18.07035 | 82° | 11km/h | 24653m | 7.2m/s | 0°C | 0% | 0hPa | 0V | 00:00:00 | 00:00:00 | 00:00:00 | |
| SP3BTT-10 | 2026-09-04 12:31:27 | 50.78762 | 18.07030 | 102° | 22km/h | 24639m | 4.8m/s | 0°C | 0% | 0hPa | 0V | 00:00:00 | 00:00:00 | 00:00:00 | |
| OE5DRO-10 | 2026-09-04 12:31:18 | 50.78798 | 18.07025 | 203° | 20km/h | 24585m | 5.4m/s | 0°C | 0% | 0hPa | 0V | 00:00:00 | 00:00:00 | 00:00:00 | |
| OE5MMP-10 | 2026-09-04 12:31:16 | 50.78801 | 18.07026 | 145° | 16km/h | 24572m | 6.3m/s | 0°C | 0% | 0hPa | 0V | 00:00:00 | 00:00:00 | 00:00:00 | |
| SQ6EMJ | 2026-09-04 12:31:10 | 50.78814 | 18.07024 | 156° | 29km/h | 24540m | 6.4m/s | 0°C | 0% | 0hPa | 0V | 00:00:00 | 00:00:00 | 00:00:00 | |
| PETON7-10 | 2026-09-04 12:31:07 | 50.78832 | 18.07017 | 198° | 20km/h | 24524m | 6.5m/s | 0°C | 0% | 0hPa | 0V | 00:00:00 | 00:00:00 | 00:00:00 | |
| OE5DRO-10 | 2026-09-04 12:30:53 | 50.78898 | 18.06991 | 150° | 24km/h | 24442m | 8.6m/s | 0°C | 0% | 0hPa | 0V | 00:00:00 | 00:00:00 | 00:00:00 | |
| PETON7-10 | 2026-09-04 12:30:52 | 50.78898 | 18.06991 | 150° | 26km/h | 24442m | 8.6m/s | 0°C | 0% | 0hPa | 0V | 00:00:00 | 00:00:00 | 00:00:00 | |
| SP3BTT-10 | 2026-09-04 12:30:45 | 50.78942 | 18.06943 | 94° | 20km/h | 24405m | 6.3m/s | 0°C | 0% | 0hPa | 0V | 00:00:00 | 00:00:00 | 00:00:00 | |
| PETON7-10 | 2026-09-04 12:30:35 | 50.78968 | 18.06883 | 107° | 22km/h | 24347m | 4.0m/s | 0°C | 0% | 0hPa | 0V | 00:00:00 | 00:00:00 | 00:00:00 | |
| PG1ADW-2 | 2026-09-04 12:30:28 | 50.78982 | 18.06812 | 110° | 24km/h | 24296m | 5.0m/s | 0°C | 0% | 0hPa | 0V | 00:00:00 | 00:00:00 | 00:00:00 | |
| OE5DRO-10 | 2026-09-04 12:30:25 | 50.78986 | 18.06795 | 105° | 26km/h | 24283m | 8.9m/s | 0°C | 0% | 0hPa | 0V | 00:00:00 | 00:00:00 | 00:00:00 | |
| OE5MMP-10 | 2026-09-04 12:30:22 | 50.78987 | 18.06776 | 99° | 24km/h | 24266m | 8.1m/s | 0°C | 0% | 0hPa | 0V | 00:00:00 | 00:00:00 | 00:00:00 | |
| PETON7-10 | 2026-09-04 12:30:20 | 50.78991 | 18.06751 | 114° | 37km/h | 24255m | 4.0m/s | 0°C | 0% | 0hPa | 0V | 00:00:00 | 00:00:00 | 00:00:00 | |
| SQ6EMJ | 2026-09-04 12:30:17 | 50.79008 | 18.06710 | 117° | 24km/h | 24231m | 6.9m/s | 0°C | 0% | 0hPa | 0V | 00:00:00 | 00:00:00 | 00:00:00 | |
| SQ6EMJ | 2026-09-04 12:30:11 | 50.79015 | 18.06676 | 106° | 27km/h | 24205m | 6.2m/s | 0°C | 0% | 0hPa | 0V | 00:00:00 | 00:00:00 | 00:00:00 | |
| OE5DRO-10 | 2026-09-04 12:30:04 | 50.79026 | 18.06608 | 28° | 26km/h | 24167m | 6.9m/s | 0°C | 0% | 0hPa | 0V | 00:00:00 | 00:00:00 | 00:00:00 | |
| PETON7-10 | 2026-09-04 12:30:00 | 50.79015 | 18.06567 | 104° | 18km/h | 24144m | 6.2m/s | 0°C | 0% | 0hPa | 0V | 00:00:00 | 00:00:00 | 00:00:00 | |
| SQ6EMJ | 2026-09-04 12:29:55 | 50.79022 | 18.06517 | 72° | 26km/h | 24119m | 6.4m/s | 0°C | 0% | 0hPa | 0V | 00:00:00 | 00:00:00 | 00:00:00 | |
| SQ6EMJ | 2026-09-04 12:29:46 | 50.78996 | 18.06447 | 95° | 22km/h | 24062m | 4.9m/s | 0°C | 0% | 0hPa | 0V | 00:00:00 | 00:00:00 | 00:00:00 | |
| SQ6EMJ | 2026-09-04 12:29:34 | 50.78986 | 18.06354 | 124° | 16km/h | 23993m | 4.7m/s | 0°C | 0% | 0hPa | 0V | 00:00:00 | 00:00:00 | 00:00:00 | |
| OE5DRO-10 | 2026-09-04 12:29:26 | 50.78992 | 18.06312 | 96° | 15km/h | 23949m | 4.2m/s | 0°C | 0% | 0hPa | 0V | 00:00:00 | 00:00:00 | 00:00:00 | |
| SP3BTT-10 | 2026-09-04 12:29:25 | 50.78993 | 18.06304 | 97° | 16km/h | 23944m | 5.4m/s | 0°C | 0% | 0hPa | 0V | 00:00:00 | 00:00:00 | 00:00:00 | |
| PETON7-10 | 2026-09-04 12:29:21 | 50.78998 | 18.06285 | 102° | 18km/h | 23922m | 8.0m/s | 0°C | 0% | 0hPa | 0V | 00:00:00 | 00:00:00 | 00:00:00 | |
| OE5DRO-10 | 2026-09-04 12:29:07 | 50.78998 | 18.06207 | 62° | 16km/h | 23842m | 5.8m/s | 0°C | 0% | 0hPa | 0V | 00:00:00 | 00:00:00 | 00:00:00 | |
| SQ6EMJ | 2026-09-04 12:29:04 | 50.78992 | 18.06183 | 70° | 24km/h | 23827m | 6.3m/s | 0°C | 0% | 0hPa | 0V | 00:00:00 | 00:00:00 | 00:00:00 | |
| PETON7-10 | 2026-09-04 12:29:02 | 50.78987 | 18.06165 | 74° | 13km/h | 23814m | 3.3m/s | 0°C | 0% | 0hPa | 0V | 00:00:00 | 00:00:00 | 00:00:00 | |
| SQ6EMJ | 2026-09-04 12:28:57 | 50.78987 | 18.06148 | 44° | 15km/h | 23786m | 5.7m/s | 0°C | 0% | 0hPa | 0V | 00:00:00 | 00:00:00 | 00:00:00 | |
| SQ6EMJ | 2026-09-04 12:28:51 | 50.78967 | 18.06100 | 35° | 20km/h | 23753m | 5.2m/s | 0°C | 0% | 0hPa | 0V | 00:00:00 | 00:00:00 | 00:00:00 | |
| OE5DRO-10 | 2026-09-04 12:28:47 | 50.78963 | 18.06092 | 62° | 20km/h | 23729m | 5.8m/s | 0°C | 0% | 0hPa | 0V | 00:00:00 | 00:00:00 | 00:00:00 | |
| SQ6EMJ | 2026-09-04 12:28:45 | 50.78957 | 18.06084 | 38° | 26km/h | 23717m | 5.2m/s | 0°C | 0% | 0hPa | 0V | 00:00:00 | 00:00:00 | 00:00:00 | |
| SP3BTT-10 | 2026-09-04 12:28:39 | 50.78931 | 18.06042 | 26° | 11km/h | 23685m | 4.2m/s | 0°C | 0% | 0hPa | 0V | 00:00:00 | 00:00:00 | 00:00:00 | |
| SQ6EMJ | 2026-09-04 12:28:35 | 50.78920 | 18.06028 | 27° | 16km/h | 23662m | 5.7m/s | 0°C | 0% | 0hPa | 0V | 00:00:00 | 00:00:00 | 00:00:00 | |
| PETON7-10 | 2026-09-04 12:28:33 | 50.78909 | 18.06024 | 7° | 13km/h | 23650m | 5.2m/s | 0°C | 0% | 0hPa | 0V | 00:00:00 | 00:00:00 | 00:00:00 | |
| SQ6EMJ | 2026-09-04 12:28:27 | 50.78884 | 18.06003 | 24° | 16km/h | 23619m | 5.3m/s | 0°C | 0% | 0hPa | 0V | 00:00:00 | 00:00:00 | 00:00:00 | |
| SQ6EMJ | 2026-09-04 12:28:16 | 50.78858 | 18.05995 | 20° | 11km/h | 23561m | 6.7m/s | 0°C | 0% | 0hPa | 0V | 00:00:00 | 00:00:00 | 00:00:00 | |
| OE5DRO-10 | 2026-09-04 12:28:08 | 50.78849 | 18.05978 | 132° | 9km/h | 23516m | 6.3m/s | 0°C | 0% | 0hPa | 0V | 00:00:00 | 00:00:00 | 00:00:00 | |
| SQ6EMJ | 2026-09-04 12:28:04 | 50.78852 | 18.05967 | 50° | 13km/h | 23495m | 6.9m/s | 0°C | 0% | 0hPa | 0V | 00:00:00 | 00:00:00 | 00:00:00 | |
| SP3BTT-10 | 2026-09-04 12:27:52 | 50.78846 | 18.05928 | 95° | 9km/h | 23432m | 5.0m/s | 0°C | 0% | 0hPa | 0V | 00:00:00 | 00:00:00 | 00:00:00 | |
| PETON7-10 | 2026-09-04 12:27:49 | 50.78841 | 18.05924 | 48° | 5km/h | 23416m | 4.8m/s | 0°C | 0% | 0hPa | 0V | 00:00:00 | 00:00:00 | 00:00:00 | |
| PETON7-10 | 2026-09-04 12:27:30 | 50.78841 | 18.05867 | 129° | 9km/h | 23307m | 4.4m/s | 0°C | 0% | 0hPa | 0V | 00:00:00 | 00:00:00 | 00:00:00 | |
| OE5DRO-10 | 2026-09-04 12:27:27 | 50.78837 | 18.05867 | 25° | 13km/h | 23291m | 3.9m/s | 0°C | 0% | 0hPa | 0V | 00:00:00 | 00:00:00 | 00:00:00 | |
| SP3BTT-10 | 2026-09-04 12:27:22 | 50.78828 | 18.05839 | 31° | 11km/h | 23265m | 5.8m/s | 0°C | 0% | 0hPa | 0V | 00:00:00 | 00:00:00 | 00:00:00 | |
| PETON7-10 | 2026-09-04 12:27:15 | 50.78821 | 18.05849 | 37° | 11km/h | 23225m | 4.2m/s | 0°C | 0% | 0hPa | 0V | 00:00:00 | 00:00:00 | 00:00:00 | |
| SQ6EMJ | 2026-09-04 12:27:12 | 50.78815 | 18.05834 | 56° | 15km/h | 23208m | 4.3m/s | 0°C | 0% | 0hPa | 0V | 00:00:00 | 00:00:00 | 00:00:00 | |
| SQ6EMJ | 2026-09-04 12:27:02 | 50.78799 | 18.05852 | 107° | 9km/h | 23153m | 6.6m/s | 0°C | 0% | 0hPa | 0V | 00:00:00 | 00:00:00 | 00:00:00 | |
| OE5DRO-10 | 2026-09-04 12:27:01 | 50.78800 | 18.05848 | 117° | 13km/h | 23148m | 4.0m/s | 0°C | 0% | 0hPa | 0V | 00:00:00 | 00:00:00 | 00:00:00 | |
| SQ6EMJ | 2026-09-04 12:26:57 | 50.78799 | 18.05843 | 83° | 4km/h | 23125m | 6.7m/s | 0°C | 0% | 0hPa | 0V | 00:00:00 | 00:00:00 | 00:00:00 | |
| SQ6EMJ | 2026-09-04 12:26:51 | 50.78803 | 18.05834 | 139° | 16km/h | 23093m | 6.8m/s | 0°C | 0% | 0hPa | 0V | 00:00:00 | 00:00:00 | 00:00:00 | |
| SQ6EMJ | 2026-09-04 12:26:43 | 50.78814 | 18.05810 | 108° | 11km/h | 23051m | 7.3m/s | 0°C | 0% | 0hPa | 0V | 00:00:00 | 00:00:00 | 00:00:00 | |
| SQ6EMJ | 2026-09-04 12:26:37 | 50.78824 | 18.05773 | 89° | 15km/h | 23017m | 5.7m/s | 0°C | 0% | 0hPa | 0V | 00:00:00 | 00:00:00 | 00:00:00 | |
| SQ6EMJ | 2026-09-04 12:26:28 | 50.78830 | 18.05720 | 99° | 16km/h | 22966m | 3.3m/s | 0°C | 0% | 0hPa | 0V | 00:00:00 | 00:00:00 | 00:00:00 | |
| SP3BTT-10 | 2026-09-04 12:26:22 | 50.78831 | 18.05701 | 122° | 20km/h | 22933m | 3.6m/s | 0°C | 0% | 0hPa | 0V | 00:00:00 | 00:00:00 | 00:00:00 | |
| SQ6EMJ | 2026-09-04 12:26:19 | 50.78829 | 18.05693 | 48° | 11km/h | 22917m | 4.9m/s | 0°C | 0% | 0hPa | 0V | 00:00:00 | 00:00:00 | 00:00:00 | |
| SQ6EMJ | 2026-09-04 12:26:13 | 50.78829 | 18.05679 | 285° | 4km/h | 22883m | 4.4m/s | 0°C | 0% | 0hPa | 0V | 00:00:00 | 00:00:00 | 00:00:00 | |
| POL1PZ | 2026-09-04 12:26:06 | 50.78833 | 18.05693 | 168° | 5km/h | 22844m | 6.0m/s | 0°C | 0% | 0hPa | 0V | 00:00:00 | 00:00:00 | 00:00:00 | |
| SQ6EMJ | 2026-09-04 12:25:57 | 50.78848 | 18.05697 | 252° | 7km/h | 22795m | 5.2m/s | 0°C | 0% | 0hPa | 0V | 00:00:00 | 00:00:00 | 00:00:00 | |
| SQ6EMJ | 2026-09-04 12:25:51 | 50.78860 | 18.05688 | 150° | 5km/h | 22762m | 5.4m/s | 0°C | 0% | 0hPa | 0V | 00:00:00 | 00:00:00 | 00:00:00 | |
| SQ6EMJ | 2026-09-04 12:25:45 | 50.78874 | 18.05675 | 155° | 9km/h | 22731m | 4.1m/s | 0°C | 0% | 0hPa | 0V | 00:00:00 | 00:00:00 | 00:00:00 | |
| SQ6EMJ | 2026-09-04 12:25:39 | 50.78893 | 18.05640 | 135° | 13km/h | 22697m | 5.1m/s | 0°C | 0% | 0hPa | 0V | 00:00:00 | 00:00:00 | 00:00:00 | |
| SQ6EMJ | 2026-09-04 12:25:33 | 50.78916 | 18.05615 | 138° | 20km/h | 22664m | 4.1m/s | 0°C | 0% | 0hPa | 0V | 00:00:00 | 00:00:00 | 00:00:00 | |
| SQ6EMJ | 2026-09-04 12:25:28 | 50.78939 | 18.05573 | 126° | 20km/h | 22635m | 5.5m/s | 0°C | 0% | 0hPa | 0V | 00:00:00 | 00:00:00 | 00:00:00 | |
| POL1PZ | 2026-09-04 12:25:23 | 50.78955 | 18.05539 | 127° | 16km/h | 22606m | 6.1m/s | 0°C | 0% | 0hPa | 0V | 00:00:00 | 00:00:00 | 00:00:00 | |
| SQ6EMJ | 2026-09-04 12:25:22 | 50.78958 | 18.05533 | 128° | 20km/h | 22601m | 4.2m/s | 0°C | 0% | 0hPa | 0V | 00:00:00 | 00:00:00 | 00:00:00 | |
| SP3BTT-10 | 2026-09-04 12:25:21 | 50.78962 | 18.05525 | 119° | 22km/h | 22595m | 6.7m/s | 0°C | 0% | 0hPa | 0V | 00:00:00 | 00:00:00 | 00:00:00 | |
| SQ6EMJ | 2026-09-04 12:25:17 | 50.78975 | 18.05473 | 113° | 27km/h | 22573m | 6.1m/s | 0°C | 0% | 0hPa | 0V | 00:00:00 | 00:00:00 | 00:00:00 | |
| SQ6EMJ | 2026-09-04 12:25:11 | 50.79002 | 18.05418 | 130° | 35km/h | 22540m | 7.0m/s | 0°C | 0% | 0hPa | 0V | 00:00:00 | 00:00:00 | 00:00:00 | |
| SQ6EMJ | 2026-09-04 12:25:06 | 50.79012 | 18.05354 | 93° | 29km/h | 22511m | 6.6m/s | 0°C | 0% | 0hPa | 0V | 00:00:00 | 00:00:00 | 00:00:00 | |
| OE5DRO-10 | 2026-09-04 12:25:01 | 50.79022 | 18.05306 | 102° | 29km/h | 22484m | 4.4m/s | 0°C | 0% | 0hPa | 0V | 00:00:00 | 00:00:00 | 00:00:00 | |
| POL1PZ | 2026-09-04 12:24:59 | 50.79022 | 18.05273 | 83° | 37km/h | 22474m | 5.2m/s | 0°C | 0% | 0hPa | 0V | 00:00:00 | 00:00:00 | 00:00:00 | |
| SQ6EMJ | 2026-09-04 12:24:52 | 50.79023 | 18.05207 | 90° | 29km/h | 22437m | 6.0m/s | 0°C | 0% | 0hPa | 0V | 00:00:00 | 00:00:00 | 00:00:00 | |
| SQ6EMJ | 2026-09-04 12:24:46 | 50.79022 | 18.05152 | 62° | 18km/h | 22404m | 5.8m/s | 0°C | 0% | 0hPa | 0V | 00:00:00 | 00:00:00 | 00:00:00 | |
| OE5DRO-10 | 2026-09-04 12:24:42 | 50.79015 | 18.05114 | 85° | 24km/h | 22383m | 3.8m/s | 0°C | 0% | 0hPa | 0V | 00:00:00 | 00:00:00 | 00:00:00 | |
| SQ6EMJ | 2026-09-04 12:24:40 | 50.79011 | 18.05090 | 72° | 27km/h | 22372m | 5.4m/s | 0°C | 0% | 0hPa | 0V | 00:00:00 | 00:00:00 | 00:00:00 | |
| POL1PZ | 2026-09-04 12:24:36 | 50.79009 | 18.05062 | 62° | 18km/h | 22344m | 7.4m/s | 0°C | 0% | 0hPa | 0V | 00:00:00 | 00:00:00 | 00:00:00 | |
| SQ6EMJ | 2026-09-04 12:24:28 | 50.78993 | 18.05003 | 28° | 13km/h | 22306m | 6.7m/s | 0°C | 0% | 0hPa | 0V | 00:00:00 | 00:00:00 | 00:00:00 | |
| SQ6EMJ | 2026-09-04 12:24:23 | 50.78988 | 18.04975 | 82° | 18km/h | 22279m | 5.8m/s | 0°C | 0% | 0hPa | 0V | 00:00:00 | 00:00:00 | 00:00:00 | |
| SP3BTT-10 | 2026-09-04 12:24:21 | 50.78983 | 18.04965 | 32° | 9km/h | 22268m | 4.7m/s | 0°C | 0% | 0hPa | 0V | 00:00:00 | 00:00:00 | 00:00:00 | |
| SQ6EMJ | 2026-09-04 12:24:17 | 50.78978 | 18.04947 | 77° | 13km/h | 22246m | 5.3m/s | 0°C | 0% | 0hPa | 0V | 00:00:00 | 00:00:00 | 00:00:00 | |
| POL1PZ | 2026-09-04 12:24:13 | 50.78971 | 18.04930 | 86° | 9km/h | 22223m | 5.9m/s | 0°C | 0% | 0hPa | 0V | 00:00:00 | 00:00:00 | 00:00:00 | |
| SQ6EMJ | 2026-09-04 12:24:11 | 50.78971 | 18.04925 | 48° | 7km/h | 22212m | 6.6m/s | 0°C | 0% | 0hPa | 0V | 00:00:00 | 00:00:00 | 00:00:00 | |
| SQ6EMJ | 2026-09-04 12:24:06 | 50.78967 | 18.04917 | 50° | 5km/h | 22187m | 6.6m/s | 0°C | 0% | 0hPa | 0V | 00:00:00 | 00:00:00 | 00:00:00 | |
| OE5DRO-10 | 2026-09-04 12:24:02 | 50.78957 | 18.04909 | 66° | 7km/h | 22165m | 5.2m/s | 0°C | 0% | 0hPa | 0V | 00:00:00 | 00:00:00 | 00:00:00 | |
| SQ6EMJ | 2026-09-04 12:24:00 | 50.78953 | 18.04906 | 8° | 9km/h | 22155m | 7.6m/s | 0°C | 0% | 0hPa | 0V | 00:00:00 | 00:00:00 | 00:00:00 | |
| SQ6EMJ | 2026-09-04 12:23:55 | 50.78952 | 18.04914 | 275° | 7km/h | 22125m | 7.0m/s | 0°C | 0% | 0hPa | 0V | 00:00:00 | 00:00:00 | 00:00:00 | |
| POL1PZ | 2026-09-04 12:23:52 | 50.78950 | 18.04921 | 0° | 0km/h | 22108m | 6.7m/s | 0°C | 0% | 0hPa | 0V | 00:00:00 | 00:00:00 | 00:00:00 | |
| SQ6EMJ | 2026-09-04 12:23:49 | 50.78951 | 18.04919 | 322° | 2km/h | 22091m | 6.2m/s | 0°C | 0% | 0hPa | 0V | 00:00:00 | 00:00:00 | 00:00:00 | |
| OE5DRO-10 | 2026-09-04 12:23:42 | 50.78958 | 18.04925 | 228° | 7km/h | 22052m | 5.6m/s | 0°C | 0% | 0hPa | 0V | 00:00:00 | 00:00:00 | 00:00:00 | |
| SQ6EMJ | 2026-09-04 12:23:41 | 50.78959 | 18.04927 | 217° | 5km/h | 22046m | 5.8m/s | 0°C | 0% | 0hPa | 0V | 00:00:00 | 00:00:00 | 00:00:00 | |
| SQ6EMJ | 2026-09-04 12:23:36 | 50.78964 | 18.04932 | 121° | 4km/h | 22024m | 4.4m/s | 0°C | 0% | 0hPa | 0V | 00:00:00 | 00:00:00 | 00:00:00 | |
| SP3BTT-10 | 2026-09-04 12:23:35 | 50.78965 | 18.04930 | 128° | 13km/h | 22018m | 7.2m/s | 0°C | 0% | 0hPa | 0V | 00:00:00 | 00:00:00 | 00:00:00 | |
| POL1PZ | 2026-09-04 12:23:32 | 50.78974 | 18.04916 | 116° | 11km/h | 22003m | 6.2m/s | 0°C | 0% | 0hPa | 0V | 00:00:00 | 00:00:00 | 00:00:00 | |
| SQ6EMJ | 2026-09-04 12:23:31 | 50.78974 | 18.04913 | 84° | 7km/h | 21997m | 5.2m/s | 0°C | 0% | 0hPa | 0V | 00:00:00 | 00:00:00 | 00:00:00 | |
| SQ6EMJ | 2026-09-04 12:23:27 | 50.78977 | 18.04898 | 147° | 11km/h | 21971m | 5.4m/s | 0°C | 0% | 0hPa | 0V | 00:00:00 | 00:00:00 | 00:00:00 | |
| OE5DRO-10 | 2026-09-04 12:23:23 | 50.78983 | 18.04897 | 172° | 13km/h | 21954m | 5.3m/s | 0°C | 0% | 0hPa | 0V | 00:00:00 | 00:00:00 | 00:00:00 | |
| SQ6EMJ | 2026-09-04 12:23:20 | 50.78988 | 18.04888 | 87° | 11km/h | 21938m | 7.2m/s | 0°C | 0% | 0hPa | 0V | 00:00:00 | 00:00:00 | 00:00:00 | |
| SQ6EMJ | 2026-09-04 12:23:14 | 50.78990 | 18.04861 | 149° | 4km/h | 21906m | 6.5m/s | 0°C | 0% | 0hPa | 0V | 00:00:00 | 00:00:00 | 00:00:00 | |
| POL1PZ | 2026-09-04 12:23:10 | 50.78996 | 18.04852 | 115° | 13km/h | 21886m | 4.4m/s | 0°C | 0% | 0hPa | 0V | 00:00:00 | 00:00:00 | 00:00:00 | |
| SQ6EMJ | 2026-09-04 12:23:09 | 50.78997 | 18.04847 | 99° | 15km/h | 21879m | 7.5m/s | 0°C | 0% | 0hPa | 0V | 00:00:00 | 00:00:00 | 00:00:00 | |
| SP3BTT-10 | 2026-09-04 12:23:05 | 50.79001 | 18.04823 | 123° | 20km/h | 21861m | 3.5m/s | 0°C | 0% | 0hPa | 0V | 00:00:00 | 00:00:00 | 00:00:00 | |
| OE5DRO-10 | 2026-09-04 12:23:03 | 50.79005 | 18.04814 | 104° | 20km/h | 21850m | 5.8m/s | 0°C | 0% | 0hPa | 0V | 00:00:00 | 00:00:00 | 00:00:00 | |
| SQ6EMJ | 2026-09-04 12:22:57 | 50.79011 | 18.04786 | 79° | 18km/h | 21820m | 4.8m/s | 0°C | 0% | 0hPa | 0V | 00:00:00 | 00:00:00 | 00:00:00 | |
| OM5KV | 2026-09-04 12:22:51 | 50.79025 | 18.04734 | 107° | 20km/h | 21789m | 5.6m/s | 0°C | 0% | 0hPa | 0V | 00:00:00 | 00:00:00 | 00:00:00 | |
| OM5KV | 2026-09-04 12:22:50 | 50.79025 | 18.04727 | 94° | 18km/h | 21784m | 4.5m/s | 0°C | 0% | 0hPa | 0V | 00:00:00 | 00:00:00 | 00:00:00 | |
| OE5DRO-10 | 2026-09-04 12:22:44 | 50.79030 | 18.04677 | 83° | 22km/h | 21751m | 3.8m/s | 0°C | 0% | 0hPa | 0V | 00:00:00 | 00:00:00 | 00:00:00 | |
| OM5KV | 2026-09-04 12:22:43 | 50.79030 | 18.04669 | 86° | 18km/h | 21746m | 6.1m/s | 0°C | 0% | 0hPa | 0V | 00:00:00 | 00:00:00 | 00:00:00 | |
| OM5KV | 2026-09-04 12:22:41 | 50.79031 | 18.04659 | 101° | 11km/h | 21736m | 4.8m/s | 0°C | 0% | 0hPa | 0V | 00:00:00 | 00:00:00 | 00:00:00 | |
| SQ6EMJ | 2026-09-04 12:22:38 | 50.79034 | 18.04636 | 111° | 27km/h | 21721m | 6.9m/s | 0°C | 0% | 0hPa | 0V | 00:00:00 | 00:00:00 | 00:00:00 | |
| OM5KV | 2026-09-04 12:22:37 | 50.79037 | 18.04625 | 117° | 31km/h | 21715m | 5.9m/s | 0°C | 0% | 0hPa | 0V | 00:00:00 | 00:00:00 | 00:00:00 | |
| SP3BTT-10 | 2026-09-04 12:22:35 | 50.79042 | 18.04602 | 95° | 18km/h | 21705m | 6.4m/s | 0°C | 0% | 0hPa | 0V | 00:00:00 | 00:00:00 | 00:00:00 | |
| OM5KV | 2026-09-04 12:22:32 | 50.79036 | 18.04577 | 55° | 16km/h | 21688m | 6.0m/s | 0°C | 0% | 0hPa | 0V | 00:00:00 | 00:00:00 | 00:00:00 | |
| OM5KV | 2026-09-04 12:22:31 | 50.79034 | 18.04573 | 71° | 9km/h | 21682m | 4.8m/s | 0°C | 0% | 0hPa | 0V | 00:00:00 | 00:00:00 | 00:00:00 | |
| OM5KV | 2026-09-04 12:22:30 | 50.79034 | 18.04569 | 111° | 13km/h | 21678m | 3.4m/s | 0°C | 0% | 0hPa | 0V | 00:00:00 | 00:00:00 | 00:00:00 | |
| POL1PZ | 2026-09-04 12:22:29 | 50.79035 | 18.04563 | 95° | 18km/h | 21674m | 5.2m/s | 0°C | 0% | 0hPa | 0V | 00:00:00 | 00:00:00 | 00:00:00 | |
| SQ6EMJ | 2026-09-04 12:22:27 | 50.79034 | 18.04543 | 80° | 31km/h | 21664m | 4.5m/s | 0°C | 0% | 0hPa | 0V | 00:00:00 | 00:00:00 | 00:00:00 | |
| OM5KV | 2026-09-04 12:22:26 | 50.79033 | 18.04532 | 82° | 27km/h | 21660m | 3.9m/s | 0°C | 0% | 0hPa | 0V | 00:00:00 | 00:00:00 | 00:00:00 | |
| SQ6EMJ | 2026-09-04 12:22:21 | 50.79027 | 18.04507 | 46° | 15km/h | 21637m | 5.7m/s | 0°C | 0% | 0hPa | 0V | 00:00:00 | 00:00:00 | 00:00:00 | |
| OM5KV | 2026-09-04 12:22:20 | 50.79025 | 18.04502 | 46° | 18km/h | 21632m | 3.9m/s | 0°C | 0% | 0hPa | 0V | 00:00:00 | 00:00:00 | 00:00:00 | |
| OM5KV | 2026-09-04 12:22:17 | 50.79021 | 18.04486 | 104° | 20km/h | 21616m | 4.6m/s | 0°C | 0% | 0hPa | 0V | 00:00:00 | 00:00:00 | 00:00:00 | |
| OM5KV | 2026-09-04 12:22:15 | 50.79023 | 18.04467 | 93° | 26km/h | 21605m | 4.4m/s | 0°C | 0% | 0hPa | 0V | 00:00:00 | 00:00:00 | 00:00:00 | |
| OM5KV | 2026-09-04 12:22:09 | 50.79011 | 18.04452 | 31° | 15km/h | 21574m | 3.2m/s | 0°C | 0% | 0hPa | 0V | 00:00:00 | 00:00:00 | 00:00:00 | |
| POL1PZ | 2026-09-04 12:22:08 | 50.79009 | 18.04448 | 58° | 13km/h | 21570m | 4.6m/s | 0°C | 0% | 0hPa | 0V | 00:00:00 | 00:00:00 | 00:00:00 | |
| OE5DRO-10 | 2026-09-04 12:22:06 | 50.79010 | 18.04433 | 105° | 11km/h | 21557m | 2.7m/s | 0°C | 0% | 0hPa | 0V | 00:00:00 | 00:00:00 | 00:00:00 | |
| SP3BTT-10 | 2026-09-04 12:22:05 | 50.79010 | 18.04433 | 105° | 16km/h | 21557m | 2.7m/s | 0°C | 0% | 0hPa | 0V | 00:00:00 | 00:00:00 | 00:00:00 | |
| OM5KV | 2026-09-04 12:22:03 | 50.79009 | 18.04418 | 69° | 24km/h | 21546m | 5.9m/s | 0°C | 0% | 0hPa | 0V | 00:00:00 | 00:00:00 | 00:00:00 | |
| SQ6EMJ | 2026-09-04 12:22:01 | 50.79005 | 18.04404 | 52° | 13km/h | 21537m | 6.5m/s | 0°C | 0% | 0hPa | 0V | 00:00:00 | 00:00:00 | 00:00:00 | |
| SQ6EMJ | 2026-09-04 12:21:54 | 50.78991 | 18.04395 | 63° | 15km/h | 21498m | 6.2m/s | 0°C | 0% | 0hPa | 0V | 00:00:00 | 00:00:00 | 00:00:00 | |
| OM5KV | 2026-09-04 12:21:53 | 50.78990 | 18.04390 | 102° | 13km/h | 21491m | 7.2m/s | 0°C | 0% | 0hPa | 0V | 00:00:00 | 00:00:00 | 00:00:00 | |
| OM5KV | 2026-09-04 12:21:52 | 50.78990 | 18.04385 | 96° | 13km/h | 21486m | 3.6m/s | 0°C | 0% | 0hPa | 0V | 00:00:00 | 00:00:00 | 00:00:00 | |
| PETON7-10 | 2026-09-04 12:21:49 | 50.78987 | 18.04373 | 38° | 18km/h | 21470m | 4.6m/s | 0°C | 0% | 0hPa | 0V | 00:00:00 | 00:00:00 | 00:00:00 | |
| POL1PZ | 2026-09-04 12:21:47 | 50.78986 | 18.04375 | 285° | 7km/h | 21460m | 4.1m/s | 0°C | 0% | 0hPa | 0V | 00:00:00 | 00:00:00 | 00:00:00 | |
| OM5KV | 2026-09-04 12:21:44 | 50.78982 | 18.04376 | 81° | 7km/h | 21444m | 4.9m/s | 0°C | 0% | 0hPa | 0V | 00:00:00 | 00:00:00 | 00:00:00 | |
| OE5DRO-10 | 2026-09-04 12:21:43 | 50.78983 | 18.04372 | 115° | 13km/h | 21438m | 5.9m/s | 0°C | 0% | 0hPa | 0V | 00:00:00 | 00:00:00 | 00:00:00 | |
| SQ6EMJ | 2026-09-04 12:21:42 | 50.78985 | 18.04368 | 134° | 15km/h | 21434m | 4.6m/s | 0°C | 0% | 0hPa | 0V | 00:00:00 | 00:00:00 | 00:00:00 | |
| OM5KV | 2026-09-04 12:21:41 | 50.78988 | 18.04363 | 122° | 16km/h | 21430m | 4.0m/s | 0°C | 0% | 0hPa | 0V | 00:00:00 | 00:00:00 | 00:00:00 | |
| SQ6EMJ | 2026-09-04 12:21:36 | 50.78987 | 18.04357 | 259° | 13km/h | 21404m | 4.7m/s | 0°C | 0% | 0hPa | 0V | 00:00:00 | 00:00:00 | 00:00:00 | |
| OM5KV | 2026-09-04 12:21:35 | 50.78988 | 18.04362 | 262° | 9km/h | 21399m | 6.6m/s | 0°C | 0% | 0hPa | 0V | 00:00:00 | 00:00:00 | 00:00:00 | |
| OM5KV | 2026-09-04 12:21:30 | 50.78998 | 18.04349 | 146° | 18km/h | 21369m | 3.8m/s | 0°C | 0% | 0hPa | 0V | 00:00:00 | 00:00:00 | 00:00:00 | |
| OM5KV | 2026-09-04 12:21:28 | 50.79002 | 18.04343 | 65° | 2km/h | 21358m | 5.4m/s | 0°C | 0% | 0hPa | 0V | 00:00:00 | 00:00:00 | 00:00:00 | |
| POL1PZ | 2026-09-04 12:21:27 | 50.79001 | 18.04344 | 300° | 4km/h | 21353m | 5.1m/s | 0°C | 0% | 0hPa | 0V | 00:00:00 | 00:00:00 | 00:00:00 | |
| SQ6EMJ | 2026-09-04 12:21:24 | 50.79005 | 18.04347 | 174° | 7km/h | 21337m | 5.5m/s | 0°C | 0% | 0hPa | 0V | 00:00:00 | 00:00:00 | 00:00:00 | |
| OE5DRO-10 | 2026-09-04 12:21:23 | 50.79007 | 18.04345 | 150° | 20km/h | 21331m | 5.8m/s | 0°C | 0% | 0hPa | 0V | 00:00:00 | 00:00:00 | 00:00:00 | |
| OM5KV | 2026-09-04 12:21:22 | 50.79010 | 18.04342 | 153° | 20km/h | 21326m | 4.6m/s | 0°C | 0% | 0hPa | 0V | 00:00:00 | 00:00:00 | 00:00:00 | |
| SQ6EMJ | 2026-09-04 12:21:17 | 50.79035 | 18.04322 | 125° | 7km/h | 21299m | 4.9m/s | 0°C | 0% | 0hPa | 0V | 00:00:00 | 00:00:00 | 00:00:00 | |
| OM5KV | 2026-09-04 12:21:16 | 50.79036 | 18.04320 | 147° | 9km/h | 21294m | 4.9m/s | 0°C | 0% | 0hPa | 0V | 00:00:00 | 00:00:00 | 00:00:00 | |
| SQ6EMJ | 2026-09-04 12:21:12 | 50.79052 | 18.04307 | 141° | 20km/h | 21272m | 6.4m/s | 0°C | 0% | 0hPa | 0V | 00:00:00 | 00:00:00 | 00:00:00 | |
| OM5KV | 2026-09-04 12:21:10 | 50.79058 | 18.04299 | 164° | 13km/h | 21262m | 4.4m/s | 0°C | 0% | 0hPa | 0V | 00:00:00 | 00:00:00 | 00:00:00 | |
| OM5KV | 2026-09-04 12:21:09 | 50.79062 | 18.04299 | 183° | 15km/h | 21256m | 6.9m/s | 0°C | 0% | 0hPa | 0V | 00:00:00 | 00:00:00 | 00:00:00 | |
| POL1PZ | 2026-09-04 12:21:07 | 50.79068 | 18.04303 | 221° | 11km/h | 21246m | 6.3m/s | 0°C | 0% | 0hPa | 0V | 00:00:00 | 00:00:00 | 00:00:00 | |
| SP3BTT-10 | 2026-09-04 12:21:05 | 50.79070 | 18.04305 | 117° | 20km/h | 21235m | 4.9m/s | 0°C | 0% | 0hPa | 0V | 00:00:00 | 00:00:00 | 00:00:00 | |
| OM5KV | 2026-09-04 12:21:04 | 50.79071 | 18.04303 | 128° | 5km/h | 21230m | 5.0m/s | 0°C | 0% | 0hPa | 0V | 00:00:00 | 00:00:00 | 00:00:00 | |
| SQ6EMJ | 2026-09-04 12:21:00 | 50.79082 | 18.04286 | 126° | 15km/h | 21209m | 4.4m/s | 0°C | 0% | 0hPa | 0V | 00:00:00 | 00:00:00 | 00:00:00 | |
| OM5KV | 2026-09-04 12:20:58 | 50.79086 | 18.04279 | 159° | 9km/h | 21201m | 7.1m/s | 0°C | 0% | 0hPa | 0V | 00:00:00 | 00:00:00 | 00:00:00 | |
| OM5KV | 2026-09-04 12:20:57 | 50.79088 | 18.04279 | 196° | 11km/h | 21195m | 6.5m/s | 0°C | 0% | 0hPa | 0V | 00:00:00 | 00:00:00 | 00:00:00 | |
| OM5KV | 2026-09-04 12:20:55 | 50.79092 | 18.04282 | 211° | 4km/h | 21182m | 7.2m/s | 0°C | 0% | 0hPa | 0V | 00:00:00 | 00:00:00 | 00:00:00 | |
| SQ6EMJ | 2026-09-04 12:20:54 | 50.79093 | 18.04281 | 106° | 4km/h | 21177m | 4.6m/s | 0°C | 0% | 0hPa | 0V | 00:00:00 | 00:00:00 | 00:00:00 | |
| OM5KV | 2026-09-04 12:20:51 | 50.79099 | 18.04272 | 136° | 16km/h | 21159m | 5.2m/s | 0°C | 0% | 0hPa | 0V | 00:00:00 | 00:00:00 | 00:00:00 | |
| OM5KV | 2026-09-04 12:20:48 | 50.79102 | 18.04260 | 84° | 5km/h | 21142m | 4.4m/s | 0°C | 0% | 0hPa | 0V | 00:00:00 | 00:00:00 | 00:00:00 | |
| POL1PZ | 2026-09-04 12:20:46 | 50.79103 | 18.04259 | 194° | 9km/h | 21130m | 5.8m/s | 0°C | 0% | 0hPa | 0V | 00:00:00 | 00:00:00 | 00:00:00 | |
| SQ6EMJ | 2026-09-04 12:20:45 | 50.79105 | 18.04260 | 203° | 5km/h | 21124m | 5.2m/s | 0°C | 0% | 0hPa | 0V | 00:00:00 | 00:00:00 | 00:00:00 | |
| OM5KV | 2026-09-04 12:20:44 | 50.79106 | 18.04261 | 234° | 2km/h | 21119m | 6.6m/s | 0°C | 0% | 0hPa | 0V | 00:00:00 | 00:00:00 | 00:00:00 | |
| SQ6EMJ | 2026-09-04 12:20:39 | 50.79111 | 18.04248 | 126° | 15km/h | 21091m | 5.6m/s | 0°C | 0% | 0hPa | 0V | 00:00:00 | 00:00:00 | 00:00:00 | |
| OM5KV | 2026-09-04 12:20:38 | 50.79112 | 18.04243 | 118° | 13km/h | 21085m | 6.4m/s | 0°C | 0% | 0hPa | 0V | 00:00:00 | 00:00:00 | 00:00:00 | |
| SQ6EMJ | 2026-09-04 12:20:34 | 50.79111 | 18.04225 | 106° | 13km/h | 21057m | 6.3m/s | 0°C | 0% | 0hPa | 0V | 00:00:00 | 00:00:00 | 00:00:00 | |
| OM5KV | 2026-09-04 12:20:32 | 50.79111 | 18.04220 | 86° | 13km/h | 21051m | 5.5m/s | 0°C | 0% | 0hPa | 0V | 00:00:00 | 00:00:00 | 00:00:00 | |
| OM5KV | 2026-09-04 12:20:30 | 50.79111 | 18.04209 | 111° | 15km/h | 21041m | 5.7m/s | 0°C | 0% | 0hPa | 0V | 00:00:00 | 00:00:00 | 00:00:00 | |
| SQ6EMJ | 2026-09-04 12:20:27 | 50.79116 | 18.04192 | 92° | 11km/h | 21027m | 5.3m/s | 0°C | 0% | 0hPa | 0V | 00:00:00 | 00:00:00 | 00:00:00 | |
| OM5KV | 2026-09-04 12:20:26 | 50.79114 | 18.04188 | 39° | 16km/h | 21021m | 6.8m/s | 0°C | 0% | 0hPa | 0V | 00:00:00 | 00:00:00 | 00:00:00 | |
| POL1PZ | 2026-09-04 12:20:25 | 50.79111 | 18.04184 | 30° | 20km/h | 21014m | 5.1m/s | 0°C | 0% | 0hPa | 0V | 00:00:00 | 00:00:00 | 00:00:00 | |
| OM5KV | 2026-09-04 12:20:21 | 50.79104 | 18.04156 | 120° | 24km/h | 20994m | 4.6m/s | 0°C | 0% | 0hPa | 0V | 00:00:00 | 00:00:00 | 00:00:00 | |
| SQ6EMJ | 2026-09-04 12:20:20 | 50.79107 | 18.04148 | 120° | 22km/h | 20988m | 6.6m/s | 0°C | 0% | 0hPa | 0V | 00:00:00 | 00:00:00 | 00:00:00 | |
| OM5KV | 2026-09-04 12:20:18 | 50.79110 | 18.04134 | 100° | 15km/h | 20977m | 4.7m/s | 0°C | 0% | 0hPa | 0V | 00:00:00 | 00:00:00 | 00:00:00 | |
| SQ6EMJ | 2026-09-04 12:20:14 | 50.79101 | 18.04110 | 37° | 27km/h | 20954m | 4.8m/s | 0°C | 0% | 0hPa | 0V | 00:00:00 | 00:00:00 | 00:00:00 | |
| OM5KV | 2026-09-04 12:20:13 | 50.79096 | 18.04103 | 48° | 24km/h | 20951m | 2.6m/s | 0°C | 0% | 0hPa | 0V | 00:00:00 | 00:00:00 | 00:00:00 | |
| OM5KV | 2026-09-04 12:20:12 | 50.79093 | 18.04095 | 73° | 22km/h | 20946m | 6.4m/s | 0°C | 0% | 0hPa | 0V | 00:00:00 | 00:00:00 | 00:00:00 | |
| OM5KV | 2026-09-04 12:20:08 | 50.79106 | 18.04059 | 127° | 20km/h | 20924m | 3.7m/s | 0°C | 0% | 0hPa | 0V | 00:00:00 | 00:00:00 | 00:00:00 | |
| OK1ALN | 2026-09-04 12:20:07 | 50.79108 | 18.04053 | 101° | 13km/h | 20920m | 4.9m/s | 0°C | 0% | 0hPa | 0V | 00:00:00 | 00:00:00 | 00:00:00 | |
| SP3BTT-10 | 2026-09-04 12:20:05 | 50.79106 | 18.04043 | 60° | 22km/h | 20910m | 5.2m/s | 0°C | 0% | 0hPa | 0V | 00:00:00 | 00:00:00 | 00:00:00 | |
| POL1PZ | 2026-09-04 12:20:04 | 50.79103 | 18.04037 | 61° | 18km/h | 20905m | 6.7m/s | 0°C | 0% | 0hPa | 0V | 00:00:00 | 00:00:00 | 00:00:00 | |
| SQ6EMJ | 2026-09-04 12:20:02 | 50.79101 | 18.04025 | 98° | 18km/h | 20894m | 5.0m/s | 0°C | 0% | 0hPa | 0V | 00:00:00 | 00:00:00 | 00:00:00 | |
| OM5KV | 2026-09-04 12:19:59 | 50.79106 | 18.03998 | 101° | 24km/h | 20877m | 3.9m/s | 0°C | 0% | 0hPa | 0V | 00:00:00 | 00:00:00 | 00:00:00 | |
| SQ6EMJ | 2026-09-04 12:19:57 | 50.79110 | 18.03982 | 130° | 20km/h | 20867m | 5.3m/s | 0°C | 0% | 0hPa | 0V | 00:00:00 | 00:00:00 | 00:00:00 | |
| SQ6EMJ | 2026-09-04 12:19:51 | 50.79116 | 18.03941 | 122° | 22km/h | 20833m | 6.3m/s | 0°C | 0% | 0hPa | 0V | 00:00:00 | 00:00:00 | 00:00:00 | |
| SQ6EMJ | 2026-09-04 12:19:45 | 50.79134 | 18.03879 | 112° | 31km/h | 20800m | 6.1m/s | 0°C | 0% | 0hPa | 0V | 00:00:00 | 00:00:00 | 00:00:00 | |
| POL1PZ | 2026-09-04 12:19:43 | 50.79138 | 18.03857 | 96° | 26km/h | 20789m | 5.9m/s | 0°C | 0% | 0hPa | 0V | 00:00:00 | 00:00:00 | 00:00:00 | |
| SQ6EMJ | 2026-09-04 12:19:34 | 50.79157 | 18.03761 | 105° | 37km/h | 20741m | 6.5m/s | 0°C | 0% | 0hPa | 0V | 00:00:00 | 00:00:00 | 00:00:00 | |
| OK1ALN | 2026-09-04 12:19:31 | 50.79166 | 18.03725 | 115° | 27km/h | 20725m | 6.3m/s | 0°C | 0% | 0hPa | 0V | 00:00:00 | 00:00:00 | 00:00:00 | |
| SQ6EMJ | 2026-09-04 12:19:29 | 50.79170 | 18.03704 | 109° | 29km/h | 20714m | 4.9m/s | 0°C | 0% | 0hPa | 0V | 00:00:00 | 00:00:00 | 00:00:00 | |
| POL1PZ | 2026-09-04 12:19:22 | 50.79191 | 18.03615 | 127° | 26km/h | 20675m | 3.2m/s | 0°C | 0% | 0hPa | 0V | 00:00:00 | 00:00:00 | 00:00:00 | |
| SP4MAZ | 2026-09-04 12:19:17 | 50.79205 | 18.03580 | 114° | 37km/h | 20649m | 5.3m/s | 0°C | 0% | 0hPa | 0V | 00:00:00 | 00:00:00 | 00:00:00 | |
| SQ6EMJ | 2026-09-04 12:19:15 | 50.79211 | 18.03548 | 104° | 40km/h | 20639m | 6.0m/s | 0°C | 0% | 0hPa | 0V | 00:00:00 | 00:00:00 | 00:00:00 | |
| SQ6EMJ | 2026-09-04 12:19:10 | 50.79221 | 18.03505 | 145° | 22km/h | 20613m | 4.9m/s | 0°C | 0% | 0hPa | 0V | 00:00:00 | 00:00:00 | 00:00:00 | |
| OK1ALN | 2026-09-04 12:19:07 | 50.79229 | 18.03488 | 97° | 20km/h | 20597m | 5.0m/s | 0°C | 0% | 0hPa | 0V | 00:00:00 | 00:00:00 | 00:00:00 | |
| SP3BTT-10 | 2026-09-04 12:19:04 | 50.79234 | 18.03458 | 114° | 27km/h | 20580m | 4.3m/s | 0°C | 0% | 0hPa | 0V | 00:00:00 | 00:00:00 | 00:00:00 | |
| POL1PZ | 2026-09-04 12:19:02 | 50.79239 | 18.03437 | 106° | 26km/h | 20570m | 5.9m/s | 0°C | 0% | 0hPa | 0V | 00:00:00 | 00:00:00 | 00:00:00 | |
| SQ6EMJ | 2026-09-04 12:18:59 | 50.79253 | 18.03404 | 145° | 31km/h | 20548m | 4.6m/s | 0°C | 0% | 0hPa | 0V | 00:00:00 | 00:00:00 | 00:00:00 | |
| SQ6EMJ | 2026-09-04 12:18:52 | 50.79277 | 18.03338 | 124° | 38km/h | 20516m | 4.3m/s | 0°C | 0% | 0hPa | 0V | 00:00:00 | 00:00:00 | 00:00:00 | |
| OK1ALN | 2026-09-04 12:18:46 | 50.79306 | 18.03262 | 124° | 40km/h | 20486m | 4.0m/s | 0°C | 0% | 0hPa | 0V | 00:00:00 | 00:00:00 | 00:00:00 | |
| POL1PZ | 2026-09-04 12:18:41 | 50.79322 | 18.03196 | 116° | 33km/h | 20462m | 6.0m/s | 0°C | 0% | 0hPa | 0V | 00:00:00 | 00:00:00 | 00:00:00 | |
| SQ6EMJ | 2026-09-04 12:18:40 | 50.79326 | 18.03184 | 125° | 35km/h | 20456m | 5.0m/s | 0°C | 0% | 0hPa | 0V | 00:00:00 | 00:00:00 | 00:00:00 | |
| SQ6EMJ | 2026-09-04 12:18:33 | 50.79343 | 18.03105 | 89° | 27km/h | 20419m | 6.5m/s | 0°C | 0% | 0hPa | 0V | 00:00:00 | 00:00:00 | 00:00:00 | |
| SQ6EMJ | 2026-09-04 12:18:27 | 50.79355 | 18.03041 | 106° | 29km/h | 20386m | 4.8m/s | 0°C | 0% | 0hPa | 0V | 00:00:00 | 00:00:00 | 00:00:00 | |
| OK1ALN | 2026-09-04 12:18:24 | 50.79363 | 18.03005 | 109° | 33km/h | 20371m | 4.8m/s | 0°C | 0% | 0hPa | 0V | 00:00:00 | 00:00:00 | 00:00:00 | |
| SQ6EMJ | 2026-09-04 12:18:20 | 50.79365 | 18.02960 | 92° | 29km/h | 20350m | 4.2m/s | 0°C | 0% | 0hPa | 0V | 00:00:00 | 00:00:00 | 00:00:00 | |
| PETON7-10 | 2026-09-04 12:18:16 | 50.79373 | 18.02914 | 101° | 26km/h | 20329m | 6.0m/s | 0°C | 0% | 0hPa | 0V | 00:00:00 | 00:00:00 | 00:00:00 | |
| SQ6EMJ | 2026-09-04 12:18:13 | 50.79377 | 18.02881 | 102° | 31km/h | 20314m | 5.2m/s | 0°C | 0% | 0hPa | 0V | 00:00:00 | 00:00:00 | 00:00:00 | |
| SQ6EMJ | 2026-09-04 12:18:08 | 50.79376 | 18.02826 | 104° | 26km/h | 20288m | 6.0m/s | 0°C | 0% | 0hPa | 0V | 00:00:00 | 00:00:00 | 00:00:00 | |
| SP3BTT-10 | 2026-09-04 12:18:04 | 50.79382 | 18.02790 | 96° | 20km/h | 20267m | 3.9m/s | 0°C | 0% | 0hPa | 0V | 00:00:00 | 00:00:00 | 00:00:00 | |
| OK1ALN | 2026-09-04 12:18:03 | 50.79383 | 18.02782 | 99° | 22km/h | 20262m | 6.3m/s | 0°C | 0% | 0hPa | 0V | 00:00:00 | 00:00:00 | 00:00:00 | |
| SQ6EMJ | 2026-09-04 12:18:02 | 50.79383 | 18.02773 | 96° | 24km/h | 20257m | 4.9m/s | 0°C | 0% | 0hPa | 0V | 00:00:00 | 00:00:00 | 00:00:00 | |
| PETON7-10 | 2026-09-04 12:18:00 | 50.79382 | 18.02751 | 75° | 26km/h | 20247m | 6.6m/s | 0°C | 0% | 0hPa | 0V | 00:00:00 | 00:00:00 | 00:00:00 | |
| SQ6EMJ | 2026-09-04 12:17:56 | 50.79374 | 18.02704 | 85° | 26km/h | 20227m | 4.3m/s | 0°C | 0% | 0hPa | 0V | 00:00:00 | 00:00:00 | 00:00:00 | |
| SQ6EMJ | 2026-09-04 12:17:50 | 50.79376 | 18.02661 | 85° | 22km/h | 20194m | 6.4m/s | 0°C | 0% | 0hPa | 0V | 00:00:00 | 00:00:00 | 00:00:00 | |
| SQ6EMJ | 2026-09-04 12:17:44 | 50.79368 | 18.02606 | 73° | 15km/h | 20163m | 6.8m/s | 0°C | 0% | 0hPa | 0V | 00:00:00 | 00:00:00 | 00:00:00 | |
| OK1ALN | 2026-09-04 12:17:42 | 50.79366 | 18.02596 | 84° | 15km/h | 20152m | 5.6m/s | 0°C | 0% | 0hPa | 0V | 00:00:00 | 00:00:00 | 00:00:00 | |
| POL1PZ | 2026-09-04 12:17:39 | 50.79366 | 18.02569 | 87° | 29km/h | 20135m | 6.0m/s | 0°C | 0% | 0hPa | 0V | 00:00:00 | 00:00:00 | 00:00:00 | |
| SQ6EMJ | 2026-09-04 12:17:38 | 50.79365 | 18.02558 | 80° | 26km/h | 20130m | 3.9m/s | 0°C | 0% | 0hPa | 0V | 00:00:00 | 00:00:00 | 00:00:00 | |
| SQ6EMJ | 2026-09-04 12:17:34 | 50.79367 | 18.02525 | 98° | 5km/h | 20104m | 5.2m/s | 0°C | 0% | 0hPa | 0V | 00:00:00 | 00:00:00 | 00:00:00 | |
| SQ6EMJ | 2026-09-04 12:17:27 | 50.79373 | 18.02484 | 95° | 20km/h | 20074m | 5.1m/s | 0°C | 0% | 0hPa | 0V | 00:00:00 | 00:00:00 | 00:00:00 | |
| SQ6EMJ | 2026-09-04 12:17:21 | 50.79381 | 18.02463 | 110° | 11km/h | 20046m | 6.0m/s | 0°C | 0% | 0hPa | 0V | 00:00:00 | 00:00:00 | 00:00:00 | |
| OK1ALN | 2026-09-04 12:17:20 | 50.79381 | 18.02457 | 81° | 16km/h | 20041m | 5.2m/s | 0°C | 0% | 0hPa | 0V | 00:00:00 | 00:00:00 | 00:00:00 | |
| POL1PZ | 2026-09-04 12:17:18 | 50.79382 | 18.02440 | 107° | 26km/h | 20030m | 5.1m/s | 0°C | 0% | 0hPa | 0V | 00:00:00 | 00:00:00 | 00:00:00 | |
| SQ6EMJ | 2026-09-04 12:17:16 | 50.79384 | 18.02423 | 100° | 18km/h | 20021m | 5.7m/s | 0°C | 0% | 0hPa | 0V | 00:00:00 | 00:00:00 | 00:00:00 | |
| SQ6EMJ | 2026-09-04 12:17:10 | 50.79396 | 18.02413 | 112° | 11km/h | 19990m | 6.1m/s | 0°C | 0% | 0hPa | 0V | 00:00:00 | 00:00:00 | 00:00:00 | |
| SQ6EMJ | 2026-09-04 12:17:03 | 50.79410 | 18.02380 | 192° | 9km/h | 19953m | 5.4m/s | 0°C | 0% | 0hPa | 0V | 00:00:00 | 00:00:00 | 00:00:00 | |
| OK1ALN | 2026-09-04 12:16:59 | 50.79420 | 18.02363 | 98° | 24km/h | 19933m | 5.5m/s | 0°C | 0% | 0hPa | 0V | 00:00:00 | 00:00:00 | 00:00:00 | |
| POL1PZ | 2026-09-04 12:16:58 | 50.79420 | 18.02354 | 85° | 22km/h | 19928m | 3.7m/s | 0°C | 0% | 0hPa | 0V | 00:00:00 | 00:00:00 | 00:00:00 | |
| SQ6EMJ | 2026-09-04 12:16:51 | 50.79445 | 18.02329 | 144° | 11km/h | 19896m | 3.5m/s | 0°C | 0% | 0hPa | 0V | 00:00:00 | 00:00:00 | 00:00:00 | |
| SP3BTT-10 | 2026-09-04 12:16:48 | 50.79454 | 18.02311 | 121° | 31km/h | 19882m | 3.6m/s | 0°C | 0% | 0hPa | 0V | 00:00:00 | 00:00:00 | 00:00:00 | |
| SQ6EMJ | 2026-09-04 12:16:39 | 50.79491 | 18.02250 | 115° | 24km/h | 19839m | 5.5m/s | 0°C | 0% | 0hPa | 0V | 00:00:00 | 00:00:00 | 00:00:00 | |
| POL1PZ | 2026-09-04 12:16:38 | 50.79493 | 18.02241 | 107° | 24km/h | 19834m | 3.8m/s | 0°C | 0% | 0hPa | 0V | 00:00:00 | 00:00:00 | 00:00:00 | |
| SQ6EMJ | 2026-09-04 12:16:34 | 50.79507 | 18.02206 | 133° | 22km/h | 19814m | 5.8m/s | 0°C | 0% | 0hPa | 0V | 00:00:00 | 00:00:00 | 00:00:00 | |
| SQ6EMJ | 2026-09-04 12:16:28 | 50.79529 | 18.02156 | 94° | 27km/h | 19785m | 5.5m/s | 0°C | 0% | 0hPa | 0V | 00:00:00 | 00:00:00 | 00:00:00 | |
| SQ6EMJ | 2026-09-04 12:16:22 | 50.79538 | 18.02090 | 124° | 18km/h | 19753m | 4.4m/s | 0°C | 0% | 0hPa | 0V | 00:00:00 | 00:00:00 | 00:00:00 | |
| OK1ALN | 2026-09-04 12:16:19 | 50.79545 | 18.02051 | 84° | 33km/h | 19731m | 6.5m/s | 0°C | 0% | 0hPa | 0V | 00:00:00 | 00:00:00 | 00:00:00 | |
| POL1PZ | 2026-09-04 12:16:17 | 50.79544 | 18.02037 | 84° | 37km/h | 19726m | 4.0m/s | 0°C | 0% | 0hPa | 0V | 00:00:00 | 00:00:00 | 00:00:00 | |
| SQ6EMJ | 2026-09-04 12:16:11 | 50.79545 | 18.01958 | 86° | 20km/h | 19695m | 3.7m/s | 0°C | 0% | 0hPa | 0V | 00:00:00 | 00:00:00 | 00:00:00 | |
| SQ6EMJ | 2026-09-04 12:16:06 | 50.79535 | 18.01888 | 70° | 46km/h | 19670m | 3.9m/s | 0°C | 0% | 0hPa | 0V | 00:00:00 | 00:00:00 | 00:00:00 | |
| SQ6EMJ | 2026-09-04 12:15:59 | 50.79523 | 18.01803 | 61° | 24km/h | 19636m | 4.7m/s | 0°C | 0% | 0hPa | 0V | 00:00:00 | 00:00:00 | 00:00:00 | |
| OK1ALN | 2026-09-04 12:15:58 | 50.79520 | 18.01794 | 73° | 27km/h | 19631m | 6.0m/s | 0°C | 0% | 0hPa | 0V | 00:00:00 | 00:00:00 | 00:00:00 | |
| POL1PZ | 2026-09-04 12:15:57 | 50.79519 | 18.01782 | 79° | 35km/h | 19626m | 4.4m/s | 0°C | 0% | 0hPa | 0V | 00:00:00 | 00:00:00 | 00:00:00 | |
| SQ6EMJ | 2026-09-04 12:15:53 | 50.79509 | 18.01722 | 79° | 44km/h | 19604m | 5.6m/s | 0°C | 0% | 0hPa | 0V | 00:00:00 | 00:00:00 | 00:00:00 | |
| SP3BTT-10 | 2026-09-04 12:15:48 | 50.79491 | 18.01669 | 56° | 24km/h | 19579m | 3.9m/s | 0°C | 0% | 0hPa | 0V | 00:00:00 | 00:00:00 | 00:00:00 | |
| SQ6EMJ | 2026-09-04 12:15:47 | 50.79489 | 18.01660 | 74° | 29km/h | 19575m | 5.6m/s | 0°C | 0% | 0hPa | 0V | 00:00:00 | 00:00:00 | 00:00:00 | |
| SQ6EMJ | 2026-09-04 12:15:41 | 50.79463 | 18.01562 | 51° | 33km/h | 19544m | 6.4m/s | 0°C | 0% | 0hPa | 0V | 00:00:00 | 00:00:00 | 00:00:00 | |
| OK1ALN | 2026-09-04 12:15:38 | 50.79453 | 18.01543 | 54° | 18km/h | 19526m | 5.9m/s | 0°C | 0% | 0hPa | 0V | 00:00:00 | 00:00:00 | 00:00:00 | |
| POL1PZ | 2026-09-04 12:15:37 | 50.79450 | 18.01535 | 66° | 26km/h | 19520m | 6.8m/s | 0°C | 0% | 0hPa | 0V | 00:00:00 | 00:00:00 | 00:00:00 | |
| SQ6EMJ | 2026-09-04 12:15:35 | 50.79445 | 18.01510 | 85° | 38km/h | 19508m | 5.2m/s | 0°C | 0% | 0hPa | 0V | 00:00:00 | 00:00:00 | 00:00:00 | |
| SQ6EMJ | 2026-09-04 12:15:28 | 50.79420 | 18.01448 | 48° | 46km/h | 19465m | 5.4m/s | 0°C | 0% | 0hPa | 0V | 00:00:00 | 00:00:00 | 00:00:00 | |
| SQ6EMJ | 2026-09-04 12:15:21 | 50.79409 | 18.01381 | 82° | 18km/h | 19427m | 6.5m/s | 0°C | 0% | 0hPa | 0V | 00:00:00 | 00:00:00 | 00:00:00 | |
| SQ6EMJ | 2026-09-04 12:15:17 | 50.79381 | 18.01335 | 27° | 31km/h | 19403m | 1.3m/s | 0°C | 0% | 0hPa | 0V | 00:00:00 | 00:00:00 | 00:00:00 | |
| POL1PZ | 2026-09-04 12:15:13 | 50.79372 | 18.01311 | 108° | 33km/h | 19389m | 6.0m/s | 0°C | 0% | 0hPa | 0V | 00:00:00 | 00:00:00 | 00:00:00 | |
| SQ6EMJ | 2026-09-04 12:15:08 | 50.79376 | 18.01255 | 46° | 24km/h | 19364m | 5.7m/s | 0°C | 0% | 0hPa | 0V | 00:00:00 | 00:00:00 | 00:00:00 | |
| OE5MMP-10 | 2026-09-04 12:15:07 | 50.79372 | 18.01248 | 47° | 27km/h | 19357m | 7.4m/s | 0°C | 0% | 0hPa | 0V | 00:00:00 | 00:00:00 | 00:00:00 | |
| SQ6EMJ | 2026-09-04 12:15:03 | 50.79354 | 18.01224 | 37° | 16km/h | 19335m | 5.3m/s | 0°C | 0% | 0hPa | 0V | 00:00:00 | 00:00:00 | 00:00:00 | |
| SQ6EMJ | 2026-09-04 12:14:56 | 50.79350 | 18.01180 | 72° | 35km/h | 19295m | 4.0m/s | 0°C | 0% | 0hPa | 0V | 00:00:00 | 00:00:00 | 00:00:00 | |
| OK1ALN | 2026-09-04 12:14:54 | 50.79348 | 18.01158 | 104° | 20km/h | 19284m | 6.0m/s | 0°C | 0% | 0hPa | 0V | 00:00:00 | 00:00:00 | 00:00:00 | |
| OE5MMP-10 | 2026-09-04 12:14:53 | 50.79350 | 18.01152 | 130° | 5km/h | 19279m | 4.7m/s | 0°C | 0% | 0hPa | 0V | 00:00:00 | 00:00:00 | 00:00:00 | |
| SQ6EMJ | 2026-09-04 12:14:50 | 50.79354 | 18.01138 | 104° | 22km/h | 19253m | 6.9m/s | 0°C | 0% | 0hPa | 0V | 00:00:00 | 00:00:00 | 00:00:00 | |
| SP3BTT-10 | 2026-09-04 12:14:48 | 50.79356 | 18.01128 | 109° | 22km/h | 19246m | 5.3m/s | 0°C | 0% | 0hPa | 0V | 00:00:00 | 00:00:00 | 00:00:00 | |
| OE5MMP-10 | 2026-09-04 12:14:37 | 50.79380 | 18.01061 | 132° | 20km/h | 19187m | 4.9m/s | 0°C | 0% | 0hPa | 0V | 00:00:00 | 00:00:00 | 00:00:00 | |
| SQ6EMJ | 2026-09-04 12:14:34 | 50.79392 | 18.01044 | 139° | 15km/h | 19171m | 6.8m/s | 0°C | 0% | 0hPa | 0V | 00:00:00 | 00:00:00 | 00:00:00 | |
| OK1ALN | 2026-09-04 12:14:33 | 50.79395 | 18.01040 | 139° | 11km/h | 19166m | 4.6m/s | 0°C | 0% | 0hPa | 0V | 00:00:00 | 00:00:00 | 00:00:00 | |
| OK1ALN | 2026-09-04 12:14:11 | 50.79453 | 18.00903 | 121° | 18km/h | 19050m | 4.7m/s | 0°C | 0% | 0hPa | 0V | 00:00:00 | 00:00:00 | 00:00:00 | |
| SP3BTT-10 | 2026-09-04 12:14:03 | 50.79483 | 18.00849 | 144° | 29km/h | 19008m | 5.3m/s | 0°C | 0% | 0hPa | 0V | 00:00:00 | 00:00:00 | 00:00:00 | |
| SQ6EMJ | 2026-09-04 12:14:01 | 50.79495 | 18.00836 | 146° | 26km/h | 18996m | 5.8m/s | 0°C | 0% | 0hPa | 0V | 00:00:00 | 00:00:00 | 00:00:00 | |
| SQ6EMJ | 2026-09-04 12:13:56 | 50.79514 | 18.00800 | 125° | 20km/h | 18970m | 6.1m/s | 0°C | 0% | 0hPa | 0V | 00:00:00 | 00:00:00 | 00:00:00 | |
| OK1ALN | 2026-09-04 12:13:48 | 50.79551 | 18.00736 | 134° | 22km/h | 18929m | 5.7m/s | 0°C | 0% | 0hPa | 0V | 00:00:00 | 00:00:00 | 00:00:00 | |
| SQ6EMJ | 2026-09-04 12:13:47 | 50.79556 | 18.00729 | 134° | 27km/h | 18924m | 5.1m/s | 0°C | 0% | 0hPa | 0V | 00:00:00 | 00:00:00 | 00:00:00 | |
| SQ6EMJ | 2026-09-04 12:13:39 | 50.79609 | 18.00660 | 144° | 35km/h | 18884m | 5.7m/s | 0°C | 0% | 0hPa | 0V | 00:00:00 | 00:00:00 | 00:00:00 | |
| SQ6EMJ | 2026-09-04 12:13:34 | 50.79636 | 18.00616 | 132° | 40km/h | 18858m | 5.2m/s | 0°C | 0% | 0hPa | 0V | 00:00:00 | 00:00:00 | 00:00:00 | |
| SQ6EMJ | 2026-09-04 12:13:26 | 50.79680 | 18.00541 | 137° | 24km/h | 18818m | 3.8m/s | 0°C | 0% | 0hPa | 0V | 00:00:00 | 00:00:00 | 00:00:00 | |
| SQ6EMJ | 2026-09-04 12:13:20 | 50.79709 | 18.00481 | 121° | 29km/h | 18790m | 3.7m/s | 0°C | 0% | 0hPa | 0V | 00:00:00 | 00:00:00 | 00:00:00 | |
| SQ6EMJ | 2026-09-04 12:13:07 | 50.79764 | 18.00357 | 139° | 35km/h | 18724m | 4.0m/s | 0°C | 0% | 0hPa | 0V | 00:00:00 | 00:00:00 | 00:00:00 | |
| OK1ALN | 2026-09-04 12:13:06 | 50.79769 | 18.00348 | 136° | 31km/h | 18720m | 6.1m/s | 0°C | 0% | 0hPa | 0V | 00:00:00 | 00:00:00 | 00:00:00 | |
| SP3BTT-10 | 2026-09-04 12:13:02 | 50.79788 | 18.00309 | 126° | 44km/h | 18699m | 4.0m/s | 0°C | 0% | 0hPa | 0V | 00:00:00 | 00:00:00 | 00:00:00 | |
| SQ6EMJ | 2026-09-04 12:12:51 | 50.79870 | 18.00180 | 132° | 38km/h | 18636m | 4.8m/s | 0°C | 0% | 0hPa | 0V | 00:00:00 | 00:00:00 | 00:00:00 | |
| SQ6EMJ | 2026-09-04 12:12:43 | 50.79936 | 18.00096 | 120° | 40km/h | 18601m | 4.5m/s | 0°C | 0% | 0hPa | 0V | 00:00:00 | 00:00:00 | 00:00:00 | |
| SQ6EMJ | 2026-09-04 12:12:38 | 50.79965 | 18.00010 | 135° | 51km/h | 18575m | 5.7m/s | 0°C | 0% | 0hPa | 0V | 00:00:00 | 00:00:00 | 00:00:00 | |
| SQ6EMJ | 2026-09-04 12:12:28 | 50.80039 | 17.99853 | 131° | 51km/h | 18525m | 6.2m/s | 0°C | 0% | 0hPa | 0V | 00:00:00 | 00:00:00 | 00:00:00 | |
| SQ6EMJ | 2026-09-04 12:12:24 | 50.80083 | 17.99779 | 126° | 49km/h | 18502m | 4.6m/s | 0°C | 0% | 0hPa | 0V | 00:00:00 | 00:00:00 | 00:00:00 | |
| SQ6EMJ | 2026-09-04 12:12:16 | 50.80120 | 17.99665 | 122° | 47km/h | 18468m | 5.9m/s | 0°C | 0% | 0hPa | 0V | 00:00:00 | 00:00:00 | 00:00:00 | |
| SQ6EMJ | 2026-09-04 12:12:10 | 50.80164 | 17.99581 | 118° | 46km/h | 18438m | 5.2m/s | 0°C | 0% | 0hPa | 0V | 00:00:00 | 00:00:00 | 00:00:00 | |
| OK1ALN | 2026-09-04 12:12:09 | 50.80169 | 17.99564 | 110° | 47km/h | 18434m | 4.5m/s | 0°C | 0% | 0hPa | 0V | 00:00:00 | 00:00:00 | 00:00:00 | |
| SQ6EMJ | 2026-09-04 12:12:05 | 50.80186 | 17.99484 | 114° | 47km/h | 18414m | 6.0m/s | 0°C | 0% | 0hPa | 0V | 00:00:00 | 00:00:00 | 00:00:00 | |
| SP3BTT-10 | 2026-09-04 12:12:02 | 50.80203 | 17.99433 | 118° | 42km/h | 18399m | 4.6m/s | 0°C | 0% | 0hPa | 0V | 00:00:00 | 00:00:00 | 00:00:00 | |
| SQ6EMJ | 2026-09-04 12:11:58 | 50.80222 | 17.99361 | 107° | 46km/h | 18380m | 4.3m/s | 0°C | 0% | 0hPa | 0V | 00:00:00 | 00:00:00 | 00:00:00 | |
| SQ6EMJ | 2026-09-04 12:11:50 | 50.80259 | 17.99200 | 110° | 53km/h | 18339m | 4.6m/s | 0°C | 0% | 0hPa | 0V | 00:00:00 | 00:00:00 | 00:00:00 | |
| OK1ALN | 2026-09-04 12:11:45 | 50.80279 | 17.99110 | 108° | 53km/h | 18314m | 4.7m/s | 0°C | 0% | 0hPa | 0V | 00:00:00 | 00:00:00 | 00:00:00 | |
| SQ6EMJ | 2026-09-04 12:11:43 | 50.80286 | 17.99070 | 105° | 47km/h | 18304m | 6.0m/s | 0°C | 0% | 0hPa | 0V | 00:00:00 | 00:00:00 | 00:00:00 | |
| SQ6EMJ | 2026-09-04 12:11:37 | 50.80303 | 17.98973 | 107° | 33km/h | 18275m | 4.2m/s | 0°C | 0% | 0hPa | 0V | 00:00:00 | 00:00:00 | 00:00:00 | |
| SQ6EMJ | 2026-09-04 12:11:32 | 50.80320 | 17.98883 | 109° | 53km/h | 18253m | 4.9m/s | 0°C | 0% | 0hPa | 0V | 00:00:00 | 00:00:00 | 00:00:00 | |
| SQ6EMJ | 2026-09-04 12:11:26 | 50.80342 | 17.98790 | 123° | 47km/h | 18223m | 5.8m/s | 0°C | 0% | 0hPa | 0V | 00:00:00 | 00:00:00 | 00:00:00 | |
| SQ6EMJ | 2026-09-04 12:11:19 | 50.80388 | 17.98660 | 110° | 40km/h | 18189m | 4.2m/s | 0°C | 0% | 0hPa | 0V | 00:00:00 | 00:00:00 | 00:00:00 | |
| SQ6EMJ | 2026-09-04 12:11:11 | 50.80431 | 17.98512 | 111° | 62km/h | 18149m | 5.1m/s | 0°C | 0% | 0hPa | 0V | 00:00:00 | 00:00:00 | 00:00:00 | |
| SQ6EMJ | 2026-09-04 12:11:05 | 50.80453 | 17.98409 | 111° | 40km/h | 18118m | 6.1m/s | 0°C | 0% | 0hPa | 0V | 00:00:00 | 00:00:00 | 00:00:00 | |
| SQ6EMJ | 2026-09-04 12:10:58 | 50.80473 | 17.98288 | 106° | 37km/h | 18084m | 4.2m/s | 0°C | 0% | 0hPa | 0V | 00:00:00 | 00:00:00 | 00:00:00 | |
| SP3BTT-10 | 2026-09-04 12:10:45 | 50.80490 | 17.98085 | 99° | 37km/h | 18023m | 4.6m/s | 0°C | 0% | 0hPa | 0V | 00:00:00 | 00:00:00 | 00:00:00 | |
| SQ6EMJ | 2026-09-04 12:10:39 | 50.80488 | 17.97985 | 86° | 40km/h | 17991m | 5.9m/s | 0°C | 0% | 0hPa | 0V | 00:00:00 | 00:00:00 | 00:00:00 | |
| SQ6EMJ | 2026-09-04 12:10:31 | 50.80493 | 17.97856 | 82° | 40km/h | 17951m | 4.5m/s | 0°C | 0% | 0hPa | 0V | 00:00:00 | 00:00:00 | 00:00:00 | |
| SQ6EMJ | 2026-09-04 12:10:20 | 50.80484 | 17.97700 | 85° | 37km/h | 17894m | 5.3m/s | 0°C | 0% | 0hPa | 0V | 00:00:00 | 00:00:00 | 00:00:00 | |
| SP3BTT-10 | 2026-09-04 12:10:15 | 50.80477 | 17.97643 | 73° | 20km/h | 17867m | 6.2m/s | 0°C | 0% | 0hPa | 0V | 00:00:00 | 00:00:00 | 00:00:00 | |
| SQ6EMJ | 2026-09-04 12:10:14 | 50.80476 | 17.97635 | 87° | 18km/h | 17862m | 5.3m/s | 0°C | 0% | 0hPa | 0V | 00:00:00 | 00:00:00 | 00:00:00 | |
| SQ6EMJ | 2026-09-04 12:10:09 | 50.80473 | 17.97578 | 85° | 37km/h | 17839m | 3.8m/s | 0°C | 0% | 0hPa | 0V | 00:00:00 | 00:00:00 | 00:00:00 | |
| OK1ALN | 2026-09-04 12:10:05 | 50.80474 | 17.97538 | 83° | 22km/h | 17820m | 6.1m/s | 0°C | 0% | 0hPa | 0V | 00:00:00 | 00:00:00 | 00:00:00 | |
| SQ6EMJ | 2026-09-04 12:10:00 | 50.80469 | 17.97495 | 81° | 31km/h | 17797m | 6.3m/s | 0°C | 0% | 0hPa | 0V | 00:00:00 | 00:00:00 | 00:00:00 | |
| SQ6EMJ | 2026-09-04 12:09:52 | 50.80472 | 17.97424 | 77° | 29km/h | 17761m | 4.2m/s | 0°C | 0% | 0hPa | 0V | 00:00:00 | 00:00:00 | 00:00:00 | |
| SP3BTT-10 | 2026-09-04 12:09:45 | 50.80461 | 17.97367 | 64° | 33km/h | 17729m | 5.6m/s | 0°C | 0% | 0hPa | 0V | 00:00:00 | 00:00:00 | 00:00:00 | |
| SQ6EMJ | 2026-09-04 12:09:42 | 50.80460 | 17.97348 | 88° | 26km/h | 17715m | 7.6m/s | 0°C | 0% | 0hPa | 0V | 00:00:00 | 00:00:00 | 00:00:00 | |
| OK1ALN | 2026-09-04 12:09:39 | 50.80458 | 17.97317 | 72° | 20km/h | 17700m | 5.9m/s | 0°C | 0% | 0hPa | 0V | 00:00:00 | 00:00:00 | 00:00:00 | |
| SQ6EMJ | 2026-09-04 12:09:34 | 50.80449 | 17.97286 | 89° | 16km/h | 17677m | 6.7m/s | 0°C | 0% | 0hPa | 0V | 00:00:00 | 00:00:00 | 00:00:00 | |
| SQ6EMJ | 2026-09-04 12:09:28 | 50.80450 | 17.97235 | 72° | 15km/h | 17647m | 5.5m/s | 0°C | 0% | 0hPa | 0V | 00:00:00 | 00:00:00 | 00:00:00 | |
| SQ6EMJ | 2026-09-04 12:09:22 | 50.80443 | 17.97197 | 87° | 24km/h | 17619m | 5.9m/s | 0°C | 0% | 0hPa | 0V | 00:00:00 | 00:00:00 | 00:00:00 | |
| SQ6EMJ | 2026-09-04 12:09:16 | 50.80446 | 17.97151 | 101° | 11km/h | 17588m | 4.2m/s | 0°C | 0% | 0hPa | 0V | 00:00:00 | 00:00:00 | 00:00:00 | |
| OK1ALN | 2026-09-04 12:09:10 | 50.80454 | 17.97091 | 109° | 20km/h | 17560m | 4.0m/s | 0°C | 0% | 0hPa | 0V | 00:00:00 | 00:00:00 | 00:00:00 | |
| SQ6EMJ | 2026-09-04 12:09:04 | 50.80474 | 17.97047 | 102° | 29km/h | 17531m | 4.8m/s | 0°C | 0% | 0hPa | 0V | 00:00:00 | 00:00:00 | 00:00:00 | |
| POL1PZ | 2026-09-04 12:09:03 | 50.80475 | 17.97034 | 104° | 35km/h | 17525m | 6.1m/s | 0°C | 0% | 0hPa | 0V | 00:00:00 | 00:00:00 | 00:00:00 | |
| SQ6EMJ | 2026-09-04 12:08:56 | 50.80503 | 17.96946 | 122° | 33km/h | 17491m | 6.0m/s | 0°C | 0% | 0hPa | 0V | 00:00:00 | 00:00:00 | 00:00:00 | |
| SQ6EMJ | 2026-09-04 12:08:48 | 50.80531 | 17.96840 | 121° | 42km/h | 17452m | 6.1m/s | 0°C | 0% | 0hPa | 0V | 00:00:00 | 00:00:00 | 00:00:00 | |
| SP3BTT-10 | 2026-09-04 12:08:45 | 50.80547 | 17.96795 | 117° | 51km/h | 17439m | 5.0m/s | 0°C | 0% | 0hPa | 0V | 00:00:00 | 00:00:00 | 00:00:00 | |
| POL1PZ | 2026-09-04 12:08:41 | 50.80562 | 17.96732 | 112° | 44km/h | 17420m | 3.4m/s | 0°C | 0% | 0hPa | 0V | 00:00:00 | 00:00:00 | 00:00:00 | |
| SQ6EMJ | 2026-09-04 12:08:37 | 50.80577 | 17.96675 | 115° | 42km/h | 17404m | 5.3m/s | 0°C | 0% | 0hPa | 0V | 00:00:00 | 00:00:00 | 00:00:00 | |
| SQ6EMJ | 2026-09-04 12:08:30 | 50.80606 | 17.96548 | 110° | 55km/h | 17369m | 4.7m/s | 0°C | 0% | 0hPa | 0V | 00:00:00 | 00:00:00 | 00:00:00 | |
| OK1ALN | 2026-09-04 12:08:27 | 50.80618 | 17.96491 | 110° | 47km/h | 17356m | 4.5m/s | 0°C | 0% | 0hPa | 0V | 00:00:00 | 00:00:00 | 00:00:00 | |
| SQ6EMJ | 2026-09-04 12:08:23 | 50.80638 | 17.96412 | 108° | 55km/h | 17337m | 4.4m/s | 0°C | 0% | 0hPa | 0V | 00:00:00 | 00:00:00 | 00:00:00 | |
| POL1PZ | 2026-09-04 12:08:19 | 50.80656 | 17.96310 | 106° | 71km/h | 17318m | 4.7m/s | 0°C | 0% | 0hPa | 0V | 00:00:00 | 00:00:00 | 00:00:00 | |
| SQ6EMJ | 2026-09-04 12:08:17 | 50.80663 | 17.96260 | 103° | 57km/h | 17309m | 3.9m/s | 0°C | 0% | 0hPa | 0V | 00:00:00 | 00:00:00 | 00:00:00 | |
| SQ6EMJ | 2026-09-04 12:08:11 | 50.80681 | 17.96123 | 97° | 62km/h | 17283m | 3.7m/s | 0°C | 0% | 0hPa | 0V | 00:00:00 | 00:00:00 | 00:00:00 | |
| SQ6EMJ | 2026-09-04 12:08:04 | 50.80695 | 17.95943 | 94° | 68km/h | 17251m | 4.7m/s | 0°C | 0% | 0hPa | 0V | 00:00:00 | 00:00:00 | 00:00:00 | |
| POL1PZ | 2026-09-04 12:07:58 | 50.80698 | 17.95802 | 102° | 62km/h | 17225m | 4.4m/s | 0°C | 0% | 0hPa | 0V | 00:00:00 | 00:00:00 | 00:00:00 | |
| SQ6EMJ | 2026-09-04 12:07:52 | 50.80707 | 17.95666 | 91° | 58km/h | 17198m | 3.4m/s | 0°C | 0% | 0hPa | 0V | 00:00:00 | 00:00:00 | 00:00:00 | |
| SQ6EMJ | 2026-09-04 12:07:47 | 50.80709 | 17.95539 | 97° | 58km/h | 17171m | 3.3m/s | 0°C | 0% | 0hPa | 0V | 00:00:00 | 00:00:00 | 00:00:00 | |
| SP3BTT-10 | 2026-09-04 12:07:45 | 50.80710 | 17.95516 | 92° | 55km/h | 17167m | 5.7m/s | 0°C | 0% | 0hPa | 0V | 00:00:00 | 00:00:00 | 00:00:00 | |
| POL1PZ | 2026-09-04 12:07:36 | 50.80700 | 17.95313 | 91° | 60km/h | 17125m | 5.0m/s | 0°C | 0% | 0hPa | 0V | 00:00:00 | 00:00:00 | 00:00:00 | |
| OK1ALN | 2026-09-04 12:07:35 | 50.80700 | 17.95288 | 94° | 64km/h | 17121m | 3.9m/s | 0°C | 0% | 0hPa | 0V | 00:00:00 | 00:00:00 | 00:00:00 | |
| POL1PZ | 2026-09-04 12:07:16 | 50.80697 | 17.94911 | 90° | 40km/h | 17034m | 4.5m/s | 0°C | 0% | 0hPa | 0V | 00:00:00 | 00:00:00 | 00:00:00 | |
| OK1ALN | 2026-09-04 12:07:13 | 50.80702 | 17.94858 | 102° | 51km/h | 17021m | 4.3m/s | 0°C | 0% | 0hPa | 0V | 00:00:00 | 00:00:00 | 00:00:00 | |
| SQ6EMJ | 2026-09-04 12:06:59 | 50.80722 | 17.94605 | 96° | 47km/h | 16955m | 3.6m/s | 0°C | 0% | 0hPa | 0V | 00:00:00 | 00:00:00 | 00:00:00 | |
| POL1PZ | 2026-09-04 12:06:56 | 50.80729 | 17.94548 | 100° | 46km/h | 16941m | 5.5m/s | 0°C | 0% | 0hPa | 0V | 00:00:00 | 00:00:00 | 00:00:00 | |
| SQ6EMJ | 2026-09-04 12:06:50 | 50.80735 | 17.94443 | 92° | 49km/h | 16912m | 5.1m/s | 0°C | 0% | 0hPa | 0V | 00:00:00 | 00:00:00 | 00:00:00 | |
| POL1PZ | 2026-09-04 12:06:35 | 50.80751 | 17.94129 | 93° | 53km/h | 16841m | 4.5m/s | 0°C | 0% | 0hPa | 0V | 00:00:00 | 00:00:00 | 00:00:00 | |
| SQ6EMJ | 2026-09-04 12:06:30 | 50.80756 | 17.94033 | 97° | 51km/h | 16817m | 6.3m/s | 0°C | 0% | 0hPa | 0V | 00:00:00 | 00:00:00 | 00:00:00 | |
| SP3BTT-10 | 2026-09-04 12:06:29 | 50.80758 | 17.94011 | 96° | 49km/h | 16811m | 6.1m/s | 0°C | 0% | 0hPa | 0V | 00:00:00 | 00:00:00 | 00:00:00 | |
| POL1PZ | 2026-09-04 12:05:54 | 50.80838 | 17.93274 | 100° | 58km/h | 16640m | 6.2m/s | 0°C | 0% | 0hPa | 0V | 00:00:00 | 00:00:00 | 00:00:00 | |
| SQ6EMJ | 2026-09-04 12:05:46 | 50.80846 | 17.93113 | 99° | 53km/h | 16599m | 6.4m/s | 0°C | 0% | 0hPa | 0V | 00:00:00 | 00:00:00 | 00:00:00 | |
| OK1ALN | 2026-09-04 12:05:44 | 50.80850 | 17.93070 | 98° | 55km/h | 16590m | 2.6m/s | 0°C | 0% | 0hPa | 0V | 00:00:00 | 00:00:00 | 00:00:00 | |
| SQ6EMJ | 2026-09-04 12:05:37 | 50.80857 | 17.92940 | 96° | 42km/h | 16558m | 6.0m/s | 0°C | 0% | 0hPa | 0V | 00:00:00 | 00:00:00 | 00:00:00 | |
| POL1PZ | 2026-09-04 12:05:33 | 50.80864 | 17.92868 | 101° | 49km/h | 16538m | 4.0m/s | 0°C | 0% | 0hPa | 0V | 00:00:00 | 00:00:00 | 00:00:00 | |
| SP3BTT-10 | 2026-09-04 12:05:29 | 50.80874 | 17.92793 | 93° | 47km/h | 16521m | 5.6m/s | 0°C | 0% | 0hPa | 0V | 00:00:00 | 00:00:00 | 00:00:00 | |
| OK1ALN | 2026-09-04 12:05:23 | 50.80878 | 17.92695 | 114° | 42km/h | 16494m | 4.7m/s | 0°C | 0% | 0hPa | 0V | 00:00:00 | 00:00:00 | 00:00:00 | |
| SQ6EMJ | 2026-09-04 12:05:21 | 50.80884 | 17.92659 | 99° | 53km/h | 16484m | 3.6m/s | 0°C | 0% | 0hPa | 0V | 00:00:00 | 00:00:00 | 00:00:00 | |
| SQ6EMJ | 2026-09-04 12:05:16 | 50.80882 | 17.92583 | 103° | 31km/h | 16461m | 5.5m/s | 0°C | 0% | 0hPa | 0V | 00:00:00 | 00:00:00 | 00:00:00 | |
| POL1PZ | 2026-09-04 12:05:13 | 50.80893 | 17.92536 | 108° | 49km/h | 16445m | 5.0m/s | 0°C | 0% | 0hPa | 0V | 00:00:00 | 00:00:00 | 00:00:00 | |
| SQ6EMJ | 2026-09-04 12:05:00 | 50.80934 | 17.92347 | 117° | 33km/h | 16378m | 4.2m/s | 0°C | 0% | 0hPa | 0V | 00:00:00 | 00:00:00 | 00:00:00 | |
| OK1ALN | 2026-09-04 12:04:59 | 50.80937 | 17.92335 | 107° | 37km/h | 16374m | 5.0m/s | 0°C | 0% | 0hPa | 0V | 00:00:00 | 00:00:00 | 00:00:00 | |
| POL1PZ | 2026-09-04 12:04:51 | 50.80968 | 17.92208 | 116° | 53km/h | 16331m | 5.2m/s | 0°C | 0% | 0hPa | 0V | 00:00:00 | 00:00:00 | 00:00:00 | |
| SQ6EMJ | 2026-09-04 12:04:44 | 50.80995 | 17.92102 | 112° | 46km/h | 16296m | 4.8m/s | 0°C | 0% | 0hPa | 0V | 00:00:00 | 00:00:00 | 00:00:00 | |
| SQ6EMJ | 2026-09-04 12:04:38 | 50.81025 | 17.92006 | 135° | 51km/h | 16267m | 4.9m/s | 0°C | 0% | 0hPa | 0V | 00:00:00 | 00:00:00 | 00:00:00 | |
| SQ6EMJ | 2026-09-04 12:04:33 | 50.81057 | 17.91926 | 118° | 46km/h | 16242m | 6.3m/s | 0°C | 0% | 0hPa | 0V | 00:00:00 | 00:00:00 | 00:00:00 | |
| POL1PZ | 2026-09-04 12:04:31 | 50.81069 | 17.91895 | 123° | 46km/h | 16232m | 3.2m/s | 0°C | 0% | 0hPa | 0V | 00:00:00 | 00:00:00 | 00:00:00 | |
| SP3BTT-10 | 2026-09-04 12:04:29 | 50.81082 | 17.91859 | 120° | 49km/h | 16222m | 4.6m/s | 0°C | 0% | 0hPa | 0V | 00:00:00 | 00:00:00 | 00:00:00 | |
| SQ6EMJ | 2026-09-04 12:04:28 | 50.81089 | 17.91839 | 125° | 60km/h | 16217m | 5.7m/s | 0°C | 0% | 0hPa | 0V | 00:00:00 | 00:00:00 | 00:00:00 | |
| SQ6EMJ | 2026-09-04 12:04:20 | 50.81152 | 17.91694 | 117° | 49km/h | 16181m | 6.2m/s | 0°C | 0% | 0hPa | 0V | 00:00:00 | 00:00:00 | 00:00:00 | |
| OK1ALN | 2026-09-04 12:04:17 | 50.81173 | 17.91618 | 124° | 53km/h | 16161m | 3.7m/s | 0°C | 0% | 0hPa | 0V | 00:00:00 | 00:00:00 | 00:00:00 | |
| SQ6EMJ | 2026-09-04 12:04:14 | 50.81187 | 17.91583 | 120° | 51km/h | 16153m | 5.9m/s | 0°C | 0% | 0hPa | 0V | 00:00:00 | 00:00:00 | 00:00:00 | |
| POL1PZ | 2026-09-04 12:04:10 | 50.81208 | 17.91506 | 114° | 55km/h | 16133m | 4.5m/s | 0°C | 0% | 0hPa | 0V | 00:00:00 | 00:00:00 | 00:00:00 | |
| SQ6EMJ | 2026-09-04 12:03:55 | 50.81281 | 17.91180 | 110° | 57km/h | 16063m | 5.1m/s | 0°C | 0% | 0hPa | 0V | 00:00:00 | 00:00:00 | 00:00:00 | |
| OK1ALN | 2026-09-04 12:03:53 | 50.81290 | 17.91139 | 107° | 55km/h | 16054m | 5.5m/s | 0°C | 0% | 0hPa | 0V | 00:00:00 | 00:00:00 | 00:00:00 | |
| POL1PZ | 2026-09-04 12:03:49 | 50.81307 | 17.91051 | 111° | 62km/h | 16036m | 3.6m/s | 0°C | 0% | 0hPa | 0V | 00:00:00 | 00:00:00 | 00:00:00 | |
| SQ6EMJ | 2026-09-04 12:03:48 | 50.81312 | 17.91027 | 108° | 60km/h | 16032m | 4.3m/s | 0°C | 0% | 0hPa | 0V | 00:00:00 | 00:00:00 | 00:00:00 | |
| OK1ALN | 2026-09-04 12:03:33 | 50.81368 | 17.90754 | 107° | 40km/h | 15963m | 4.3m/s | 0°C | 0% | 0hPa | 0V | 00:00:00 | 00:00:00 | 00:00:00 | |
| POL1PZ | 2026-09-04 12:03:29 | 50.81379 | 17.90690 | 104° | 47km/h | 15946m | 3.7m/s | 0°C | 0% | 0hPa | 0V | 00:00:00 | 00:00:00 | 00:00:00 | |
| SP3BTT-10 | 2026-09-04 12:03:28 | 50.81382 | 17.90672 | 109° | 51km/h | 15941m | 5.1m/s | !°C | 0% | 0hPa | 0V | 00:00:00 | 00:00:00 | 00:00:00 | |
| SQ6EMJ | 2026-09-04 12:03:23 | 50.81404 | 17.90590 | 112° | 46km/h | 15918m | 4.0m/s | 0°C | 0% | 0hPa | 0V | 00:00:00 | 00:00:00 | 00:00:00 | |
| SQ6EMJ | 2026-09-04 12:03:15 | 50.81440 | 17.90454 | 116° | 42km/h | 15880m | 4.2m/s | 0°C | 0% | 0hPa | 0V | 00:00:00 | 00:00:00 | 00:00:00 | |
| SQ6EMJ | 2026-09-04 12:03:10 | 50.81459 | 17.90378 | 114° | 49km/h | 15858m | 5.4m/s | 0°C | 0% | 0hPa | 0V | 00:00:00 | 00:00:00 | 00:00:00 | |
| POL1PZ | 2026-09-04 12:03:08 | 50.81467 | 17.90341 | 110° | 49km/h | 15850m | 3.5m/s | 0°C | 0% | 0hPa | 0V | 00:00:00 | 00:00:00 | 00:00:00 | |
| SQ6EMJ | 2026-09-04 12:03:05 | 50.81483 | 17.90290 | 120° | 46km/h | 15836m | 3.7m/s | 0°C | 0% | 0hPa | 0V | 00:00:00 | 00:00:00 | 00:00:00 | |
| OK1ALN | 2026-09-04 12:03:01 | 50.81501 | 17.90225 | 117° | 51km/h | 15816m | 5.3m/s | 0°C | 0% | 0hPa | 0V | 00:00:00 | 00:00:00 | 00:00:00 | |
| SQ6EMJ | 2026-09-04 12:02:56 | 50.81524 | 17.90139 | 115° | 42km/h | 15793m | 5.9m/s | 0°C | 0% | 0hPa | 0V | 00:00:00 | 00:00:00 | 00:00:00 | |
| SQ6EMJ | 2026-09-04 12:02:48 | 50.81563 | 17.90009 | 109° | 47km/h | 15755m | 4.7m/s | 0°C | 0% | 0hPa | 0V | 00:00:00 | 00:00:00 | 00:00:00 | |
| POL1PZ | 2026-09-04 12:02:47 | 50.81567 | 17.89991 | 109° | 47km/h | 15750m | 6.2m/s | 0°C | 0% | 0hPa | 0V | 00:00:00 | 00:00:00 | 00:00:00 | |
| SQ6EMJ | 2026-09-04 12:02:42 | 50.81590 | 17.89907 | 120° | 49km/h | 15727m | 4.6m/s | 0°C | 0% | 0hPa | 0V | 00:00:00 | 00:00:00 | 00:00:00 | |
| OK1ALN | 2026-09-04 12:02:40 | 50.81604 | 17.89870 | 122° | 57km/h | 15719m | 4.0m/s | 0°C | 0% | 0hPa | 0V | 00:00:00 | 00:00:00 | 00:00:00 | |
| SQ6EMJ | 2026-09-04 12:02:37 | 50.81622 | 17.89809 | 111° | 51km/h | 15706m | 4.4m/s | 0°C | 0% | 0hPa | 0V | 00:00:00 | 00:00:00 | 00:00:00 | |
| SQ6EMJ | 2026-09-04 12:02:32 | 50.81651 | 17.89721 | 117° | 51km/h | 15680m | 4.1m/s | 0°C | 0% | 0hPa | 0V | 00:00:00 | 00:00:00 | 00:00:00 | |
| SP3BTT-10 | 2026-09-04 12:02:28 | 50.81679 | 17.89645 | 118° | 71km/h | 15664m | 4.8m/s | 0°C | 0% | 0hPa | 0V | 00:00:00 | 00:00:00 | 00:00:00 | |
| POL1PZ | 2026-09-04 12:02:26 | 50.81689 | 17.89606 | 110° | 46km/h | 15655m | 6.1m/s | 0°C | 0% | 0hPa | 0V | 00:00:00 | 00:00:00 | 00:00:00 | |
| SQ6EMJ | 2026-09-04 12:02:20 | 50.81716 | 17.89508 | 125° | 62km/h | 15626m | 5.0m/s | 0°C | 0% | 0hPa | 0V | 00:00:00 | 00:00:00 | 00:00:00 | |
| OK1ALN | 2026-09-04 12:02:19 | 50.81725 | 17.89487 | 122° | 66km/h | 15622m | 4.1m/s | 0°C | 0% | 0hPa | 0V | 00:00:00 | 00:00:00 | 00:00:00 | |
| SQ6EMJ | 2026-09-04 12:02:15 | 50.81749 | 17.89405 | 115° | 44km/h | 15603m | 5.6m/s | 0°C | 0% | 0hPa | 0V | 00:00:00 | 00:00:00 | 00:00:00 | |
| SQ6EMJ | 2026-09-04 12:02:10 | 50.81773 | 17.89314 | 116° | 58km/h | 15582m | 4.0m/s | 0°C | 0% | 0hPa | 0V | 00:00:00 | 00:00:00 | 00:00:00 | |
| POL1PZ | 2026-09-04 12:02:05 | 50.81808 | 17.89204 | 111° | 64km/h | 15560m | 3.6m/s | 0°C | 0% | 0hPa | 0V | 00:00:00 | 00:00:00 | 00:00:00 | |
| SQ6EMJ | 2026-09-04 12:01:59 | 50.81850 | 17.89068 | 119° | 68km/h | 15534m | 4.2m/s | 0°C | 0% | 0hPa | 0V | 00:00:00 | 00:00:00 | 00:00:00 | |
| SQ6EMJ | 2026-09-04 12:01:54 | 50.81894 | 17.88951 | 117° | 68km/h | 15509m | 4.9m/s | 0°C | 0% | 0hPa | 0V | 00:00:00 | 00:00:00 | 00:00:00 | |
| SQ6EMJ | 2026-09-04 12:01:47 | 50.81951 | 17.88790 | 118° | 73km/h | 15477m | 5.6m/s | 0°C | 0% | 0hPa | 0V | 00:00:00 | 00:00:00 | 00:00:00 | |
| POL1PZ | 2026-09-04 12:01:41 | 50.82003 | 17.88630 | 121° | 64km/h | 15449m | 4.1m/s | 0°C | 0% | 0hPa | 0V | 00:00:00 | 00:00:00 | 00:00:00 | |
| SQ6EMJ | 2026-09-04 12:01:35 | 50.82047 | 17.88484 | 120° | 78km/h | 15419m | 5.4m/s | 0°C | 0% | 0hPa | 0V | 00:00:00 | 00:00:00 | 00:00:00 | |
| SQ6EMJ | 2026-09-04 12:01:29 | 50.82106 | 17.88323 | 119° | 75km/h | 15391m | 5.1m/s | 0°C | 0% | 0hPa | 0V | 00:00:00 | 00:00:00 | 00:00:00 | |
| SQ6EMJ | 2026-09-04 12:01:23 | 50.82156 | 17.88166 | 121° | 77km/h | 15365m | 5.5m/s | 0°C | 0% | 0hPa | 0V | 00:00:00 | 00:00:00 | 00:00:00 | |
| POL1PZ | 2026-09-04 12:01:20 | 50.82184 | 17.88085 | 121° | 80km/h | 15351m | 4.4m/s | 0°C | 0% | 0hPa | 0V | 00:00:00 | 00:00:00 | 00:00:00 | |
| SQ6EMJ | 2026-09-04 12:01:18 | 50.82204 | 17.88030 | 117° | 78km/h | 15342m | 5.0m/s | 0°C | 0% | 0hPa | 0V | 00:00:00 | 00:00:00 | 00:00:00 | |
| SQ6EMJ | 2026-09-04 12:01:13 | 50.82245 | 17.87901 | 123° | 71km/h | 15320m | 5.3m/s | 0°C | 0% | 0hPa | 0V | 00:00:00 | 00:00:00 | 00:00:00 | |
| SP3BTT-10 | 2026-09-04 12:01:12 | 50.82255 | 17.87877 | 120° | 71km/h | 15315m | 5.1m/s | 0°C | 0% | 0hPa | 0V | 00:00:00 | 00:00:00 | 00:00:00 | |
| SQ6EMJ | 2026-09-04 12:01:08 | 50.82292 | 17.87773 | 120° | 77km/h | 15295m | 4.4m/s | 0°C | 0% | 0hPa | 0V | 00:00:00 | 00:00:00 | 00:00:00 | |
| SQ6EMJ | 2026-09-04 12:01:02 | 50.82344 | 17.87616 | 119° | 71km/h | 15265m | 4.3m/s | 0°C | 0% | 0hPa | 0V | 00:00:00 | 00:00:00 | 00:00:00 | |
| SQ6EMJ | 2026-09-04 12:00:56 | 50.82396 | 17.87460 | 115° | 75km/h | 15236m | 5.7m/s | 0°C | 0% | 0hPa | 0V | 00:00:00 | 00:00:00 | 00:00:00 | |
| SQ6EMJ | 2026-09-04 12:00:51 | 50.82432 | 17.87334 | 119° | 64km/h | 15212m | 5.8m/s | 0°C | 0% | 0hPa | 0V | 00:00:00 | 00:00:00 | 00:00:00 | |
| SP3BTT-10 | 2026-09-04 12:00:42 | 50.82504 | 17.87101 | 110° | 71km/h | 15171m | 3.4m/s | 0°C | 0% | 0hPa | 0V | 00:00:00 | 00:00:00 | 00:00:00 | |
| SQ6EMJ | 2026-09-04 12:00:39 | 50.82524 | 17.87019 | 117° | 71km/h | 15158m | 4.1m/s | 0°C | 0% | 0hPa | 0V | 00:00:00 | 00:00:00 | 00:00:00 | |
| SQ6EMJ | 2026-09-04 12:00:33 | 50.82571 | 17.86852 | 115° | 66km/h | 15131m | 4.1m/s | 0°C | 0% | 0hPa | 0V | 00:00:00 | 00:00:00 | 00:00:00 | |
| SQ6EMJ | 2026-09-04 12:00:27 | 50.82619 | 17.86709 | 123° | 73km/h | 15105m | 3.8m/s | 0°C | 0% | 0hPa | 0V | 00:00:00 | 00:00:00 | 00:00:00 | |
| SQ6EMJ | 2026-09-04 12:00:21 | 50.82662 | 17.86561 | 125° | 62km/h | 15079m | 4.2m/s | 0°C | 0% | 0hPa | 0V | 00:00:00 | 00:00:00 | 00:00:00 | |
| OK1ALN | 2026-09-04 12:00:18 | 50.82691 | 17.86495 | 124° | 68km/h | 15066m | 3.9m/s | 0°C | 0% | 0hPa | 0V | 00:00:00 | 00:00:00 | 00:00:00 | |
| SQ6EMJ | 2026-09-04 12:00:16 | 50.82717 | 17.86430 | 120° | 66km/h | 15051m | 4.7m/s | 0°C | 0% | 0hPa | 0V | 00:00:00 | 00:00:00 | 00:00:00 | |
| SQ6EMJ | 2026-09-04 12:00:10 | 50.82758 | 17.86304 | 123° | 66km/h | 15029m | 3.5m/s | 0°C | 0% | 0hPa | 0V | 00:00:00 | 00:00:00 | 00:00:00 | |
| SQ6EMJ | 2026-09-04 12:00:04 | 50.82807 | 17.86163 | 118° | 60km/h | 15002m | 4.6m/s | 0°C | 0% | 0hPa | 0V | 00:00:00 | 00:00:00 | 00:00:00 | |
| SQ6EMJ | 2026-09-04 11:59:59 | 50.82845 | 17.86044 | 123° | 68km/h | 14980m | 4.3m/s | 0°C | 0% | 0hPa | 0V | 00:00:00 | 00:00:00 | 00:00:00 | |
| SQ6EMJ | 2026-09-04 11:59:53 | 50.82901 | 17.85907 | 121° | 66km/h | 14952m | 5.6m/s | 0°C | 0% | 0hPa | 0V | 00:00:00 | 00:00:00 | 00:00:00 | |
| SQ6EMJ | 2026-09-04 11:59:48 | 50.82941 | 17.85786 | 126° | 71km/h | 14931m | 3.9m/s | 0°C | 0% | 0hPa | 0V | 00:00:00 | 00:00:00 | 00:00:00 | |
| SQ6EMJ | 2026-09-04 11:59:43 | 50.82993 | 17.85669 | 124° | 68km/h | 14907m | 3.9m/s | 0°C | 0% | 0hPa | 0V | 00:00:00 | 00:00:00 | 00:00:00 | |
| SP3BTT-10 | 2026-09-04 11:59:42 | 50.83002 | 17.85646 | 123° | 80km/h | 14902m | 5.1m/s | 0°C | 0% | 0hPa | 0V | 00:00:00 | 00:00:00 | 00:00:00 | |
| SQ6EMJ | 2026-09-04 11:59:37 | 50.83056 | 17.85518 | 127° | 80km/h | 14881m | 5.5m/s | 0°C | 0% | 0hPa | 0V | 00:00:00 | 00:00:00 | 00:00:00 | |
| SQ6EMJ | 2026-09-04 11:59:31 | 50.83130 | 17.85369 | 126° | 80km/h | 14854m | 3.9m/s | 0°C | 0% | 0hPa | 0V | 00:00:00 | 00:00:00 | 00:00:00 | |
| SQ6EMJ | 2026-09-04 11:59:26 | 50.83186 | 17.85246 | 128° | 82km/h | 14832m | 3.6m/s | 0°C | 0% | 0hPa | 0V | 00:00:00 | 00:00:00 | 00:00:00 | |
| SQ6EMJ | 2026-09-04 11:59:21 | 50.83243 | 17.85114 | 115° | 84km/h | 14809m | 4.1m/s | 0°C | 0% | 0hPa | 0V | 00:00:00 | 00:00:00 | 00:00:00 | |
| SQ6EMJ | 2026-09-04 11:59:14 | 50.83311 | 17.84908 | 115° | 84km/h | 14779m | 3.6m/s | 0°C | 0% | 0hPa | 0V | 00:00:00 | 00:00:00 | 00:00:00 | |
| SP3BTT-10 | 2026-09-04 11:59:12 | 50.83328 | 17.84852 | 117° | 69km/h | 14769m | 5.4m/s | 0°C | 0% | 0hPa | 0V | 00:00:00 | 00:00:00 | 00:00:00 | |
| SQ6EMJ | 2026-09-04 11:59:08 | 50.83363 | 17.84757 | 116° | 82km/h | 14750m | 4.1m/s | 0°C | 0% | 0hPa | 0V | 00:00:00 | 00:00:00 | 00:00:00 | |
| SQ6EMJ | 2026-09-04 11:59:03 | 50.83398 | 17.84601 | 114° | 80km/h | 14729m | 6.1m/s | 0°C | 0% | 0hPa | 0V | 00:00:00 | 00:00:00 | 00:00:00 | |
| SQ6EMJ | 2026-09-04 11:58:58 | 50.83435 | 17.84469 | 111° | 75km/h | 14702m | 4.9m/s | 0°C | 0% | 0hPa | 0V | 00:00:00 | 00:00:00 | 00:00:00 | |
| SQ6EMJ | 2026-09-04 11:58:52 | 50.83475 | 17.84302 | 115° | 66km/h | 14674m | 5.9m/s | 0°C | 0% | 0hPa | 0V | 00:00:00 | 00:00:00 | 00:00:00 | |
| SQ6EMJ | 2026-09-04 11:58:46 | 50.83509 | 17.84151 | 113° | 82km/h | 14647m | 2.8m/s | 0°C | 0% | 0hPa | 0V | 00:00:00 | 00:00:00 | 00:00:00 | |
| SQ6EMJ | 2026-09-04 11:58:39 | 50.83554 | 17.83983 | 104° | 55km/h | 14616m | 4.4m/s | 0°C | 0% | 0hPa | 0V | 00:00:00 | 00:00:00 | 00:00:00 | |
| SQ6EMJ | 2026-09-04 11:58:34 | 50.83601 | 17.83833 | 123° | 75km/h | 14582m | 5.2m/s | 0°C | 0% | 0hPa | 0V | 00:00:00 | 00:00:00 | 00:00:00 | |
| SQ6EMJ | 2026-09-04 11:58:28 | 50.83624 | 17.83729 | 117° | 62km/h | 14551m | 5.1m/s | 0°C | 0% | 0hPa | 0V | 00:00:00 | 00:00:00 | 00:00:00 | |
| SQ6EMJ | 2026-09-04 11:58:22 | 50.83677 | 17.83565 | 122° | 51km/h | 14516m | 8.8m/s | 0°C | 0% | 0hPa | 0V | 00:00:00 | 00:00:00 | 00:00:00 | |
| OK1ALN | 2026-09-04 11:58:14 | 50.83734 | 17.83365 | 112° | 86km/h | 14473m | 3.5m/s | 0°C | 0% | 0hPa | 0V | 00:00:00 | 00:00:00 | 00:00:00 | |
| SP3BTT-10 | 2026-09-04 11:58:12 | 50.83754 | 17.83306 | 124° | 91km/h | 14462m | 8.6m/s | 0°C | 0% | 0hPa | 0V | 00:00:00 | 00:00:00 | 00:00:00 | |
| SQ6EMJ | 2026-09-04 11:58:08 | 50.83800 | 17.83205 | 126° | 77km/h | 14433m | 5.8m/s | 0°C | 0% | 0hPa | 0V | 00:00:00 | 00:00:00 | 00:00:00 | |
| SQ6EMJ | 2026-09-04 11:58:00 | 50.83900 | 17.82983 | 119° | 99km/h | 14395m | 4.7m/s | 0°C | 0% | 0hPa | 0V | 00:00:00 | 00:00:00 | 00:00:00 | |
| SQ6EMJ | 2026-09-04 11:57:53 | 50.83988 | 17.82751 | 123° | 93km/h | 14362m | 5.7m/s | 0°C | 0% | 0hPa | 0V | 00:00:00 | 00:00:00 | 00:00:00 | |
| SQ6EMJ | 2026-09-04 11:57:47 | 50.84060 | 17.82543 | 125° | 102km/h | 14336m | 4.4m/s | 0°C | 0% | 0hPa | 0V | 00:00:00 | 00:00:00 | 00:00:00 | |
| SQ6EMJ | 2026-09-04 11:57:43 | 50.84129 | 17.82382 | 117° | 91km/h | 14314m | 4.5m/s | 0°C | 0% | 0hPa | 0V | 00:00:00 | 00:00:00 | 00:00:00 | |
| OK1ALN | 2026-09-04 11:57:38 | 50.84171 | 17.82240 | 119° | 99km/h | 14297m | 5.8m/s | 0°C | 0% | 0hPa | 0V | 00:00:00 | 00:00:00 | 00:00:00 | |
| SQ6EMJ | 2026-09-04 11:57:33 | 50.84234 | 17.82073 | 121° | 100km/h | 14276m | 4.2m/s | 0°C | 0% | 0hPa | 0V | 00:00:00 | 00:00:00 | 00:00:00 | |
| SP3BTT-10 | 2026-09-04 11:57:11 | 50.84473 | 17.81326 | 120° | 97km/h | 14182m | 5.4m/s | 0°C | 0% | 0hPa | 0V | 00:00:00 | 00:00:00 | 00:00:00 | |
| SQ6EMJ | 2026-09-04 11:57:07 | 50.84521 | 17.81179 | 116° | 106km/h | 14164m | 4.7m/s | 0°C | 0% | 0hPa | 0V | 00:00:00 | 00:00:00 | 00:00:00 | |
| SQ6EMJ | 2026-09-04 11:57:00 | 50.84591 | 17.80914 | 111° | 97km/h | 14133m | 3.3m/s | 0°C | 0% | 0hPa | 0V | 00:00:00 | 00:00:00 | 00:00:00 | |
| SQ6EMJ | 2026-09-04 11:56:55 | 50.84637 | 17.80720 | 110° | 104km/h | 14112m | 4.9m/s | 0°C | 0% | 0hPa | 0V | 00:00:00 | 00:00:00 | 00:00:00 | |
| SQ6EMJ | 2026-09-04 11:56:49 | 50.84682 | 17.80493 | 110° | 99km/h | 14082m | 4.9m/s | 0°C | 0% | 0hPa | 0V | 00:00:00 | 00:00:00 | 00:00:00 | |
| SQ6EMJ | 2026-09-04 11:56:31 | 50.84825 | 17.79826 | 103° | 100km/h | 14001m | 5.7m/s | 0°C | 0% | 0hPa | 0V | 00:00:00 | 00:00:00 | 00:00:00 | |
| SQ6EMJ | 2026-09-04 11:56:26 | 50.84860 | 17.79651 | 122° | 97km/h | 13975m | 7.3m/s | 0°C | 0% | 0hPa | 0V | 00:00:00 | 00:00:00 | 00:00:00 | |
| SQ6EMJ | 2026-09-04 11:56:19 | 50.84930 | 17.79419 | 108° | 68km/h | 13929m | 3.5m/s | 0°C | 0% | 0hPa | 0V | 00:00:00 | 00:00:00 | 00:00:00 | |
| SP3BTT-10 | 2026-09-04 11:56:13 | 50.84996 | 17.79226 | 108° | 100km/h | 13895m | 6.2m/s | 0°C | 0% | 0hPa | 0V | 00:00:00 | 00:00:00 | 00:00:00 | |
| SQ6EMJ | 2026-09-04 11:56:04 | 50.85095 | 17.78954 | 124° | 102km/h | 13844m | 6.8m/s | 0°C | 0% | 0hPa | 0V | 00:00:00 | 00:00:00 | 00:00:00 | |
| SQ6EMJ | 2026-09-04 11:55:58 | 50.85175 | 17.78764 | 118° | 91km/h | 13809m | 2.5m/s | 0°C | 0% | 0hPa | 0V | 00:00:00 | 00:00:00 | 00:00:00 | |
| SQ6EMJ | 2026-09-04 11:55:51 | 50.85274 | 17.78566 | 124° | 102km/h | 13772m | 4.1m/s | 0°C | 0% | 0hPa | 0V | 00:00:00 | 00:00:00 | 00:00:00 | |
| SQ6EMJ | 2026-09-04 11:55:44 | 50.85383 | 17.78332 | 127° | 102km/h | 13738m | 6.2m/s | 0°C | 0% | 0hPa | 0V | 00:00:00 | 00:00:00 | 00:00:00 | |
| SQ6EMJ | 2026-09-04 11:55:39 | 50.85460 | 17.78162 | 130° | 104km/h | 13713m | 4.9m/s | 0°C | 0% | 0hPa | 0V | 00:00:00 | 00:00:00 | 00:00:00 | |
| SQ6EMJ | 2026-09-04 11:55:33 | 50.85563 | 17.77961 | 127° | 113km/h | 13684m | 6.1m/s | 0°C | 0% | 0hPa | 0V | 00:00:00 | 00:00:00 | 00:00:00 | |
| SQ6EMJ | 2026-09-04 11:55:26 | 50.85685 | 17.77700 | 130° | 117km/h | 13649m | 5.3m/s | 0°C | 0% | 0hPa | 0V | 00:00:00 | 00:00:00 | 00:00:00 | |
| SQ6EMJ | 2026-09-04 11:55:20 | 50.85793 | 17.77474 | 126° | 119km/h | 13619m | 5.9m/s | 0°C | 0% | 0hPa | 0V | 00:00:00 | 00:00:00 | 00:00:00 | |
| SP3BTT-10 | 2026-09-04 11:55:13 | 50.85914 | 17.77211 | 128° | 120km/h | 13584m | 6.3m/s | 0°C | 0% | 0hPa | 0V | 00:00:00 | 00:00:00 | 00:00:00 | |
| SQ6EMJ | 2026-09-04 11:55:11 | 50.85947 | 17.77139 | 125° | 113km/h | 13574m | 4.2m/s | 0°C | 0% | 0hPa | 0V | 00:00:00 | 00:00:00 | 00:00:00 | |
| SQ6EMJ | 2026-09-04 11:54:58 | 50.86164 | 17.76638 | 125° | 120km/h | 13509m | 5.6m/s | 0°C | 0% | 0hPa | 0V | 00:00:00 | 00:00:00 | 00:00:00 | |
| SQ6EMJ | 2026-09-04 11:54:52 | 50.86263 | 17.76400 | 121° | 119km/h | 13478m | 5.6m/s | 0°C | 0% | 0hPa | 0V | 00:00:00 | 00:00:00 | 00:00:00 | |
| SQ6EMJ | 2026-09-04 11:54:46 | 50.86360 | 17.76168 | 126° | 122km/h | 13451m | 5.8m/s | 0°C | 0% | 0hPa | 0V | 00:00:00 | 00:00:00 | 00:00:00 | |
| SQ6EMJ | 2026-09-04 11:54:41 | 50.86445 | 17.75973 | 126° | 117km/h | 13424m | 5.6m/s | 0°C | 0% | 0hPa | 0V | 00:00:00 | 00:00:00 | 00:00:00 | |
| SQ6EMJ | 2026-09-04 11:54:35 | 50.86549 | 17.75746 | 123° | 131km/h | 13393m | 7.4m/s | 0°C | 0% | 0hPa | 0V | 00:00:00 | 00:00:00 | 00:00:00 | |
| SQ6EMJ | 2026-09-04 11:54:27 | 50.86692 | 17.75424 | 128° | 124km/h | 13351m | 4.5m/s | 0°C | 0% | 0hPa | 0V | 00:00:00 | 00:00:00 | 00:00:00 | |
| SP3BTT-10 | 2026-09-04 11:54:26 | 50.86711 | 17.75384 | 127° | 131km/h | 13346m | 6.9m/s | 0°C | 0% | 0hPa | 0V | 00:00:00 | 00:00:00 | 00:00:00 | |
| SQ6EMJ | 2026-09-04 11:54:22 | 50.86787 | 17.75225 | 127° | 128km/h | 13327m | 4.2m/s | 0°C | 0% | 0hPa | 0V | 00:00:00 | 00:00:00 | 00:00:00 | |
| SQ6EMJ | 2026-09-04 11:54:15 | 50.86923 | 17.74940 | 134° | 126km/h | 13291m | 5.9m/s | 0°C | 0% | 0hPa | 0V | 00:00:00 | 00:00:00 | 00:00:00 | |
| SQ6EMJ | 2026-09-04 11:54:09 | 50.87047 | 17.74705 | 132° | 130km/h | 13262m | 6.7m/s | 0°C | 0% | 0hPa | 0V | 00:00:00 | 00:00:00 | 00:00:00 | |
| SQ6EMJ | 2026-09-04 11:54:04 | 50.87146 | 17.74492 | 125° | 133km/h | 13237m | 6.0m/s | 0°C | 0% | 0hPa | 0V | 00:00:00 | 00:00:00 | 00:00:00 | |
| SQ6EMJ | 2026-09-04 11:53:58 | 50.87271 | 17.74250 | 128° | 142km/h | 13205m | 7.1m/s | 0°C | 0% | 0hPa | 0V | 00:00:00 | 00:00:00 | 00:00:00 | |
| SP3BTT-10 | 2026-09-04 11:53:56 | 50.87315 | 17.74160 | 129° | 148km/h | 13194m | 7.6m/s | 0°C | 0% | 0hPa | 0V | 00:00:00 | 00:00:00 | 00:00:00 | |
| SQ6EMJ | 2026-09-04 11:53:52 | 50.87400 | 17.73987 | 126° | 142km/h | 13175m | 5.4m/s | 0°C | 0% | 0hPa | 0V | 00:00:00 | 00:00:00 | 00:00:00 | |
| SQ6EMJ | 2026-09-04 11:53:46 | 50.87529 | 17.73708 | 124° | 142km/h | 13146m | 4.1m/s | 0°C | 0% | 0hPa | 0V | 00:00:00 | 00:00:00 | 00:00:00 | |
| SQ6EMJ | 2026-09-04 11:53:41 | 50.87637 | 17.73482 | 128° | 148km/h | 13122m | 5.7m/s | 0°C | 0% | 0hPa | 0V | 00:00:00 | 00:00:00 | 00:00:00 | |
| SQ6EMJ | 2026-09-04 11:53:35 | 50.87778 | 17.73182 | 125° | 150km/h | 13088m | 5.4m/s | 0°C | 0% | 0hPa | 0V | 00:00:00 | 00:00:00 | 00:00:00 | |
| SQ6EMJ | 2026-09-04 11:53:29 | 50.87912 | 17.72893 | 127° | 150km/h | 13053m | 5.1m/s | 0°C | 0% | 0hPa | 0V | 00:00:00 | 00:00:00 | 00:00:00 | |
| SQ6EMJ | 2026-09-04 11:53:24 | 50.88025 | 17.72644 | 124° | 153km/h | 13025m | 4.4m/s | 0°C | 0% | 0hPa | 0V | 00:00:00 | 00:00:00 | 00:00:00 | |
| SQ6EMJ | 2026-09-04 11:53:19 | 50.88135 | 17.72397 | 125° | 148km/h | 12999m | 4.6m/s | 0°C | 0% | 0hPa | 0V | 00:00:00 | 00:00:00 | 00:00:00 | |
| SQ6EMJ | 2026-09-04 11:53:11 | 50.88309 | 17.71994 | 129° | 141km/h | 12956m | 4.4m/s | 0°C | 0% | 0hPa | 0V | 00:00:00 | 00:00:00 | 00:00:00 | |
| SP3BTT-10 | 2026-09-04 11:53:10 | 50.88331 | 17.71951 | 132° | 150km/h | 12951m | 5.2m/s | 0°C | 0% | 0hPa | 0V | 00:00:00 | 00:00:00 | 00:00:00 | |
| SQ6EMJ | 2026-09-04 11:53:06 | 50.88419 | 17.71760 | 120° | 161km/h | 12927m | 6.6m/s | 0°C | 0% | 0hPa | 0V | 00:00:00 | 00:00:00 | 00:00:00 | |
| SQ6EMJ | 2026-09-04 11:53:00 | 50.88544 | 17.71455 | 128° | 153km/h | 12889m | 3.5m/s | 0°C | 0% | 0hPa | 0V | 00:00:00 | 00:00:00 | 00:00:00 | |
| SQ6EMJ | 2026-09-04 11:52:54 | 50.88670 | 17.71154 | 121° | 155km/h | 12852m | 3.6m/s | 0°C | 0% | 0hPa | 0V | 00:00:00 | 00:00:00 | 00:00:00 | |
| SQ6EMJ | 2026-09-04 11:52:49 | 50.88775 | 17.70894 | 127° | 157km/h | 12822m | 5.2m/s | 0°C | 0% | 0hPa | 0V | 00:00:00 | 00:00:00 | 00:00:00 | |
| SQ6EMJ | 2026-09-04 11:52:43 | 50.88895 | 17.70577 | 118° | 151km/h | 12787m | 8.9m/s | 0°C | 0% | 0hPa | 0V | 00:00:00 | 00:00:00 | 00:00:00 | |
| SQ6EMJ | 2026-09-04 11:52:37 | 50.89021 | 17.70274 | 125° | 150km/h | 12751m | 5.9m/s | 0°C | 0% | 0hPa | 0V | 00:00:00 | 00:00:00 | 00:00:00 | |
| SQ6EMJ | 2026-09-04 11:52:31 | 50.89138 | 17.69966 | 123° | 146km/h | 12718m | 2.9m/s | 0°C | 0% | 0hPa | 0V | 00:00:00 | 00:00:00 | 00:00:00 | |
| POL1PZ | 2026-09-04 11:52:29 | 50.89179 | 17.69865 | 125° | 153km/h | 12708m | 5.9m/s | 0°C | 0% | 0hPa | 0V | 00:00:00 | 00:00:00 | 00:00:00 | |
| SQ6EMJ | 2026-09-04 11:52:25 | 50.89264 | 17.69653 | 123° | 155km/h | 12688m | 5.3m/s | 0°C | 0% | 0hPa | 0V | 00:00:00 | 00:00:00 | 00:00:00 | |
| SQ6EMJ | 2026-09-04 11:52:17 | 50.89420 | 17.69246 | 119° | 155km/h | 12636m | 7.2m/s | 0°C | 0% | 0hPa | 0V | 00:00:00 | 00:00:00 | 00:00:00 | |
| SQ6EMJ | 2026-09-04 11:52:12 | 50.89527 | 17.68993 | 124° | 155km/h | 12609m | 5.0m/s | 0°C | 0% | 0hPa | 0V | 00:00:00 | 00:00:00 | 00:00:00 | |
| SP3BTT-10 | 2026-09-04 11:52:09 | 50.89589 | 17.68836 | 121° | 155km/h | 12593m | 10.1m/s | 0°C | 0% | 0hPa | 0V | 00:00:00 | 00:00:00 | 00:00:00 | |
| SQ6EMJ | 2026-09-04 11:52:06 | 50.89649 | 17.68675 | 121° | 151km/h | 12573m | 4.2m/s | 0°C | 0% | 0hPa | 0V | 00:00:00 | 00:00:00 | 00:00:00 | |
| SQ6EMJ | 2026-09-04 11:52:00 | 50.89772 | 17.68366 | 125° | 148km/h | 12535m | 4.1m/s | 0°C | 0% | 0hPa | 0V | 00:00:00 | 00:00:00 | 00:00:00 | |
| SQ6EMJ | 2026-09-04 11:51:54 | 50.89895 | 17.68068 | 122° | 151km/h | 12494m | 5.1m/s | 0°C | 0% | 0hPa | 0V | 00:00:00 | 00:00:00 | 00:00:00 | |
| SQ6EMJ | 2026-09-04 11:51:48 | 50.90010 | 17.67768 | 126° | 141km/h | 12463m | 6.2m/s | 0°C | 0% | 0hPa | 0V | 00:00:00 | 00:00:00 | 00:00:00 | |
| POL1PZ | 2026-09-04 11:51:46 | 50.90054 | 17.67669 | 125° | 162km/h | 12451m | 5.0m/s | 0°C | 0% | 0hPa | 0V | 00:00:00 | 00:00:00 | 00:00:00 | |
| SQ6EMJ | 2026-09-04 11:51:42 | 50.90141 | 17.67454 | 122° | 144km/h | 12433m | 6.4m/s | 0°C | 0% | 0hPa | 0V | 00:00:00 | 00:00:00 | 00:00:00 | |
| SQ6EMJ | 2026-09-04 11:51:37 | 50.90233 | 17.67214 | 124° | 146km/h | 12407m | 6.6m/s | 0°C | 0% | 0hPa | 0V | 00:00:00 | 00:00:00 | 00:00:00 | |
| SQ6EMJ | 2026-09-04 11:51:32 | 50.90344 | 17.66960 | 125° | 151km/h | 12376m | 4.6m/s | 0°C | 0% | 0hPa | 0V | 00:00:00 | 00:00:00 | 00:00:00 | |
| SQ6EMJ | 2026-09-04 11:51:26 | 50.90465 | 17.66683 | 125° | 144km/h | 12333m | 8.8m/s | 0°C | 0% | 0hPa | 0V | 00:00:00 | 00:00:00 | 00:00:00 | |
| SQ6EMJ | 2026-09-04 11:51:19 | 50.90612 | 17.66334 | 125° | 148km/h | 12296m | 3.5m/s | 0°C | 0% | 0hPa | 0V | 00:00:00 | 00:00:00 | 00:00:00 | |
| SP3BTT-10 | 2026-09-04 11:51:16 | 50.90673 | 17.66192 | 124° | 151km/h | 12282m | 7.3m/s | 0°C | 0% | 0hPa | 0V | 00:00:00 | 00:00:00 | 00:00:00 | |
| SQ6EMJ | 2026-09-04 11:51:13 | 50.90737 | 17.66045 | 128° | 153km/h | 12266m | 3.4m/s | 0°C | 0% | 0hPa | 0V | 00:00:00 | 00:00:00 | 00:00:00 | |
| SQ6EMJ | 2026-09-04 11:51:08 | 50.90845 | 17.65797 | 122° | 146km/h | 12240m | 7.8m/s | 0°C | 0% | 0hPa | 0V | 00:00:00 | 00:00:00 | 00:00:00 | |
| SQ6EMJ | 2026-09-04 11:51:02 | 50.90966 | 17.65499 | 123° | 144km/h | 12207m | 3.6m/s | 0°C | 0% | 0hPa | 0V | 00:00:00 | 00:00:00 | 00:00:00 | |
| SQ6EMJ | 2026-09-04 11:50:56 | 50.91091 | 17.65203 | 122° | 148km/h | 12175m | 7.1m/s | 0°C | 0% | 0hPa | 0V | 00:00:00 | 00:00:00 | 00:00:00 | |
| SQ6EMJ | 2026-09-04 11:50:51 | 50.91197 | 17.64956 | 126° | 139km/h | 12145m | 2.1m/s | 0°C | 0% | 0hPa | 0V | 00:00:00 | 00:00:00 | 00:00:00 | |
| SQ6EMJ | 2026-09-04 11:50:46 | 50.91289 | 17.64708 | 122° | 150km/h | 12117m | 5.1m/s | 0°C | 0% | 0hPa | 0V | 00:00:00 | 00:00:00 | 00:00:00 | |
| SQ6EMJ | 2026-09-04 11:50:40 | 50.91415 | 17.64422 | 125° | 135km/h | 12087m | 6.6m/s | 0°C | 0% | 0hPa | 0V | 00:00:00 | 00:00:00 | 00:00:00 | |
| SQ6EMJ | 2026-09-04 11:50:34 | 50.91538 | 17.64139 | 126° | 146km/h | 12051m | 9.2m/s | 0°C | 0% | 0hPa | 0V | 00:00:00 | 00:00:00 | 00:00:00 | |
| POL1PZ | 2026-09-04 11:50:33 | 50.91560 | 17.64091 | 125° | 148km/h | 12044m | 4.9m/s | 0°C | 0% | 0hPa | 0V | 00:00:00 | 00:00:00 | 00:00:00 | |
| SQ6EMJ | 2026-09-04 11:50:24 | 50.91737 | 17.63657 | 127° | 141km/h | 11996m | 9.3m/s | 0°C | 0% | 0hPa | 0V | 00:00:00 | 00:00:00 | 00:00:00 | |
| SQ6EMJ | 2026-09-04 11:50:12 | 50.91990 | 17.63056 | 124° | 164km/h | 11932m | 4.1m/s | 0°C | 0% | 0hPa | 0V | 00:00:00 | 00:00:00 | 00:00:00 | |
| POL1PZ | 2026-09-04 11:50:11 | 50.92012 | 17.63000 | 123° | 164km/h | 11928m | 6.2m/s | 0°C | 0% | 0hPa | 0V | 00:00:00 | 00:00:00 | 00:00:00 | |
| SQ6EMJ | 2026-09-04 11:50:04 | 50.92151 | 17.62666 | 123° | 151km/h | 11888m | 4.2m/s | 0°C | 0% | 0hPa | 0V | 00:00:00 | 00:00:00 | 00:00:00 | |
| SP3BTT-10 | 2026-09-04 11:49:58 | 50.92272 | 17.62358 | 126° | 148km/h | 11851m | 5.4m/s | 0°C | 0% | 0hPa | 0V | 00:00:00 | 00:00:00 | 00:00:00 | |
| SQ6EMJ | 2026-09-04 11:49:55 | 50.92336 | 17.62212 | 121° | 141km/h | 11836m | 4.2m/s | 0°C | 0% | 0hPa | 0V | 00:00:00 | 00:00:00 | 00:00:00 | |
| POL1PZ | 2026-09-04 11:49:50 | 50.92423 | 17.61966 | 126° | 146km/h | 11809m | 3.8m/s | 0°C | 0% | 0hPa | 0V | 00:00:00 | 00:00:00 | 00:00:00 | |
| SQ6EMJ | 2026-09-04 11:49:49 | 50.92445 | 17.61918 | 127° | 150km/h | 11803m | 7.8m/s | 0°C | 0% | 0hPa | 0V | 00:00:00 | 00:00:00 | 00:00:00 | |
| SQ6EMJ | 2026-09-04 11:49:44 | 50.92551 | 17.61662 | 121° | 153km/h | 11776m | 6.3m/s | 0°C | 0% | 0hPa | 0V | 00:00:00 | 00:00:00 | 00:00:00 | |
| SQ6EMJ | 2026-09-04 11:49:39 | 50.92657 | 17.61410 | 129° | 146km/h | 11749m | 6.5m/s | 0°C | 0% | 0hPa | 0V | 00:00:00 | 00:00:00 | 00:00:00 | |
| SQ6EMJ | 2026-09-04 11:49:34 | 50.92757 | 17.61166 | 122° | 150km/h | 11723m | 4.7m/s | 0°C | 0% | 0hPa | 0V | 00:00:00 | 00:00:00 | 00:00:00 | |
| POL1PZ | 2026-09-04 11:49:28 | 50.92879 | 17.60872 | 123° | 142km/h | 11676m | 4.0m/s | 0°C | 0% | 0hPa | 0V | 00:00:00 | 00:00:00 | 00:00:00 | |
| SQ6EMJ | 2026-09-04 11:49:27 | 50.92897 | 17.60823 | 120° | 146km/h | 11671m | 4.5m/s | 0°C | 0% | 0hPa | 0V | 00:00:00 | 00:00:00 | 00:00:00 | |
| SQ6EMJ | 2026-09-04 11:49:22 | 50.92999 | 17.60573 | 126° | 141km/h | 11649m | 8.0m/s | 0°C | 0% | 0hPa | 0V | 00:00:00 | 00:00:00 | 00:00:00 | |
| SQ6EMJ | 2026-09-04 11:49:16 | 50.93119 | 17.60284 | 119° | 150km/h | 11618m | 7.8m/s | 0°C | 0% | 0hPa | 0V | 00:00:00 | 00:00:00 | 00:00:00 | |
| SQ6EMJ | 2026-09-04 11:49:11 | 50.93217 | 17.60037 | 129° | 151km/h | 11592m | 3.1m/s | 0°C | 0% | 0hPa | 0V | 00:00:00 | 00:00:00 | 00:00:00 | |
| POL1PZ | 2026-09-04 11:49:07 | 50.93304 | 17.59836 | 120° | 150km/h | 11571m | 7.4m/s | 0°C | 0% | 0hPa | 0V | 00:00:00 | 00:00:00 | 00:00:00 | |
| SQ6EMJ | 2026-09-04 11:49:05 | 50.93339 | 17.59731 | 120° | 148km/h | 11560m | 8.5m/s | 0°C | 0% | 0hPa | 0V | 00:00:00 | 00:00:00 | 00:00:00 | |
| SQ6EMJ | 2026-09-04 11:48:59 | 50.93465 | 17.59442 | 125° | 141km/h | 11527m | 5.3m/s | 0°C | 0% | 0hPa | 0V | 00:00:00 | 00:00:00 | 00:00:00 | |
| SP3BTT-10 | 2026-09-04 11:48:54 | 50.93567 | 17.59195 | 123° | 142km/h | 11499m | 5.8m/s | 0°C | 0% | 0hPa | 0V | 00:00:00 | 00:00:00 | 00:00:00 | |
| SQ6EMJ | 2026-09-04 11:48:48 | 50.93692 | 17.58903 | 126° | 155km/h | 11463m | 3.5m/s | 0°C | 0% | 0hPa | 0V | 00:00:00 | 00:00:00 | 00:00:00 | |
| POL1PZ | 2026-09-04 11:48:45 | 50.93757 | 17.58753 | 125° | 146km/h | 11448m | 4.9m/s | 0°C | 0% | 0hPa | 0V | 00:00:00 | 00:00:00 | 00:00:00 | |
| SQ6EMJ | 2026-09-04 11:48:33 | 50.94004 | 17.58168 | 123° | 146km/h | 11386m | 4.1m/s | 0°C | 0% | 0hPa | 0V | 00:00:00 | 00:00:00 | 00:00:00 | |
| POL1PZ | 2026-09-04 11:48:24 | 50.94184 | 17.57733 | 124° | 150km/h | 11338m | 2.6m/s | 0°C | 0% | 0hPa | 0V | 00:00:00 | 00:00:00 | 00:00:00 | |
| SQ6EMJ | 2026-09-04 11:48:18 | 50.94295 | 17.57439 | 126° | 142km/h | 11308m | 6.9m/s | 0°C | 0% | 0hPa | 0V | 00:00:00 | 00:00:00 | 00:00:00 | |
| SQ6EMJ | 2026-09-04 11:48:11 | 50.94437 | 17.57101 | 124° | 133km/h | 11270m | 3.6m/s | 0°C | 0% | 0hPa | 0V | 00:00:00 | 00:00:00 | 00:00:00 | |
| SQ6EMJ | 2026-09-04 11:48:04 | 50.94581 | 17.56756 | 123° | 141km/h | 11235m | 4.7m/s | 0°C | 0% | 0hPa | 0V | 00:00:00 | 00:00:00 | 00:00:00 | |
| POL1PZ | 2026-09-04 11:48:03 | 50.94599 | 17.56709 | 122° | 133km/h | 11229m | 6.9m/s | 0°C | 0% | 0hPa | 0V | 00:00:00 | 00:00:00 | 00:00:00 | |
| SQ6EMJ | 2026-09-04 11:47:57 | 50.94716 | 17.56429 | 127° | 137km/h | 11201m | 3.8m/s | 0°C | 0% | 0hPa | 0V | 00:00:00 | 00:00:00 | 00:00:00 | |
| SP3BTT-10 | 2026-09-04 11:47:52 | 50.94818 | 17.56196 | 123° | 135km/h | 11175m | 6.1m/s | 0°C | 0% | 0hPa | 0V | 00:00:00 | 00:00:00 | 00:00:00 | |
| SQ6EMJ | 2026-09-04 11:47:51 | 50.94836 | 17.56148 | 121° | 137km/h | 11170m | 3.3m/s | 0°C | 0% | 0hPa | 0V | 00:00:00 | 00:00:00 | 00:00:00 | |
| SQ6EMJ | 2026-09-04 11:47:45 | 50.94960 | 17.55859 | 127° | 148km/h | 11135m | 3.8m/s | 0°C | 0% | 0hPa | 0V | 00:00:00 | 00:00:00 | 00:00:00 | |
| POL1PZ | 2026-09-04 11:47:40 | 50.95056 | 17.55610 | 124° | 139km/h | 11109m | 6.2m/s | 0°C | 0% | 0hPa | 0V | 00:00:00 | 00:00:00 | 00:00:00 | |
| SQ6EMJ | 2026-09-04 11:47:35 | 50.95155 | 17.55377 | 122° | 150km/h | 11080m | 4.7m/s | 0°C | 0% | 0hPa | 0V | 00:00:00 | 00:00:00 | 00:00:00 | |
| SQ6EMJ | 2026-09-04 11:47:29 | 50.95276 | 17.55086 | 124° | 131km/h | 11052m | 5.3m/s | 0°C | 0% | 0hPa | 0V | 00:00:00 | 00:00:00 | 00:00:00 | |
| SQ6EMJ | 2026-09-04 11:47:24 | 50.95369 | 17.54842 | 124° | 137km/h | 11024m | 5.3m/s | 0°C | 0% | 0hPa | 0V | 00:00:00 | 00:00:00 | 00:00:00 | |
| POL1PZ | 2026-09-04 11:47:20 | 50.95444 | 17.54670 | 122° | 144km/h | 11005m | 5.6m/s | 0°C | 0% | 0hPa | 0V | 00:00:00 | 00:00:00 | 00:00:00 | |
| SQ6EMJ | 2026-09-04 11:47:19 | 50.95464 | 17.54619 | 122° | 153km/h | 11001m | 3.8m/s | 0°C | 0% | 0hPa | 0V | 00:00:00 | 00:00:00 | 00:00:00 | |
| SQ6EMJ | 2026-09-04 11:47:13 | 50.95575 | 17.54314 | 122° | 128km/h | 10966m | 4.3m/s | 0°C | 0% | 0hPa | 0V | 00:00:00 | 00:00:00 | 00:00:00 | |
| SQ6EMJ | 2026-09-04 11:47:07 | 50.95688 | 17.54053 | 123° | 133km/h | 10931m | 6.7m/s | 0°C | 0% | 0hPa | 0V | 00:00:00 | 00:00:00 | 00:00:00 | |
| SQ6EMJ | 2026-09-04 11:47:01 | 50.95798 | 17.53761 | 125° | 131km/h | 10898m | 5.3m/s | 0°C | 0% | 0hPa | 0V | 00:00:00 | 00:00:00 | 00:00:00 | |
| POL1PZ | 2026-09-04 11:46:59 | 50.95835 | 17.53677 | 125° | 131km/h | 10885m | 3.2m/s | 0°C | 0% | 0hPa | 0V | 00:00:00 | 00:00:00 | 00:00:00 | |
| SQ6EMJ | 2026-09-04 11:46:56 | 50.95897 | 17.53539 | 125° | 151km/h | 10866m | 4.5m/s | 0°C | 0% | 0hPa | 0V | 00:00:00 | 00:00:00 | 00:00:00 | |
| SQ6EMJ | 2026-09-04 11:46:49 | 50.96024 | 17.53221 | 123° | 135km/h | 10830m | 2.9m/s | 0°C | 0% | 0hPa | 0V | 00:00:00 | 00:00:00 | 00:00:00 | |
| SQ6EMJ | 2026-09-04 11:46:43 | 50.96140 | 17.52941 | 125° | 137km/h | 10799m | 7.8m/s | 0°C | 0% | 0hPa | 0V | 00:00:00 | 00:00:00 | 00:00:00 | |
| POL1PZ | 2026-09-04 11:46:38 | 50.96227 | 17.52715 | 124° | 139km/h | 10772m | 8.2m/s | 0°C | 0% | 0hPa | 0V | 00:00:00 | 00:00:00 | 00:00:00 | |
| SQ6EMJ | 2026-09-04 11:46:37 | 50.96247 | 17.52669 | 126° | 142km/h | 10766m | 3.8m/s | 0°C | 0% | 0hPa | 0V | 00:00:00 | 00:00:00 | 00:00:00 | |
| SQ6EMJ | 2026-09-04 11:46:25 | 50.96479 | 17.52119 | 125° | 133km/h | 10697m | 6.3m/s | 0°C | 0% | 0hPa | 0V | 00:00:00 | 00:00:00 | 00:00:00 | |
| SQ6EMJ | 2026-09-04 11:46:20 | 50.96572 | 17.51906 | 122° | 133km/h | 10664m | 6.3m/s | 0°C | 0% | 0hPa | 0V | 00:00:00 | 00:00:00 | 00:00:00 | |
| POL1PZ | 2026-09-04 11:46:18 | 50.96605 | 17.51813 | 121° | 133km/h | 10651m | 6.6m/s | 0°C | 0% | 0hPa | 0V | 00:00:00 | 00:00:00 | 00:00:00 | |
| SQ6EMJ | 2026-09-04 11:46:14 | 50.96676 | 17.51636 | 126° | 131km/h | 10629m | 4.3m/s | 0°C | 0% | 0hPa | 0V | 00:00:00 | 00:00:00 | 00:00:00 | |
| SQ6EMJ | 2026-09-04 11:46:08 | 50.96784 | 17.51368 | 122° | 137km/h | 10596m | 6.8m/s | 0°C | 0% | 0hPa | 0V | 00:00:00 | 00:00:00 | 00:00:00 | |
| SQ6EMJ | 2026-09-04 11:46:02 | 50.96900 | 17.51100 | 123° | 135km/h | 10564m | 3.6m/s | 0°C | 0% | 0hPa | 0V | 00:00:00 | 00:00:00 | 00:00:00 | |
| SQ6EMJ | 2026-09-04 11:45:57 | 50.97004 | 17.50836 | 123° | 122km/h | 10532m | 5.9m/s | 0°C | 0% | 0hPa | 0V | 00:00:00 | 00:00:00 | 00:00:00 | |
| SQ6EMJ | 2026-09-04 11:45:51 | 50.97095 | 17.50627 | 126° | 128km/h | 10502m | 8.9m/s | 0°C | 0% | 0hPa | 0V | 00:00:00 | 00:00:00 | 00:00:00 | |
| SQ6EMJ | 2026-09-04 11:45:45 | 50.97194 | 17.50367 | 122° | 128km/h | 10466m | 2.2m/s | 0°C | 0% | 0hPa | 0V | 00:00:00 | 00:00:00 | 00:00:00 | |
| SQ6EMJ | 2026-09-04 11:45:39 | 50.97301 | 17.50112 | 120° | 124km/h | 10433m | 5.2m/s | 0°C | 0% | 0hPa | 0V | 00:00:00 | 00:00:00 | 00:00:00 | |
| POL1PZ | 2026-09-04 11:45:35 | 50.97367 | 17.49933 | 124° | 130km/h | 10414m | 4.5m/s | 0°C | 0% | 0hPa | 0V | 00:00:00 | 00:00:00 | 00:00:00 | |
| SQ6EMJ | 2026-09-04 11:45:34 | 50.97385 | 17.49890 | 123° | 128km/h | 10409m | 4.8m/s | 0°C | 0% | 0hPa | 0V | 00:00:00 | 00:00:00 | 00:00:00 | |
| SQ6EMJ | 2026-09-04 11:45:28 | 50.97495 | 17.49630 | 124° | 124km/h | 10380m | 4.3m/s | 0°C | 0% | 0hPa | 0V | 00:00:00 | 00:00:00 | 00:00:00 | |
| SQ6EMJ | 2026-09-04 11:45:17 | 50.97688 | 17.49160 | 127° | 131km/h | 10324m | 4.9m/s | 0°C | 0% | 0hPa | 0V | 00:00:00 | 00:00:00 | 00:00:00 | |
| POL1PZ | 2026-09-04 11:45:14 | 50.97743 | 17.49033 | 122° | 130km/h | 10311m | 5.1m/s | 0°C | 0% | 0hPa | 0V | 00:00:00 | 00:00:00 | 00:00:00 | |
| SQ6EMJ | 2026-09-04 11:45:11 | 50.97789 | 17.48899 | 120° | 131km/h | 10294m | 5.4m/s | 0°C | 0% | 0hPa | 0V | 00:00:00 | 00:00:00 | 00:00:00 | |
| SQ6EMJ | 2026-09-04 11:45:06 | 50.97879 | 17.48693 | 127° | 115km/h | 10270m | 5.3m/s | 0°C | 0% | 0hPa | 0V | 00:00:00 | 00:00:00 | 00:00:00 | |
| SQ6EMJ | 2026-09-04 11:45:00 | 50.97976 | 17.48430 | 125° | 133km/h | 10237m | 5.0m/s | 0°C | 0% | 0hPa | 0V | 00:00:00 | 00:00:00 | 00:00:00 | |
| POL1PZ | 2026-09-04 11:44:54 | 50.98082 | 17.48178 | 122° | 124km/h | 10201m | 5.6m/s | 0°C | 0% | 0hPa | 0V | 00:00:00 | 00:00:00 | 00:00:00 | |
| SQ6EMJ | 2026-09-04 11:44:48 | 50.98182 | 17.47921 | 123° | 124km/h | 10166m | 5.0m/s | 0°C | 0% | 0hPa | 0V | 00:00:00 | 00:00:00 | 00:00:00 | |
| SQ6EMJ | 2026-09-04 11:44:43 | 50.98264 | 17.47722 | 126° | 115km/h | 10142m | 4.6m/s | 0°C | 0% | 0hPa | 0V | 00:00:00 | 00:00:00 | 00:00:00 | |
| SQ6EMJ | 2026-09-04 11:44:38 | 50.98351 | 17.47518 | 121° | 110km/h | 10113m | 3.8m/s | 0°C | 0% | 0hPa | 0V | 00:00:00 | 00:00:00 | 00:00:00 | |
| POL1PZ | 2026-09-04 11:44:33 | 50.98421 | 17.47322 | 118° | 113km/h | 10089m | 3.6m/s | 0°C | 0% | 0hPa | 0V | 00:00:00 | 00:00:00 | 00:00:00 | |
| SQ6EMJ | 2026-09-04 11:44:32 | 50.98434 | 17.47282 | 118° | 111km/h | 10083m | 9.2m/s | 0°C | 0% | 0hPa | 0V | 00:00:00 | 00:00:00 | 00:00:00 | |
| SQ6EMJ | 2026-09-04 11:44:27 | 50.98516 | 17.47072 | 124° | 128km/h | 10048m | 4.4m/s | 0°C | 0% | 0hPa | 0V | 00:00:00 | 00:00:00 | 00:00:00 | |
| SQ6EMJ | 2026-09-04 11:44:21 | 50.98600 | 17.46827 | 119° | 104km/h | 10015m | 5.9m/s | 0°C | 0% | 0hPa | 0V | 00:00:00 | 00:00:00 | 00:00:00 | |
| SQ6EMJ | 2026-09-04 11:44:16 | 50.98663 | 17.46626 | 119° | 119km/h | 9991m | 3.3m/s | 0°C | 0% | 0hPa | 0V | 00:00:00 | 00:00:00 | 00:00:00 | |
| POL1PZ | 2026-09-04 11:44:12 | 50.98717 | 17.46453 | 120° | 113km/h | 9965m | 4.8m/s | 0°C | 0% | 0hPa | 0V | 00:00:00 | 00:00:00 | 00:00:00 | |
| SQ6EMJ | 2026-09-04 11:44:10 | 50.98746 | 17.46372 | 122° | 115km/h | 9954m | 4.4m/s | 0°C | 0% | 0hPa | 0V | 00:00:00 | 00:00:00 | 00:00:00 | |
| SQ6EMJ | 2026-09-04 11:44:05 | 50.98812 | 17.46157 | 116° | 122km/h | 9928m | 4.8m/s | 0°C | 0% | 0hPa | 0V | 00:00:00 | 00:00:00 | 00:00:00 | |
| SQ6EMJ | 2026-09-04 11:43:59 | 50.98897 | 17.45906 | 116° | 115km/h | 9891m | 4.0m/s | 0°C | 0% | 0hPa | 0V | 00:00:00 | 00:00:00 | 00:00:00 | |
| SQ6EMJ | 2026-09-04 11:43:53 | 50.98975 | 17.45641 | 118° | 126km/h | 9855m | 4.9m/s | 0°C | 0% | 0hPa | 0V | 00:00:00 | 00:00:00 | 00:00:00 | |
| POL1PZ | 2026-09-04 11:43:48 | 50.99050 | 17.45423 | 117° | 126km/h | 9825m | 5.1m/s | 0°C | 0% | 0hPa | 0V | 00:00:00 | 00:00:00 | 00:00:00 | |
| SQ6EMJ | 2026-09-04 11:43:37 | 50.99199 | 17.44932 | 124° | 120km/h | 9763m | 2.6m/s | 0°C | 0% | 0hPa | 0V | 00:00:00 | 00:00:00 | 00:00:00 | |
| SQ6EMJ | 2026-09-04 11:43:31 | 50.99274 | 17.44667 | 117° | 120km/h | 9735m | 3.6m/s | 0°C | 0% | 0hPa | 0V | 00:00:00 | 00:00:00 | 00:00:00 | |
| POL1PZ | 2026-09-04 11:43:26 | 50.99344 | 17.44462 | 113° | 119km/h | 9712m | 3.8m/s | 0°C | 0% | 0hPa | 0V | 00:00:00 | 00:00:00 | 00:00:00 | |
| SQ6EMJ | 2026-09-04 11:43:20 | 50.99417 | 17.44201 | 125° | 119km/h | 9680m | 4.6m/s | 0°C | 0% | 0hPa | 0V | 00:00:00 | 00:00:00 | 00:00:00 | |
| SQ6EMJ | 2026-09-04 11:43:14 | 50.99507 | 17.43956 | 115° | 133km/h | 9646m | 5.1m/s | 0°C | 0% | 0hPa | 0V | 00:00:00 | 00:00:00 | 00:00:00 | |
| SQ6EMJ | 2026-09-04 11:43:09 | 50.99571 | 17.43734 | 123° | 126km/h | 9616m | 4.2m/s | 0°C | 0% | 0hPa | 0V | 00:00:00 | 00:00:00 | 00:00:00 | |
| POL1PZ | 2026-09-04 11:43:06 | 50.99617 | 17.43604 | 119° | 119km/h | 9603m | 4.6m/s | 0°C | 0% | 0hPa | 0V | 00:00:00 | 00:00:00 | 00:00:00 | |
| SQ6EMJ | 2026-09-04 11:43:04 | 50.99641 | 17.43521 | 111° | 113km/h | 9590m | 5.1m/s | 0°C | 0% | 0hPa | 0V | 00:00:00 | 00:00:00 | 00:00:00 | |
| SQ6EMJ | 2026-09-04 11:42:57 | 50.99731 | 17.43228 | 107° | 117km/h | 9545m | 6.6m/s | 0°C | 0% | 0hPa | 0V | 00:00:00 | 00:00:00 | 00:00:00 | |
| SQ6EMJ | 2026-09-04 11:42:51 | 50.99793 | 17.42995 | 114° | 111km/h | 9511m | 7.9m/s | 0°C | 0% | 0hPa | 0V | 00:00:00 | 00:00:00 | 00:00:00 | |
| SQ6EMJ | 2026-09-04 11:42:46 | 50.99859 | 17.42786 | 122° | 130km/h | 9481m | 4.7m/s | 0°C | 0% | 0hPa | 0V | 00:00:00 | 00:00:00 | 00:00:00 | |
| POL1PZ | 2026-09-04 11:42:44 | 50.99884 | 17.42698 | 110° | 113km/h | 9473m | 5.7m/s | 0°C | 0% | 0hPa | 0V | 00:00:00 | 00:00:00 | 00:00:00 | |
| SQ6EMJ | 2026-09-04 11:42:40 | 50.99928 | 17.42539 | 124° | 113km/h | 9448m | 5.3m/s | 0°C | 0% | 0hPa | 0V | 00:00:00 | 00:00:00 | 00:00:00 | |
| SQ6EMJ | 2026-09-04 11:42:35 | 50.99985 | 17.42346 | 114° | 106km/h | 9421m | 3.5m/s | 0°C | 0% | 0hPa | 0V | 00:00:00 | 00:00:00 | 00:00:00 | |
| SQ6EMJ | 2026-09-04 11:42:29 | 51.00065 | 17.42091 | 116° | 113km/h | 9389m | 4.6m/s | 0°C | 0% | 0hPa | 0V | 00:00:00 | 00:00:00 | 00:00:00 | |
| POL1PZ | 2026-09-04 11:42:24 | 51.00118 | 17.41895 | 119° | 113km/h | 9359m | 2.5m/s | 0°C | 0% | 0hPa | 0V | 00:00:00 | 00:00:00 | 00:00:00 | |
| SQ6EMJ | 2026-09-04 11:42:18 | 51.00202 | 17.41647 | 115° | 117km/h | 9331m | 3.6m/s | 0°C | 0% | 0hPa | 0V | 00:00:00 | 00:00:00 | 00:00:00 | |
| SQ6EMJ | 2026-09-04 11:42:12 | 51.00265 | 17.41421 | 117° | 120km/h | 9295m | 6.3m/s | 0°C | 0% | 0hPa | 0V | 00:00:00 | 00:00:00 | 00:00:00 | |
| SQ6EMJ | 2026-09-04 11:42:06 | 51.00335 | 17.41196 | 116° | 93km/h | 9261m | 5.5m/s | 0°C | 0% | 0hPa | 0V | 00:00:00 | 00:00:00 | 00:00:00 | |
| POL1PZ | 2026-09-04 11:42:02 | 51.00390 | 17.41046 | 121° | 117km/h | 9239m | 1.9m/s | 0°C | 0% | 0hPa | 0V | 00:00:00 | 00:00:00 | 00:00:00 | |
| SQ6EMJ | 2026-09-04 11:42:00 | 51.00415 | 17.40969 | 113° | 91km/h | 9228m | 6.1m/s | 0°C | 0% | 0hPa | 0V | 00:00:00 | 00:00:00 | 00:00:00 | |
| SQ6EMJ | 2026-09-04 11:41:54 | 51.00480 | 17.40754 | 125° | 110km/h | 9194m | 7.2m/s | 0°C | 0% | 0hPa | 0V | 00:00:00 | 00:00:00 | 00:00:00 | |
| SQ6EMJ | 2026-09-04 11:41:48 | 51.00551 | 17.40529 | 114° | 106km/h | 9161m | 8.5m/s | 0°C | 0% | 0hPa | 0V | 00:00:00 | 00:00:00 | 00:00:00 | |
| SQ6EMJ | 2026-09-04 11:41:43 | 51.00618 | 17.40351 | 121° | 119km/h | 9130m | 5.8m/s | 0°C | 0% | 0hPa | 0V | 00:00:00 | 00:00:00 | 00:00:00 | |
| POL1PZ | 2026-09-04 11:41:42 | 51.00632 | 17.40308 | 115° | 120km/h | 9124m | 5.4m/s | 0°C | 0% | 0hPa | 0V | 00:00:00 | 00:00:00 | 00:00:00 | |
| SQ6EMJ | 2026-09-04 11:41:37 | 51.00690 | 17.40118 | 127° | 119km/h | 9093m | 3.8m/s | 0°C | 0% | 0hPa | 0V | 00:00:00 | 00:00:00 | 00:00:00 | |
| SQ6EMJ | 2026-09-04 11:41:32 | 51.00747 | 17.39914 | 111° | 113km/h | 9064m | 6.2m/s | 0°C | 0% | 0hPa | 0V | 00:00:00 | 00:00:00 | 00:00:00 | |
| SQ6EMJ | 2026-09-04 11:41:25 | 51.00840 | 17.39647 | 127° | 111km/h | 9024m | 2.3m/s | 0°C | 0% | 0hPa | 0V | 00:00:00 | 00:00:00 | 00:00:00 | |
| POL1PZ | 2026-09-04 11:41:22 | 51.00876 | 17.39545 | 107° | 99km/h | 9007m | 4.7m/s | 0°C | 0% | 0hPa | 0V | 00:00:00 | 00:00:00 | 00:00:00 | |
| SQ6EMJ | 2026-09-04 11:41:18 | 51.00922 | 17.39382 | 127° | 111km/h | 8984m | 4.0m/s | 0°C | 0% | 0hPa | 0V | 00:00:00 | 00:00:00 | 00:00:00 | |
| SQ6EMJ | 2026-09-04 11:41:13 | 51.00978 | 17.39197 | 113° | 102km/h | 8951m | 4.4m/s | 0°C | 0% | 0hPa | 0V | 00:00:00 | 00:00:00 | 00:00:00 | |
| SQ6EMJ | 2026-09-04 11:41:08 | 51.01040 | 17.39011 | 105° | 104km/h | 8917m | 8.1m/s | 0°C | 0% | 0hPa | 0V | 00:00:00 | 00:00:00 | 00:00:00 | |
| POL1PZ | 2026-09-04 11:41:01 | 51.01119 | 17.38753 | 117° | 111km/h | 8876m | 9.0m/s | 0°C | 0% | 0hPa | 0V | 00:00:00 | 00:00:00 | 00:00:00 | |
| SQ6EMJ | 2026-09-04 11:40:56 | 51.01168 | 17.38550 | 108° | 111km/h | 8847m | 8.0m/s | 0°C | 0% | 0hPa | 0V | 00:00:00 | 00:00:00 | 00:00:00 | |
| SQ6EMJ | 2026-09-04 11:40:50 | 51.01236 | 17.38330 | 108° | 108km/h | 8808m | 4.4m/s | 0°C | 0% | 0hPa | 0V | 00:00:00 | 00:00:00 | 00:00:00 | |
| POL1PZ | 2026-09-04 11:40:41 | 51.01321 | 17.38009 | 117° | 78km/h | 8757m | 7.5m/s | 0°C | 0% | 0hPa | 0V | 00:00:00 | 00:00:00 | 00:00:00 | |
| SQ6EMJ | 2026-09-04 11:40:39 | 51.01340 | 17.37941 | 112° | 100km/h | 8746m | 5.9m/s | 0°C | 0% | 0hPa | 0V | 00:00:00 | 00:00:00 | 00:00:00 | |
| SQ6EMJ | 2026-09-04 11:40:33 | 51.01400 | 17.37710 | 117° | 108km/h | 8704m | 7.7m/s | 0°C | 0% | 0hPa | 0V | 00:00:00 | 00:00:00 | 00:00:00 | |
| SQ6EMJ | 2026-09-04 11:40:28 | 51.01452 | 17.37529 | 115° | 99km/h | 8673m | 4.7m/s | 0°C | 0% | 0hPa | 0V | 00:00:00 | 00:00:00 | 00:00:00 | |
| SQ6EMJ | 2026-09-04 11:40:22 | 51.01522 | 17.37311 | 105° | 100km/h | 8639m | 5.3m/s | 0°C | 0% | 0hPa | 0V | 00:00:00 | 00:00:00 | 00:00:00 | |
| POL1PZ | 2026-09-04 11:40:19 | 51.01554 | 17.37193 | 125° | 108km/h | 8621m | 3.9m/s | 0°C | 0% | 0hPa | 0V | 00:00:00 | 00:00:00 | 00:00:00 | |
| SQ6EMJ | 2026-09-04 11:40:16 | 51.01582 | 17.37089 | 102° | 95km/h | 8605m | 8.3m/s | 0°C | 0% | 0hPa | 0V | 00:00:00 | 00:00:00 | 00:00:00 | |
| SQ6EMJ | 2026-09-04 11:40:11 | 51.01631 | 17.36901 | 119° | 100km/h | 8577m | 3.5m/s | 0°C | 0% | 0hPa | 0V | 00:00:00 | 00:00:00 | 00:00:00 | |
| SQ6EMJ | 2026-09-04 11:40:05 | 51.01680 | 17.36675 | 116° | 106km/h | 8543m | 7.0m/s | 0°C | 0% | 0hPa | 0V | 00:00:00 | 00:00:00 | 00:00:00 | |
| SQ6EMJ | 2026-09-04 11:40:00 | 51.01728 | 17.36502 | 122° | 110km/h | 8510m | 6.7m/s | 0°C | 0% | 0hPa | 0V | 00:00:00 | 00:00:00 | 00:00:00 | |
| POL1PZ | 2026-09-04 11:39:58 | 51.01754 | 17.36430 | 117° | 95km/h | 8499m | 4.6m/s | 0°C | 0% | 0hPa | 0V | 00:00:00 | 00:00:00 | 00:00:00 | |
| SQ6EMJ | 2026-09-04 11:39:54 | 51.01781 | 17.36288 | 117° | 93km/h | 8473m | 5.4m/s | 0°C | 0% | 0hPa | 0V | 00:00:00 | 00:00:00 | 00:00:00 | |
| SQ6EMJ | 2026-09-04 11:39:48 | 51.01849 | 17.36035 | 125° | 93km/h | 8429m | 4.0m/s | 0°C | 0% | 0hPa | 0V | 00:00:00 | 00:00:00 | 00:00:00 | |
| SQ6EMJ | 2026-09-04 11:39:42 | 51.01900 | 17.35864 | 110° | 104km/h | 8402m | 3.8m/s | 0°C | 0% | 0hPa | 0V | 00:00:00 | 00:00:00 | 00:00:00 | |
| POL1PZ | 2026-09-04 11:39:37 | 51.01958 | 17.35686 | 116° | 99km/h | 8369m | 4.9m/s | 0°C | 0% | 0hPa | 0V | 00:00:00 | 00:00:00 | 00:00:00 | |
| SQ6EMJ | 2026-09-04 11:39:36 | 51.01968 | 17.35649 | 110° | 99km/h | 8362m | 8.3m/s | 0°C | 0% | 0hPa | 0V | 00:00:00 | 00:00:00 | 00:00:00 | |
| SQ6EMJ | 2026-09-04 11:39:30 | 51.02035 | 17.35431 | 115° | 91km/h | 8323m | 7.1m/s | 0°C | 0% | 0hPa | 0V | 00:00:00 | 00:00:00 | 00:00:00 | |
| SQ6EMJ | 2026-09-04 11:39:24 | 51.02087 | 17.35225 | 114° | 106km/h | 8288m | 4.5m/s | 0°C | 0% | 0hPa | 0V | 00:00:00 | 00:00:00 | 00:00:00 | |
| SQ6EMJ | 2026-09-04 11:39:20 | 51.02138 | 17.35040 | 105° | 104km/h | 8259m | 6.0m/s | 0°C | 0% | 0hPa | 0V | 00:00:00 | 00:00:00 | 00:00:00 | |
| POL1PZ | 2026-09-04 11:39:17 | 51.02151 | 17.34961 | 111° | 99km/h | 8246m | 5.4m/s | 0°C | 0% | 0hPa | 0V | 00:00:00 | 00:00:00 | 00:00:00 | |
| SQ6EMJ | 2026-09-04 11:39:13 | 51.02202 | 17.34818 | 118° | 93km/h | 8220m | 8.1m/s | 0°C | 0% | 0hPa | 0V | 00:00:00 | 00:00:00 | 00:00:00 | |
| SQ6EMJ | 2026-09-04 11:39:07 | 51.02264 | 17.34628 | 115° | 100km/h | 8186m | 5.7m/s | 0°C | 0% | 0hPa | 0V | 00:00:00 | 00:00:00 | 00:00:00 | |
| SQ6EMJ | 2026-09-04 11:39:01 | 51.02312 | 17.34423 | 115° | 97km/h | 8153m | 5.3m/s | 0°C | 0% | 0hPa | 0V | 00:00:00 | 00:00:00 | 00:00:00 | |
| POL1PZ | 2026-09-04 11:38:56 | 51.02360 | 17.34257 | 114° | 78km/h | 8119m | 7.7m/s | 0°C | 0% | 0hPa | 0V | 00:00:00 | 00:00:00 | 00:00:00 | |
| SQ6EMJ | 2026-09-04 11:38:54 | 51.02373 | 17.34189 | 102° | 89km/h | 8106m | 4.9m/s | 0°C | 0% | 0hPa | 0V | 00:00:00 | 00:00:00 | 00:00:00 | |
| SQ6EMJ | 2026-09-04 11:38:49 | 51.02421 | 17.34028 | 116° | 95km/h | 8076m | 6.4m/s | 0°C | 0% | 0hPa | 0V | 00:00:00 | 00:00:00 | 00:00:00 | |
| SQ6EMJ | 2026-09-04 11:38:44 | 51.02477 | 17.33851 | 125° | 97km/h | 8045m | 4.6m/s | 0°C | 0% | 0hPa | 0V | 00:00:00 | 00:00:00 | 00:00:00 | |
| SQ6EMJ | 2026-09-04 11:38:38 | 51.02534 | 17.33655 | 130° | 95km/h | 8010m | 4.2m/s | 0°C | 0% | 0hPa | 0V | 00:00:00 | 00:00:00 | 00:00:00 | |
| POL1PZ | 2026-09-04 11:38:35 | 51.02573 | 17.33556 | 108° | 93km/h | 7995m | 6.8m/s | 0°C | 0% | 0hPa | 0V | 00:00:00 | 00:00:00 | 00:00:00 | |
| SQ6EMJ | 2026-09-04 11:38:32 | 51.02593 | 17.33452 | 117° | 86km/h | 7977m | 5.6m/s | 0°C | 0% | 0hPa | 0V | 00:00:00 | 00:00:00 | 00:00:00 | |
| SQ6EMJ | 2026-09-04 11:38:27 | 51.02643 | 17.33305 | 112° | 93km/h | 7939m | 7.9m/s | 0°C | 0% | 0hPa | 0V | 00:00:00 | 00:00:00 | 00:00:00 | |
| SQ6EMJ | 2026-09-04 11:38:21 | 51.02709 | 17.33101 | 107° | 99km/h | 7896m | 6.6m/s | 0°C | 0% | 0hPa | 0V | 00:00:00 | 00:00:00 | 00:00:00 | |
| SQ6EMJ | 2026-09-04 11:38:15 | 51.02769 | 17.32887 | 114° | 88km/h | 7861m | 7.4m/s | 0°C | 0% | 0hPa | 0V | 00:00:00 | 00:00:00 | 00:00:00 | |
| POL1PZ | 2026-09-04 11:38:14 | 51.02777 | 17.32856 | 109° | 78km/h | 7853m | 6.7m/s | 0°C | 0% | 0hPa | 0V | 00:00:00 | 00:00:00 | 00:00:00 | |
| SQ6EMJ | 2026-09-04 11:38:10 | 51.02799 | 17.32717 | 109° | 110km/h | 7839m | 4.4m/s | 0°C | 0% | 0hPa | 0V | 00:00:00 | 00:00:00 | 00:00:00 | |
| SQ6EMJ | 2026-09-04 11:38:05 | 51.02852 | 17.32549 | 108° | 82km/h | 7809m | 3.1m/s | 0°C | 0% | 0hPa | 0V | 00:00:00 | 00:00:00 | 00:00:00 | |
| SQ6EMJ | 2026-09-04 11:37:59 | 51.02909 | 17.32329 | 107° | 71km/h | 7772m | 5.4m/s | 0°C | 0% | 0hPa | 0V | 00:00:00 | 00:00:00 | 00:00:00 | |
| SQ6EMJ | 2026-09-04 11:37:54 | 51.02950 | 17.32155 | 119° | 97km/h | 7742m | 6.2m/s | 0°C | 0% | 0hPa | 0V | 00:00:00 | 00:00:00 | 00:00:00 | |
| POL1PZ | 2026-09-04 11:37:53 | 51.02962 | 17.32122 | 120° | 91km/h | 7737m | 4.7m/s | 0°C | 0% | 0hPa | 0V | 00:00:00 | 00:00:00 | 00:00:00 | |
| SQ6EMJ | 2026-09-04 11:37:47 | 51.03027 | 17.31904 | 109° | 102km/h | 7700m | 8.3m/s | 0°C | 0% | 0hPa | 0V | 00:00:00 | 00:00:00 | 00:00:00 | |
| SQ6EMJ | 2026-09-04 11:37:42 | 51.03060 | 17.31735 | 113° | 104km/h | 7672m | 8.0m/s | 0°C | 0% | 0hPa | 0V | 00:00:00 | 00:00:00 | 00:00:00 | |
| SQ6EMJ | 2026-09-04 11:37:36 | 51.03114 | 17.31549 | 117° | 69km/h | 7635m | 7.3m/s | 0°C | 0% | 0hPa | 0V | 00:00:00 | 00:00:00 | 00:00:00 | |
| POL1PZ | 2026-09-04 11:37:32 | 51.03141 | 17.31407 | 106° | 84km/h | 7604m | 6.8m/s | 0°C | 0% | 0hPa | 0V | 00:00:00 | 00:00:00 | 00:00:00 | |
| SQ6EMJ | 2026-09-04 11:37:30 | 51.03153 | 17.31347 | 114° | 77km/h | 7593m | 3.9m/s | 0°C | 0% | 0hPa | 0V | 00:00:00 | 00:00:00 | 00:00:00 | |
| SQ6EMJ | 2026-09-04 11:37:25 | 51.03201 | 17.31188 | 103° | 106km/h | 7564m | 6.1m/s | 0°C | 0% | 0hPa | 0V | 00:00:00 | 00:00:00 | 00:00:00 | |
| SQ6EMJ | 2026-09-04 11:37:19 | 51.03244 | 17.30994 | 118° | 120km/h | 7533m | 6.8m/s | 0°C | 0% | 0hPa | 0V | 00:00:00 | 00:00:00 | 00:00:00 | |
| SQ6EMJ | 2026-09-04 11:37:13 | 51.03298 | 17.30783 | 120° | 124km/h | 7492m | 6.6m/s | 0°C | 0% | 0hPa | 0V | 00:00:00 | 00:00:00 | 00:00:00 | |
| POL1PZ | 2026-09-04 11:37:12 | 51.03310 | 17.30737 | 109° | 128km/h | 7486m | 4.7m/s | 0°C | 0% | 0hPa | 0V | 00:00:00 | 00:00:00 | 00:00:00 | |
| SQ6EMJ | 2026-09-04 11:37:07 | 51.03360 | 17.30562 | 126° | 104km/h | 7450m | 2.5m/s | 0°C | 0% | 0hPa | 0V | 00:00:00 | 00:00:00 | 00:00:00 | |
| SQ6EMJ | 2026-09-04 11:36:59 | 51.03438 | 17.30257 | 101° | 99km/h | 7389m | 5.2m/s | 0°C | 0% | 0hPa | 0V | 00:00:00 | 00:00:00 | 00:00:00 | |
| SQ6EMJ | 2026-09-04 11:36:54 | 51.03493 | 17.30075 | 113° | 124km/h | 7351m | 7.8m/s | 0°C | 0% | 0hPa | 0V | 00:00:00 | 00:00:00 | 00:00:00 | |
| POL1PZ | 2026-09-04 11:36:49 | 51.03540 | 17.29843 | 124° | 115km/h | 7313m | 9.1m/s | 0°C | 0% | 0hPa | 0V | 00:00:00 | 00:00:00 | 00:00:00 | |
| SQ6EMJ | 2026-09-04 11:36:48 | 51.03555 | 17.29808 | 128° | 100km/h | 7304m | 5.9m/s | 0°C | 0% | 0hPa | 0V | 00:00:00 | 00:00:00 | 00:00:00 | |
| SQ6EMJ | 2026-09-04 11:36:40 | 51.03647 | 17.29495 | 114° | 100km/h | 7249m | 7.4m/s | 0°C | 0% | 0hPa | 0V | 00:00:00 | 00:00:00 | 00:00:00 | |
| SQ6EMJ | 2026-09-04 11:36:34 | 51.03709 | 17.29236 | 123° | 113km/h | 7216m | -0.2m/s | 0°C | 0% | 0hPa | 0V | 00:00:00 | 00:00:00 | 00:00:00 | |
| POL1PZ | 2026-09-04 11:36:29 | 51.03748 | 17.29032 | 104° | 104km/h | 7191m | 4.8m/s | 0°C | 0% | 0hPa | 0V | 00:00:00 | 00:00:00 | 00:00:00 | |
| SQ6EMJ | 2026-09-04 11:36:27 | 51.03769 | 17.28948 | 117° | 122km/h | 7178m | 7.6m/s | 0°C | 0% | 0hPa | 0V | 00:00:00 | 00:00:00 | 00:00:00 | |
| SQ6EMJ | 2026-09-04 11:36:21 | 51.03831 | 17.28680 | 116° | 122km/h | 7135m | 6.0m/s | 0°C | 0% | 0hPa | 0V | 00:00:00 | 00:00:00 | 00:00:00 | |
| SQ6EMJ | 2026-09-04 11:36:16 | 51.03885 | 17.28472 | 104° | 128km/h | 7104m | 6.4m/s | 0°C | 0% | 0hPa | 0V | 00:00:00 | 00:00:00 | 00:00:00 | |
| SQ6EMJ | 2026-09-04 11:36:11 | 51.03940 | 17.28249 | 114° | 104km/h | 7074m | 4.0m/s | 0°C | 0% | 0hPa | 0V | 00:00:00 | 00:00:00 | 00:00:00 | |
| POL1PZ | 2026-09-04 11:36:09 | 51.03962 | 17.28112 | 107° | 124km/h | 7057m | 0.3m/s | 0°C | 0% | 0hPa | 0V | 00:00:00 | 00:00:00 | 00:00:00 | |
| SQ6EMJ | 2026-09-04 11:36:06 | 51.04000 | 17.27977 | 122° | 115km/h | 7041m | 5.2m/s | 0°C | 0% | 0hPa | 0V | 00:00:00 | 00:00:00 | 00:00:00 | |
| SQ6EMJ | 2026-09-04 11:35:59 | 51.04055 | 17.27725 | 109° | 119km/h | 7008m | 8.2m/s | 0°C | 0% | 0hPa | 0V | 00:00:00 | 00:00:00 | 00:00:00 | |
| SQ6EMJ | 2026-09-04 11:35:53 | 51.04115 | 17.27475 | 107° | 99km/h | 6972m | 6.3m/s | 0°C | 0% | 0hPa | 0V | 00:00:00 | 00:00:00 | 00:00:00 | |
| POL1PZ | 2026-09-04 11:35:51 | 51.04164 | 17.27255 | 101° | 128km/h | 6940m | 7.0m/s | 0°C | 0% | 0hPa | 0V | 00:00:00 | 00:00:00 | 00:00:00 | |
| SQ6EMJ | 2026-09-04 11:35:50 | 51.04201 | 17.27034 | 117° | 124km/h | 6902m | 7.4m/s | 0°C | 0% | 0hPa | 0V | 00:00:00 | 00:00:00 | 00:00:00 | |
| SQ6EMJ | 2026-09-04 11:35:41 | 51.04259 | 17.26808 | 112° | 115km/h | 6871m | 7.5m/s | 0°C | 0% | 0hPa | 0V | 00:00:00 | 00:00:00 | 00:00:00 | |
| SQ6EMJ | 2026-09-04 11:35:32 | 51.04306 | 17.26598 | 111° | 82km/h | 6843m | 6.0m/s | 0°C | 0% | 0hPa | 0V | 00:00:00 | 00:00:00 | 00:00:00 | |
| POL1PZ | 2026-09-04 11:35:27 | 51.04346 | 17.26392 | 109° | 128km/h | 6814m | 3.3m/s | 0°C | 0% | 0hPa | 0V | 00:00:00 | 00:00:00 | 00:00:00 | |
| SQ6EMJ | 2026-09-04 11:35:21 | 51.04398 | 17.26168 | 107° | 104km/h | 6786m | 5.8m/s | 0°C | 0% | 0hPa | 0V | 00:00:00 | 00:00:00 | 00:00:00 | |
| SQ6EMJ | 2026-09-04 11:35:16 | 51.04444 | 17.25966 | 118° | 89km/h | 6759m | 1.9m/s | 0°C | 0% | 0hPa | 0V | 00:00:00 | 00:00:00 | 00:00:00 | |
| SQ6EMJ | 2026-09-04 11:35:11 | 51.04496 | 17.25784 | 115° | 89km/h | 6731m | 8.6m/s | 0°C | 0% | 0hPa | 0V | 00:00:00 | 00:00:00 | 00:00:00 | |
| POL1PZ | 2026-09-04 11:35:06 | 51.04545 | 17.25585 | 106° | 115km/h | 6700m | 4.0m/s | 0°C | 0% | 0hPa | 0V | 00:00:00 | 00:00:00 | 00:00:00 | |
| SQ6EMJ | 2026-09-04 11:35:05 | 51.04552 | 17.25543 | 103° | 100km/h | 6696m | 3.4m/s | 0°C | 0% | 0hPa | 0V | 00:00:00 | 00:00:00 | 00:00:00 | |
| SQ6EMJ | 2026-09-04 11:34:59 | 51.04597 | 17.25326 | 113° | 122km/h | 6658m | 6.9m/s | 0°C | 0% | 0hPa | 0V | 00:00:00 | 00:00:00 | 00:00:00 | |
| SQ6EMJ | 2026-09-04 11:34:52 | 51.04653 | 17.25040 | 114° | 119km/h | 6611m | 6.2m/s | 0°C | 0% | 0hPa | 0V | 00:00:00 | 00:00:00 | 00:00:00 | |
| POL1PZ | 2026-09-04 11:34:46 | 51.04697 | 17.24796 | 116° | 95km/h | 6579m | 6.3m/s | 0°C | 0% | 0hPa | 0V | 00:00:00 | 00:00:00 | 00:00:00 | |
| SQ6EMJ | 2026-09-04 11:34:45 | 51.04706 | 17.24760 | 113° | 104km/h | 6573m | 7.2m/s | 0°C | 0% | 0hPa | 0V | 00:00:00 | 00:00:00 | 00:00:00 | |
| SQ6EMJ | 2026-09-04 11:34:39 | 51.04763 | 17.24534 | 116° | 120km/h | 6535m | 4.3m/s | 0°C | 0% | 0hPa | 0V | 00:00:00 | 00:00:00 | 00:00:00 | |
| SQ6EMJ | 2026-09-04 11:34:28 | 51.04875 | 17.24101 | 120° | 89km/h | 6466m | 4.1m/s | 0°C | 0% | 0hPa | 0V | 00:00:00 | 00:00:00 | 00:00:00 | |
| POL1PZ | 2026-09-04 11:34:25 | 51.04913 | 17.23979 | 106° | 128km/h | 6448m | 5.5m/s | 0°C | 0% | 0hPa | 0V | 00:00:00 | 00:00:00 | 00:00:00 | |
| SQ6EMJ | 2026-09-04 11:34:18 | 51.04977 | 17.23697 | 101° | 115km/h | 6401m | 6.6m/s | 0°C | 0% | 0hPa | 0V | 00:00:00 | 00:00:00 | 00:00:00 | |
| SQ6EMJ | 2026-09-04 11:34:13 | 51.05017 | 17.23509 | 119° | 117km/h | 6370m | 7.6m/s | 0°C | 0% | 0hPa | 0V | 00:00:00 | 00:00:00 | 00:00:00 | |
| SQ6EMJ | 2026-09-04 11:34:07 | 51.05079 | 17.23245 | 107° | 93km/h | 6336m | 5.0m/s | 0°C | 0% | 0hPa | 0V | 00:00:00 | 00:00:00 | 00:00:00 | |
| POL1PZ | 2026-09-04 11:34:02 | 51.05135 | 17.23032 | 108° | 110km/h | 6311m | 5.9m/s | 0°C | 0% | 0hPa | 0V | 00:00:00 | 00:00:00 | 00:00:00 | |
| SQ6EMJ | 2026-09-04 11:33:54 | 51.05217 | 17.22710 | 125° | 100km/h | 6268m | 3.6m/s | 0°C | 0% | 0hPa | 0V | 00:00:00 | 00:00:00 | 00:00:00 | |
| SQ6EMJ | 2026-09-04 11:33:48 | 51.05280 | 17.22462 | 113° | 102km/h | 6235m | 6.3m/s | 0°C | 0% | 0hPa | 0V | 00:00:00 | 00:00:00 | 00:00:00 | |
| SQ6EMJ | 2026-09-04 11:33:43 | 51.05334 | 17.22262 | 124° | 130km/h | 6202m | 6.6m/s | 0°C | 0% | 0hPa | 0V | 00:00:00 | 00:00:00 | 00:00:00 | |
| POL1PZ | 2026-09-04 11:33:41 | 51.05366 | 17.22188 | 119° | 91km/h | 6189m | 6.6m/s | 0°C | 0% | 0hPa | 0V | 00:00:00 | 00:00:00 | 00:00:00 | |
| SQ6EMJ | 2026-09-04 11:33:38 | 51.05393 | 17.22062 | 115° | 131km/h | 6170m | 5.2m/s | 0°C | 0% | 0hPa | 0V | 00:00:00 | 00:00:00 | 00:00:00 | |
| SQ6EMJ | 2026-09-04 11:33:31 | 51.05481 | 17.21764 | 121° | 117km/h | 6123m | 7.4m/s | 0°C | 0% | 0hPa | 0V | 00:00:00 | 00:00:00 | 00:00:00 | |
| SQ6EMJ | 2026-09-04 11:33:23 | 51.05566 | 17.21458 | 122° | 102km/h | 6069m | 3.0m/s | 0°C | 0% | 0hPa | 0V | 00:00:00 | 00:00:00 | 00:00:00 | |
| SQ6EMJ | 2026-09-04 11:33:09 | 51.05758 | 17.20875 | 107° | 124km/h | 5980m | 5.1m/s | 0°C | 0% | 0hPa | 0V | 00:00:00 | 00:00:00 | 00:00:00 | |
| SQ6EMJ | 2026-09-04 11:33:04 | 51.05828 | 17.20643 | 126° | 128km/h | 5953m | 4.5m/s | 0°C | 0% | 0hPa | 0V | 00:00:00 | 00:00:00 | 00:00:00 | |
| POL1PZ | 2026-09-04 11:32:53 | 51.05990 | 17.20158 | 115° | 113km/h | 5873m | 6.4m/s | 0°C | 0% | 0hPa | 0V | 00:00:00 | 00:00:00 | 00:00:00 | |
| SQ6EMJ | 2026-09-04 11:32:52 | 51.06002 | 17.20119 | 118° | 102km/h | 5867m | 5.0m/s | 0°C | 0% | 0hPa | 0V | 00:00:00 | 00:00:00 | 00:00:00 | |
| SQ6EMJ | 2026-09-04 11:32:45 | 51.06106 | 17.19809 | 127° | 108km/h | 5826m | 3.6m/s | 0°C | 0% | 0hPa | 0V | 00:00:00 | 00:00:00 | 00:00:00 | |
| SQ6EMJ | 2026-09-04 11:32:37 | 51.06235 | 17.19467 | 119° | 137km/h | 5775m | 4.4m/s | 0°C | 0% | 0hPa | 0V | 00:00:00 | 00:00:00 | 00:00:00 | |
| POL1PZ | 2026-09-04 11:32:28 | 51.06353 | 17.19092 | 109° | 108km/h | 5714m | 8.2m/s | 0°C | 0% | 0hPa | 0V | 00:00:00 | 00:00:00 | 00:00:00 | |
| SQ6EMJ | 2026-09-04 11:32:25 | 51.06384 | 17.18977 | 124° | 102km/h | 5695m | 6.0m/s | 0°C | 0% | 0hPa | 0V | 00:00:00 | 00:00:00 | 00:00:00 | |
| SQ6EMJ | 2026-09-04 11:32:20 | 51.06449 | 17.18794 | 105° | 110km/h | 5665m | 4.8m/s | 0°C | 0% | 0hPa | 0V | 00:00:00 | 00:00:00 | 00:00:00 | |
| SQ6EMJ | 2026-09-04 11:32:14 | 51.06528 | 17.18547 | 112° | 104km/h | 5624m | 5.7m/s | 0°C | 0% | 0hPa | 0V | 00:00:00 | 00:00:00 | 00:00:00 | |
| SQ6EMJ | 2026-09-04 11:32:06 | 51.06627 | 17.18224 | 116° | 113km/h | 5577m | 8.1m/s | 0°C | 0% | 0hPa | 0V | 00:00:00 | 00:00:00 | 00:00:00 | |
| SQ6EMJ | 2026-09-04 11:32:00 | 51.06713 | 17.17962 | 125° | 93km/h | 5543m | 6.2m/s | 0°C | 0% | 0hPa | 0V | 00:00:00 | 00:00:00 | 00:00:00 | |
| SQ6EMJ | 2026-09-04 11:31:54 | 51.06788 | 17.17723 | 126° | 100km/h | 5503m | 5.8m/s | 0°C | 0% | 0hPa | 0V | 00:00:00 | 00:00:00 | 00:00:00 | |
| SQ6EMJ | 2026-09-04 11:31:46 | 51.06885 | 17.17414 | 109° | 106km/h | 5451m | 6.6m/s | 0°C | 0% | 0hPa | 0V | 00:00:00 | 00:00:00 | 00:00:00 | |
| SQ6EMJ | 2026-09-04 11:31:35 | 51.07023 | 17.16958 | 114° | 99km/h | 5379m | 7.5m/s | 0°C | 0% | 0hPa | 0V | 00:00:00 | 00:00:00 | 00:00:00 | |
| SQ6EMJ | 2026-09-04 11:31:29 | 51.07102 | 17.16721 | 108° | 102km/h | 5346m | 4.1m/s | 0°C | 0% | 0hPa | 0V | 00:00:00 | 00:00:00 | 00:00:00 | |
| POL1PZ | 2026-09-04 11:31:22 | 51.07184 | 17.16440 | 120° | 122km/h | 5307m | 5.5m/s | 0°C | 0% | 0hPa | 0V | 00:00:00 | 00:00:00 | 00:00:00 | |
| SQ6EMJ | 2026-09-04 11:31:15 | 51.07262 | 17.16150 | 127° | 115km/h | 5261m | 3.8m/s | 0°C | 0% | 0hPa | 0V | 00:00:00 | 00:00:00 | 00:00:00 | |
| SQ6EMJ | 2026-09-04 11:31:09 | 51.07334 | 17.15912 | 120° | 104km/h | 5240m | 5.1m/s | 0°C | 0% | 0hPa | 0V | 00:00:00 | 00:00:00 | 00:00:00 | |
| POL1PZ | 2026-09-04 11:31:00 | 51.07445 | 17.15542 | 116° | 113km/h | 5188m | 5.8m/s | 0°C | 0% | 0hPa | 0V | 00:00:00 | 00:00:00 | 00:00:00 | |
| SQ6EMJ | 2026-09-04 11:30:59 | 51.07456 | 17.15498 | 109° | 120km/h | 5183m | 3.9m/s | 0°C | 0% | 0hPa | 0V | 00:00:00 | 00:00:00 | 00:00:00 | |
| SQ6EMJ | 2026-09-04 11:30:52 | 51.07539 | 17.15212 | 107° | 99km/h | 5144m | 5.1m/s | 0°C | 0% | 0hPa | 0V | 00:00:00 | 00:00:00 | 00:00:00 | |
| SQ6EMJ | 2026-09-04 11:30:45 | 51.07630 | 17.14953 | 127° | 97km/h | 5104m | 1.2m/s | 0°C | 0% | 0hPa | 0V | 00:00:00 | 00:00:00 | 00:00:00 | |
| POL1PZ | 2026-09-04 11:30:40 | 51.07680 | 17.14747 | 115° | 93km/h | 5072m | 6.0m/s | 0°C | 0% | 0hPa | 0V | 00:00:00 | 00:00:00 | 00:00:00 | |
| SQ6EMJ | 2026-09-04 11:30:27 | 51.07830 | 17.14236 | 121° | 97km/h | 4989m | 5.7m/s | 0°C | 0% | 0hPa | 0V | 00:00:00 | 00:00:00 | 00:00:00 | |
| POL1PZ | 2026-09-04 11:30:19 | 51.07925 | 17.13912 | 117° | 130km/h | 4938m | 4.9m/s | 0°C | 0% | 0hPa | 0V | 00:00:00 | 00:00:00 | 00:00:00 | |
| POL1PZ | 2026-09-04 11:29:57 | 51.08170 | 17.12993 | 123° | 110km/h | 4797m | 6.2m/s | 0°C | 0% | 0hPa | 0V | 00:00:00 | 00:00:00 | 00:00:00 | |
| POL1PZ | 2026-09-04 11:29:10 | 51.08665 | 17.11077 | 122° | 106km/h | 4524m | 3.9m/s | 0°C | 0% | 0hPa | 0V | 00:00:00 | 00:00:00 | 00:00:00 | |
| SQ6EMJ | 2026-09-04 11:28:56 | 51.08830 | 17.10495 | 115° | 133km/h | 4453m | 3.1m/s | 0°C | 0% | 0hPa | 0V | 00:00:00 | 00:00:00 | 00:00:00 | |
| SQ6EMJ | 2026-09-04 11:28:50 | 51.08904 | 17.10249 | 113° | 95km/h | 4424m | 2.7m/s | 0°C | 0% | 0hPa | 0V | 00:00:00 | 00:00:00 | 00:00:00 | |
| SQ6EMJ | 2026-09-04 11:28:29 | 51.09123 | 17.09351 | 116° | 99km/h | 4309m | 4.2m/s | 0°C | 0% | 0hPa | 0V | 00:00:00 | 00:00:00 | 00:00:00 | |
| POL1PZ | 2026-09-04 11:28:23 | 51.09192 | 17.09108 | 110° | 122km/h | 4276m | 4.3m/s | 0°C | 0% | 0hPa | 0V | 00:00:00 | 00:00:00 | 00:00:00 | |
| POL1PZ | 2026-09-04 11:27:59 | 51.09452 | 17.08168 | 123° | 108km/h | 4149m | 3.6m/s | 0°C | 0% | 0hPa | 0V | 00:00:00 | 00:00:00 | 00:00:00 |